﻿<?xml version="1.0" encoding="UTF-8" standalone="no" ?>
<gpx xmlns="http://www.topografix.com/GPX/1/1" creator="CompeGPS" version="1.1" xmlns:xsi="http://www.w3.org/2001/XMLSchema-instance" xsi:schemaLocation="http://www.topografix.com/GPX/1/1 http://www.topografix.com/GPX/1/1/gpx.xsd">
  <metadata>
    <link href="http://www.compegps.com">
      <text>CompeGPS TEAM, SL</text>
    </link>
    <time>2016-11-07T20:37:30Z</time>
    <bounds maxlat="38.209179" maxlon="-1.436020" minlat="38.191807" minlon="-1.473613"/>
  </metadata>
  <trk>
    <name>Cieza_SrraOro_Integral_900_track_gpx</name>
    <trkseg>
      <trkpt lat="38.209146" lon="-1.442292">
        <ele>414.5</ele>
        <time>2015-04-12T06:43:37Z</time>
      </trkpt>
      <trkpt lat="38.209124" lon="-1.442376">
        <ele>415.0</ele>
        <time>2015-04-12T06:43:43Z</time>
      </trkpt>
      <trkpt lat="38.209102" lon="-1.442432">
        <ele>415.9</ele>
        <time>2015-04-12T06:43:48Z</time>
      </trkpt>
      <trkpt lat="38.209096" lon="-1.442435">
        <ele>415.9</ele>
        <time>2015-04-12T06:43:50Z</time>
      </trkpt>
      <trkpt lat="38.209037" lon="-1.442435">
        <ele>416.4</ele>
        <time>2015-04-12T06:43:57Z</time>
      </trkpt>
      <trkpt lat="38.208975" lon="-1.442425">
        <ele>418.3</ele>
        <time>2015-04-12T06:44:02Z</time>
      </trkpt>
      <trkpt lat="38.208950" lon="-1.442418">
        <ele>418.3</ele>
        <time>2015-04-12T06:44:04Z</time>
      </trkpt>
      <trkpt lat="38.208910" lon="-1.442431">
        <ele>418.8</ele>
        <time>2015-04-12T06:44:07Z</time>
      </trkpt>
      <trkpt lat="38.208849" lon="-1.442429">
        <ele>419.8</ele>
        <time>2015-04-12T06:44:12Z</time>
      </trkpt>
      <trkpt lat="38.208685" lon="-1.442428">
        <ele>422.2</ele>
        <time>2015-04-12T06:44:27Z</time>
      </trkpt>
      <trkpt lat="38.208595" lon="-1.442456">
        <ele>422.2</ele>
        <time>2015-04-12T06:44:35Z</time>
      </trkpt>
      <trkpt lat="38.208390" lon="-1.442422">
        <ele>424.6</ele>
        <time>2015-04-12T06:44:51Z</time>
      </trkpt>
      <trkpt lat="38.208250" lon="-1.442384">
        <ele>426.5</ele>
        <time>2015-04-12T06:45:02Z</time>
      </trkpt>
      <trkpt lat="38.208204" lon="-1.442380">
        <ele>425.5</ele>
        <time>2015-04-12T06:45:06Z</time>
      </trkpt>
      <trkpt lat="38.208028" lon="-1.442350">
        <ele>428.4</ele>
        <time>2015-04-12T06:45:22Z</time>
      </trkpt>
      <trkpt lat="38.207921" lon="-1.442331">
        <ele>430.3</ele>
        <time>2015-04-12T06:45:34Z</time>
      </trkpt>
      <trkpt lat="38.207817" lon="-1.442308">
        <ele>431.3</ele>
        <time>2015-04-12T06:45:45Z</time>
      </trkpt>
      <trkpt lat="38.207793" lon="-1.442308">
        <ele>431.3</ele>
        <time>2015-04-12T06:45:47Z</time>
      </trkpt>
      <trkpt lat="38.207709" lon="-1.442281">
        <ele>432.2</ele>
        <time>2015-04-12T06:46:00Z</time>
      </trkpt>
      <trkpt lat="38.207610" lon="-1.442253">
        <ele>434.2</ele>
        <time>2015-04-12T06:46:14Z</time>
      </trkpt>
      <trkpt lat="38.207510" lon="-1.442226">
        <ele>435.6</ele>
        <time>2015-04-12T06:46:27Z</time>
      </trkpt>
      <trkpt lat="38.207415" lon="-1.442206">
        <ele>437.1</ele>
        <time>2015-04-12T06:46:41Z</time>
      </trkpt>
      <trkpt lat="38.207313" lon="-1.442184">
        <ele>437.5</ele>
        <time>2015-04-12T06:46:54Z</time>
      </trkpt>
      <trkpt lat="38.207288" lon="-1.442172">
        <ele>438.0</ele>
        <time>2015-04-12T06:46:57Z</time>
      </trkpt>
      <trkpt lat="38.207200" lon="-1.442139">
        <ele>438.5</ele>
        <time>2015-04-12T06:47:08Z</time>
      </trkpt>
      <trkpt lat="38.207182" lon="-1.442137">
        <ele>439.5</ele>
        <time>2015-04-12T06:47:10Z</time>
      </trkpt>
      <trkpt lat="38.207085" lon="-1.442112">
        <ele>439.9</ele>
        <time>2015-04-12T06:47:21Z</time>
      </trkpt>
      <trkpt lat="38.207060" lon="-1.442114">
        <ele>439.9</ele>
        <time>2015-04-12T06:47:25Z</time>
      </trkpt>
      <trkpt lat="38.207008" lon="-1.442088">
        <ele>440.4</ele>
        <time>2015-04-12T06:47:31Z</time>
      </trkpt>
      <trkpt lat="38.206948" lon="-1.442077">
        <ele>440.9</ele>
        <time>2015-04-12T06:47:36Z</time>
      </trkpt>
      <trkpt lat="38.206926" lon="-1.442065">
        <ele>440.9</ele>
        <time>2015-04-12T06:47:38Z</time>
      </trkpt>
      <trkpt lat="38.206834" lon="-1.442014">
        <ele>441.4</ele>
        <time>2015-04-12T06:47:47Z</time>
      </trkpt>
      <trkpt lat="38.206781" lon="-1.442003">
        <ele>442.3</ele>
        <time>2015-04-12T06:47:53Z</time>
      </trkpt>
      <trkpt lat="38.206754" lon="-1.441985">
        <ele>441.9</ele>
        <time>2015-04-12T06:47:56Z</time>
      </trkpt>
      <trkpt lat="38.206710" lon="-1.441961">
        <ele>442.8</ele>
        <time>2015-04-12T06:48:02Z</time>
      </trkpt>
      <trkpt lat="38.206653" lon="-1.441924">
        <ele>443.3</ele>
        <time>2015-04-12T06:48:08Z</time>
      </trkpt>
      <trkpt lat="38.206635" lon="-1.441899">
        <ele>443.3</ele>
        <time>2015-04-12T06:48:11Z</time>
      </trkpt>
      <trkpt lat="38.206623" lon="-1.441875">
        <ele>443.8</ele>
        <time>2015-04-12T06:48:13Z</time>
      </trkpt>
      <trkpt lat="38.206527" lon="-1.441757">
        <ele>444.8</ele>
        <time>2015-04-12T06:48:27Z</time>
      </trkpt>
      <trkpt lat="38.206499" lon="-1.441729">
        <ele>444.3</ele>
        <time>2015-04-12T06:48:31Z</time>
      </trkpt>
      <trkpt lat="38.206463" lon="-1.441694">
        <ele>444.8</ele>
        <time>2015-04-12T06:48:36Z</time>
      </trkpt>
      <trkpt lat="38.206450" lon="-1.441677">
        <ele>445.2</ele>
        <time>2015-04-12T06:48:38Z</time>
      </trkpt>
      <trkpt lat="38.206427" lon="-1.441664">
        <ele>445.7</ele>
        <time>2015-04-12T06:48:41Z</time>
      </trkpt>
      <trkpt lat="38.206401" lon="-1.441645">
        <ele>441.9</ele>
        <time>2015-04-12T06:48:45Z</time>
      </trkpt>
      <trkpt lat="38.206400" lon="-1.441640">
        <ele>450.0</ele>
        <time>2015-04-12T06:48:46Z</time>
      </trkpt>
      <trkpt lat="38.206401" lon="-1.441643">
        <ele>446.7</ele>
        <time>2015-04-12T06:48:48Z</time>
      </trkpt>
      <trkpt lat="38.206331" lon="-1.441597">
        <ele>445.7</ele>
        <time>2015-04-12T06:48:58Z</time>
      </trkpt>
      <trkpt lat="38.206331" lon="-1.441596">
        <ele>446.2</ele>
        <time>2015-04-12T06:49:03Z</time>
      </trkpt>
      <trkpt lat="38.206237" lon="-1.441342">
        <ele>449.1</ele>
        <time>2015-04-12T06:49:22Z</time>
      </trkpt>
      <trkpt lat="38.206196" lon="-1.441159">
        <ele>452.4</ele>
        <time>2015-04-12T06:49:36Z</time>
      </trkpt>
      <trkpt lat="38.206170" lon="-1.441032">
        <ele>452.0</ele>
        <time>2015-04-12T06:49:45Z</time>
      </trkpt>
      <trkpt lat="38.206133" lon="-1.440971">
        <ele>452.4</ele>
        <time>2015-04-12T06:49:51Z</time>
      </trkpt>
      <trkpt lat="38.206017" lon="-1.440885">
        <ele>453.9</ele>
        <time>2015-04-12T06:50:02Z</time>
      </trkpt>
      <trkpt lat="38.205878" lon="-1.440866">
        <ele>456.3</ele>
        <time>2015-04-12T06:50:17Z</time>
      </trkpt>
      <trkpt lat="38.205827" lon="-1.440864">
        <ele>456.8</ele>
        <time>2015-04-12T06:50:21Z</time>
      </trkpt>
      <trkpt lat="38.205769" lon="-1.440852">
        <ele>457.2</ele>
        <time>2015-04-12T06:50:26Z</time>
      </trkpt>
      <trkpt lat="38.205681" lon="-1.440858">
        <ele>457.7</ele>
        <time>2015-04-12T06:50:33Z</time>
      </trkpt>
      <trkpt lat="38.205634" lon="-1.440864">
        <ele>457.7</ele>
        <time>2015-04-12T06:50:37Z</time>
      </trkpt>
      <trkpt lat="38.205548" lon="-1.440903">
        <ele>458.2</ele>
        <time>2015-04-12T06:50:51Z</time>
      </trkpt>
      <trkpt lat="38.205322" lon="-1.440927">
        <ele>455.8</ele>
        <time>2015-04-12T06:51:08Z</time>
      </trkpt>
      <trkpt lat="38.205124" lon="-1.440870">
        <ele>454.8</ele>
        <time>2015-04-12T06:51:24Z</time>
      </trkpt>
      <trkpt lat="38.204948" lon="-1.440756">
        <ele>454.8</ele>
        <time>2015-04-12T06:51:39Z</time>
      </trkpt>
      <trkpt lat="38.204783" lon="-1.440525">
        <ele>453.4</ele>
        <time>2015-04-12T06:51:58Z</time>
      </trkpt>
      <trkpt lat="38.204644" lon="-1.440272">
        <ele>451.0</ele>
        <time>2015-04-12T06:52:17Z</time>
      </trkpt>
      <trkpt lat="38.204511" lon="-1.440042">
        <ele>450.5</ele>
        <time>2015-04-12T06:52:35Z</time>
      </trkpt>
      <trkpt lat="38.204421" lon="-1.439975">
        <ele>451.0</ele>
        <time>2015-04-12T06:52:43Z</time>
      </trkpt>
      <trkpt lat="38.204358" lon="-1.439917">
        <ele>452.0</ele>
        <time>2015-04-12T06:52:59Z</time>
      </trkpt>
      <trkpt lat="38.204319" lon="-1.439897">
        <ele>452.0</ele>
        <time>2015-04-12T06:53:18Z</time>
      </trkpt>
      <trkpt lat="38.204229" lon="-1.439845">
        <ele>452.4</ele>
        <time>2015-04-12T06:53:25Z</time>
      </trkpt>
      <trkpt lat="38.204073" lon="-1.439808">
        <ele>451.5</ele>
        <time>2015-04-12T06:53:39Z</time>
      </trkpt>
      <trkpt lat="38.204000" lon="-1.439816">
        <ele>451.5</ele>
        <time>2015-04-12T06:53:51Z</time>
      </trkpt>
      <trkpt lat="38.203849" lon="-1.439833">
        <ele>450.5</ele>
        <time>2015-04-12T06:54:06Z</time>
      </trkpt>
      <trkpt lat="38.203744" lon="-1.439870">
        <ele>449.1</ele>
        <time>2015-04-12T06:54:16Z</time>
      </trkpt>
      <trkpt lat="38.203613" lon="-1.439894">
        <ele>448.1</ele>
        <time>2015-04-12T06:54:30Z</time>
      </trkpt>
      <trkpt lat="38.203610" lon="-1.439894">
        <ele>448.1</ele>
        <time>2015-04-12T06:54:31Z</time>
      </trkpt>
      <trkpt lat="38.203412" lon="-1.439939">
        <ele>448.1</ele>
        <time>2015-04-12T06:54:48Z</time>
      </trkpt>
      <trkpt lat="38.203246" lon="-1.440024">
        <ele>448.1</ele>
        <time>2015-04-12T06:55:03Z</time>
      </trkpt>
      <trkpt lat="38.203082" lon="-1.440134">
        <ele>448.1</ele>
        <time>2015-04-12T06:55:18Z</time>
      </trkpt>
      <trkpt lat="38.202928" lon="-1.440233">
        <ele>447.1</ele>
        <time>2015-04-12T06:55:33Z</time>
      </trkpt>
      <trkpt lat="38.202745" lon="-1.440314">
        <ele>446.2</ele>
        <time>2015-04-12T06:55:50Z</time>
      </trkpt>
      <trkpt lat="38.202700" lon="-1.440319">
        <ele>445.2</ele>
        <time>2015-04-12T06:55:54Z</time>
      </trkpt>
      <trkpt lat="38.202575" lon="-1.440176">
        <ele>443.8</ele>
        <time>2015-04-12T06:56:09Z</time>
      </trkpt>
      <trkpt lat="38.202548" lon="-1.440020">
        <ele>443.8</ele>
        <time>2015-04-12T06:56:20Z</time>
      </trkpt>
      <trkpt lat="38.202521" lon="-1.439962">
        <ele>444.8</ele>
        <time>2015-04-12T06:56:24Z</time>
      </trkpt>
      <trkpt lat="38.202492" lon="-1.439870">
        <ele>445.2</ele>
        <time>2015-04-12T06:56:30Z</time>
      </trkpt>
      <trkpt lat="38.202490" lon="-1.439840">
        <ele>444.8</ele>
        <time>2015-04-12T06:56:32Z</time>
      </trkpt>
      <trkpt lat="38.202468" lon="-1.439752">
        <ele>445.2</ele>
        <time>2015-04-12T06:56:38Z</time>
      </trkpt>
      <trkpt lat="38.202478" lon="-1.439628">
        <ele>446.7</ele>
        <time>2015-04-12T06:56:46Z</time>
      </trkpt>
      <trkpt lat="38.202520" lon="-1.439458">
        <ele>447.6</ele>
        <time>2015-04-12T06:56:58Z</time>
      </trkpt>
      <trkpt lat="38.202534" lon="-1.439386">
        <ele>448.1</ele>
        <time>2015-04-12T06:57:03Z</time>
      </trkpt>
      <trkpt lat="38.202550" lon="-1.439351">
        <ele>448.1</ele>
        <time>2015-04-12T06:57:06Z</time>
      </trkpt>
      <trkpt lat="38.202603" lon="-1.439171">
        <ele>449.5</ele>
        <time>2015-04-12T06:57:20Z</time>
      </trkpt>
      <trkpt lat="38.202629" lon="-1.439057">
        <ele>450.0</ele>
        <time>2015-04-12T06:57:28Z</time>
      </trkpt>
      <trkpt lat="38.202640" lon="-1.439030">
        <ele>450.5</ele>
        <time>2015-04-12T06:57:30Z</time>
      </trkpt>
      <trkpt lat="38.202647" lon="-1.438878">
        <ele>451.0</ele>
        <time>2015-04-12T06:57:42Z</time>
      </trkpt>
      <trkpt lat="38.202631" lon="-1.438789">
        <ele>451.0</ele>
        <time>2015-04-12T06:57:48Z</time>
      </trkpt>
      <trkpt lat="38.202600" lon="-1.438611">
        <ele>452.4</ele>
        <time>2015-04-12T06:58:00Z</time>
      </trkpt>
      <trkpt lat="38.202555" lon="-1.438455">
        <ele>453.9</ele>
        <time>2015-04-12T06:58:12Z</time>
      </trkpt>
      <trkpt lat="38.202511" lon="-1.438343">
        <ele>454.4</ele>
        <time>2015-04-12T06:58:21Z</time>
      </trkpt>
      <trkpt lat="38.202499" lon="-1.438310">
        <ele>454.8</ele>
        <time>2015-04-12T06:58:23Z</time>
      </trkpt>
      <trkpt lat="38.202487" lon="-1.438278">
        <ele>455.3</ele>
        <time>2015-04-12T06:58:25Z</time>
      </trkpt>
      <trkpt lat="38.202481" lon="-1.438233">
        <ele>455.3</ele>
        <time>2015-04-12T06:58:28Z</time>
      </trkpt>
      <trkpt lat="38.202458" lon="-1.438204">
        <ele>455.3</ele>
        <time>2015-04-12T06:58:31Z</time>
      </trkpt>
      <trkpt lat="38.202390" lon="-1.438054">
        <ele>456.8</ele>
        <time>2015-04-12T06:58:44Z</time>
      </trkpt>
      <trkpt lat="38.202319" lon="-1.437884">
        <ele>457.7</ele>
        <time>2015-04-12T06:58:59Z</time>
      </trkpt>
      <trkpt lat="38.202316" lon="-1.437871">
        <ele>458.2</ele>
        <time>2015-04-12T06:59:00Z</time>
      </trkpt>
      <trkpt lat="38.202261" lon="-1.437760">
        <ele>458.7</ele>
        <time>2015-04-12T06:59:09Z</time>
      </trkpt>
      <trkpt lat="38.202218" lon="-1.437696">
        <ele>459.6</ele>
        <time>2015-04-12T06:59:15Z</time>
      </trkpt>
      <trkpt lat="38.202172" lon="-1.437635">
        <ele>460.6</ele>
        <time>2015-04-12T06:59:22Z</time>
      </trkpt>
      <trkpt lat="38.202130" lon="-1.437594">
        <ele>461.1</ele>
        <time>2015-04-12T06:59:27Z</time>
      </trkpt>
      <trkpt lat="38.202113" lon="-1.437573">
        <ele>462.0</ele>
        <time>2015-04-12T06:59:29Z</time>
      </trkpt>
      <trkpt lat="38.202048" lon="-1.437479">
        <ele>463.0</ele>
        <time>2015-04-12T06:59:38Z</time>
      </trkpt>
      <trkpt lat="38.202086" lon="-1.437259">
        <ele>464.9</ele>
        <time>2015-04-12T07:00:33Z</time>
      </trkpt>
      <trkpt lat="38.202094" lon="-1.437187">
        <ele>465.9</ele>
        <time>2015-04-12T07:00:38Z</time>
      </trkpt>
      <trkpt lat="38.202122" lon="-1.437068">
        <ele>466.9</ele>
        <time>2015-04-12T07:00:50Z</time>
      </trkpt>
      <trkpt lat="38.202135" lon="-1.437041">
        <ele>467.3</ele>
        <time>2015-04-12T07:01:06Z</time>
      </trkpt>
      <trkpt lat="38.202145" lon="-1.436948">
        <ele>468.3</ele>
        <time>2015-04-12T07:01:18Z</time>
      </trkpt>
      <trkpt lat="38.202143" lon="-1.436924">
        <ele>467.8</ele>
        <time>2015-04-12T07:01:20Z</time>
      </trkpt>
      <trkpt lat="38.202145" lon="-1.436901">
        <ele>468.3</ele>
        <time>2015-04-12T07:01:22Z</time>
      </trkpt>
      <trkpt lat="38.202136" lon="-1.436830">
        <ele>469.3</ele>
        <time>2015-04-12T07:01:27Z</time>
      </trkpt>
      <trkpt lat="38.202107" lon="-1.436752">
        <ele>470.2</ele>
        <time>2015-04-12T07:01:33Z</time>
      </trkpt>
      <trkpt lat="38.202035" lon="-1.436682">
        <ele>470.7</ele>
        <time>2015-04-12T07:01:46Z</time>
      </trkpt>
      <trkpt lat="38.202016" lon="-1.436674">
        <ele>471.2</ele>
        <time>2015-04-12T07:01:59Z</time>
      </trkpt>
      <trkpt lat="38.201964" lon="-1.436655">
        <ele>470.7</ele>
        <time>2015-04-12T07:02:10Z</time>
      </trkpt>
      <trkpt lat="38.201901" lon="-1.436619">
        <ele>471.7</ele>
        <time>2015-04-12T07:02:19Z</time>
      </trkpt>
      <trkpt lat="38.201793" lon="-1.436577">
        <ele>472.1</ele>
        <time>2015-04-12T07:02:32Z</time>
      </trkpt>
      <trkpt lat="38.201766" lon="-1.436569">
        <ele>471.7</ele>
        <time>2015-04-12T07:02:36Z</time>
      </trkpt>
      <trkpt lat="38.201751" lon="-1.436577">
        <ele>472.1</ele>
        <time>2015-04-12T07:02:38Z</time>
      </trkpt>
      <trkpt lat="38.201728" lon="-1.436586">
        <ele>472.6</ele>
        <time>2015-04-12T07:02:41Z</time>
      </trkpt>
      <trkpt lat="38.201710" lon="-1.436583">
        <ele>472.1</ele>
        <time>2015-04-12T07:02:43Z</time>
      </trkpt>
      <trkpt lat="38.201667" lon="-1.436584">
        <ele>472.6</ele>
        <time>2015-04-12T07:02:48Z</time>
      </trkpt>
      <trkpt lat="38.201560" lon="-1.436566">
        <ele>474.5</ele>
        <time>2015-04-12T07:03:01Z</time>
      </trkpt>
      <trkpt lat="38.201445" lon="-1.436544">
        <ele>475.0</ele>
        <time>2015-04-12T07:03:14Z</time>
      </trkpt>
      <trkpt lat="38.201357" lon="-1.436510">
        <ele>475.5</ele>
        <time>2015-04-12T07:03:24Z</time>
      </trkpt>
      <trkpt lat="38.201324" lon="-1.436498">
        <ele>476.0</ele>
        <time>2015-04-12T07:03:28Z</time>
      </trkpt>
      <trkpt lat="38.201305" lon="-1.436481">
        <ele>476.0</ele>
        <time>2015-04-12T07:03:30Z</time>
      </trkpt>
      <trkpt lat="38.201190" lon="-1.436409">
        <ele>477.0</ele>
        <time>2015-04-12T07:03:44Z</time>
      </trkpt>
      <trkpt lat="38.201142" lon="-1.436362">
        <ele>477.9</ele>
        <time>2015-04-12T07:03:50Z</time>
      </trkpt>
      <trkpt lat="38.201039" lon="-1.436275">
        <ele>477.9</ele>
        <time>2015-04-12T07:04:02Z</time>
      </trkpt>
      <trkpt lat="38.200927" lon="-1.436209">
        <ele>478.9</ele>
        <time>2015-04-12T07:04:13Z</time>
      </trkpt>
      <trkpt lat="38.200908" lon="-1.436203">
        <ele>479.4</ele>
        <time>2015-04-12T07:04:15Z</time>
      </trkpt>
      <trkpt lat="38.200764" lon="-1.436169">
        <ele>480.3</ele>
        <time>2015-04-12T07:04:29Z</time>
      </trkpt>
      <trkpt lat="38.200743" lon="-1.436168">
        <ele>480.8</ele>
        <time>2015-04-12T07:04:31Z</time>
      </trkpt>
      <trkpt lat="38.200722" lon="-1.436160">
        <ele>480.8</ele>
        <time>2015-04-12T07:04:33Z</time>
      </trkpt>
      <trkpt lat="38.200701" lon="-1.436160">
        <ele>481.3</ele>
        <time>2015-04-12T07:04:35Z</time>
      </trkpt>
      <trkpt lat="38.200659" lon="-1.436149">
        <ele>480.8</ele>
        <time>2015-04-12T07:04:39Z</time>
      </trkpt>
      <trkpt lat="38.200473" lon="-1.436112">
        <ele>482.2</ele>
        <time>2015-04-12T07:04:55Z</time>
      </trkpt>
      <trkpt lat="38.200315" lon="-1.436113">
        <ele>483.2</ele>
        <time>2015-04-12T07:05:09Z</time>
      </trkpt>
      <trkpt lat="38.200169" lon="-1.436087">
        <ele>484.6</ele>
        <time>2015-04-12T07:05:22Z</time>
      </trkpt>
      <trkpt lat="38.200042" lon="-1.436032">
        <ele>485.6</ele>
        <time>2015-04-12T07:05:36Z</time>
      </trkpt>
      <trkpt lat="38.199983" lon="-1.436020">
        <ele>485.6</ele>
        <time>2015-04-12T07:05:41Z</time>
      </trkpt>
      <trkpt lat="38.199812" lon="-1.436089">
        <ele>487.0</ele>
        <time>2015-04-12T07:05:57Z</time>
      </trkpt>
      <trkpt lat="38.199788" lon="-1.436143">
        <ele>487.0</ele>
        <time>2015-04-12T07:06:01Z</time>
      </trkpt>
      <trkpt lat="38.199630" lon="-1.436274">
        <ele>488.0</ele>
        <time>2015-04-12T07:06:17Z</time>
      </trkpt>
      <trkpt lat="38.199522" lon="-1.436246">
        <ele>489.9</ele>
        <time>2015-04-12T07:06:27Z</time>
      </trkpt>
      <trkpt lat="38.199401" lon="-1.436189">
        <ele>489.9</ele>
        <time>2015-04-12T07:06:41Z</time>
      </trkpt>
      <trkpt lat="38.199379" lon="-1.436212">
        <ele>490.4</ele>
        <time>2015-04-12T07:06:57Z</time>
      </trkpt>
      <trkpt lat="38.199372" lon="-1.436229">
        <ele>490.4</ele>
        <time>2015-04-12T07:07:16Z</time>
      </trkpt>
      <trkpt lat="38.199392" lon="-1.436223">
        <ele>490.4</ele>
        <time>2015-04-12T07:07:36Z</time>
      </trkpt>
      <trkpt lat="38.199398" lon="-1.436213">
        <ele>490.4</ele>
        <time>2015-04-12T07:07:52Z</time>
      </trkpt>
      <trkpt lat="38.199389" lon="-1.436194">
        <ele>490.4</ele>
        <time>2015-04-12T07:08:09Z</time>
      </trkpt>
      <trkpt lat="38.199398" lon="-1.436203">
        <ele>490.4</ele>
        <time>2015-04-12T07:08:30Z</time>
      </trkpt>
      <trkpt lat="38.199371" lon="-1.436187">
        <ele>490.4</ele>
        <time>2015-04-12T07:08:52Z</time>
      </trkpt>
      <trkpt lat="38.199357" lon="-1.436185">
        <ele>490.9</ele>
        <time>2015-04-12T07:09:19Z</time>
      </trkpt>
      <trkpt lat="38.199357" lon="-1.436178">
        <ele>491.4</ele>
        <time>2015-04-12T07:09:36Z</time>
      </trkpt>
      <trkpt lat="38.199320" lon="-1.436163">
        <ele>491.4</ele>
        <time>2015-04-12T07:09:47Z</time>
      </trkpt>
      <trkpt lat="38.199244" lon="-1.436123">
        <ele>492.3</ele>
        <time>2015-04-12T07:09:57Z</time>
      </trkpt>
      <trkpt lat="38.199203" lon="-1.436095">
        <ele>492.8</ele>
        <time>2015-04-12T07:10:02Z</time>
      </trkpt>
      <trkpt lat="38.199120" lon="-1.436075">
        <ele>493.3</ele>
        <time>2015-04-12T07:10:13Z</time>
      </trkpt>
      <trkpt lat="38.199102" lon="-1.436067">
        <ele>493.8</ele>
        <time>2015-04-12T07:10:15Z</time>
      </trkpt>
      <trkpt lat="38.199059" lon="-1.436067">
        <ele>493.8</ele>
        <time>2015-04-12T07:10:19Z</time>
      </trkpt>
      <trkpt lat="38.198953" lon="-1.436101">
        <ele>494.7</ele>
        <time>2015-04-12T07:10:29Z</time>
      </trkpt>
      <trkpt lat="38.198932" lon="-1.436099">
        <ele>494.7</ele>
        <time>2015-04-12T07:10:31Z</time>
      </trkpt>
      <trkpt lat="38.198811" lon="-1.436126">
        <ele>496.2</ele>
        <time>2015-04-12T07:10:44Z</time>
      </trkpt>
      <trkpt lat="38.198723" lon="-1.436135">
        <ele>497.1</ele>
        <time>2015-04-12T07:10:53Z</time>
      </trkpt>
      <trkpt lat="38.198657" lon="-1.436127">
        <ele>497.6</ele>
        <time>2015-04-12T07:10:59Z</time>
      </trkpt>
      <trkpt lat="38.198627" lon="-1.436133">
        <ele>497.6</ele>
        <time>2015-04-12T07:11:02Z</time>
      </trkpt>
      <trkpt lat="38.198593" lon="-1.436126">
        <ele>497.6</ele>
        <time>2015-04-12T07:11:05Z</time>
      </trkpt>
      <trkpt lat="38.198442" lon="-1.436092">
        <ele>498.6</ele>
        <time>2015-04-12T07:11:19Z</time>
      </trkpt>
      <trkpt lat="38.198413" lon="-1.436096">
        <ele>499.1</ele>
        <time>2015-04-12T07:11:22Z</time>
      </trkpt>
      <trkpt lat="38.198291" lon="-1.436078">
        <ele>500.0</ele>
        <time>2015-04-12T07:11:33Z</time>
      </trkpt>
      <trkpt lat="38.198265" lon="-1.436080">
        <ele>499.5</ele>
        <time>2015-04-12T07:11:35Z</time>
      </trkpt>
      <trkpt lat="38.198172" lon="-1.436104">
        <ele>500.5</ele>
        <time>2015-04-12T07:11:43Z</time>
      </trkpt>
      <trkpt lat="38.198115" lon="-1.436133">
        <ele>501.0</ele>
        <time>2015-04-12T07:11:48Z</time>
      </trkpt>
      <trkpt lat="38.197963" lon="-1.436204">
        <ele>502.4</ele>
        <time>2015-04-12T07:12:03Z</time>
      </trkpt>
      <trkpt lat="38.197911" lon="-1.436227">
        <ele>502.9</ele>
        <time>2015-04-12T07:12:08Z</time>
      </trkpt>
      <trkpt lat="38.197888" lon="-1.436230">
        <ele>502.9</ele>
        <time>2015-04-12T07:12:10Z</time>
      </trkpt>
      <trkpt lat="38.197865" lon="-1.436240">
        <ele>503.4</ele>
        <time>2015-04-12T07:12:12Z</time>
      </trkpt>
      <trkpt lat="38.197843" lon="-1.436241">
        <ele>503.9</ele>
        <time>2015-04-12T07:12:14Z</time>
      </trkpt>
      <trkpt lat="38.197698" lon="-1.436299">
        <ele>504.8</ele>
        <time>2015-04-12T07:12:29Z</time>
      </trkpt>
      <trkpt lat="38.197689" lon="-1.436304">
        <ele>504.8</ele>
        <time>2015-04-12T07:12:30Z</time>
      </trkpt>
      <trkpt lat="38.197663" lon="-1.436320">
        <ele>505.3</ele>
        <time>2015-04-12T07:12:33Z</time>
      </trkpt>
      <trkpt lat="38.197579" lon="-1.436413">
        <ele>505.3</ele>
        <time>2015-04-12T07:12:43Z</time>
      </trkpt>
      <trkpt lat="38.197519" lon="-1.436603">
        <ele>506.3</ele>
        <time>2015-04-12T07:12:56Z</time>
      </trkpt>
      <trkpt lat="38.197403" lon="-1.436775">
        <ele>507.7</ele>
        <time>2015-04-12T07:13:12Z</time>
      </trkpt>
      <trkpt lat="38.197394" lon="-1.436786">
        <ele>507.7</ele>
        <time>2015-04-12T07:13:13Z</time>
      </trkpt>
      <trkpt lat="38.197365" lon="-1.436807">
        <ele>507.7</ele>
        <time>2015-04-12T07:13:16Z</time>
      </trkpt>
      <trkpt lat="38.197206" lon="-1.436896">
        <ele>508.7</ele>
        <time>2015-04-12T07:13:32Z</time>
      </trkpt>
      <trkpt lat="38.197168" lon="-1.436904">
        <ele>509.2</ele>
        <time>2015-04-12T07:13:36Z</time>
      </trkpt>
      <trkpt lat="38.197113" lon="-1.436913">
        <ele>509.6</ele>
        <time>2015-04-12T07:13:41Z</time>
      </trkpt>
      <trkpt lat="38.197053" lon="-1.436962">
        <ele>510.1</ele>
        <time>2015-04-12T07:13:47Z</time>
      </trkpt>
      <trkpt lat="38.196875" lon="-1.437108">
        <ele>510.1</ele>
        <time>2015-04-12T07:14:05Z</time>
      </trkpt>
      <trkpt lat="38.196857" lon="-1.437122">
        <ele>510.6</ele>
        <time>2015-04-12T07:14:07Z</time>
      </trkpt>
      <trkpt lat="38.196839" lon="-1.437134">
        <ele>510.6</ele>
        <time>2015-04-12T07:14:09Z</time>
      </trkpt>
      <trkpt lat="38.196743" lon="-1.437234">
        <ele>512.0</ele>
        <time>2015-04-12T07:14:20Z</time>
      </trkpt>
      <trkpt lat="38.196639" lon="-1.437393">
        <ele>513.0</ele>
        <time>2015-04-12T07:14:35Z</time>
      </trkpt>
      <trkpt lat="38.196498" lon="-1.437552">
        <ele>515.9</ele>
        <time>2015-04-12T07:14:51Z</time>
      </trkpt>
      <trkpt lat="38.196377" lon="-1.437525">
        <ele>514.4</ele>
        <time>2015-04-12T07:15:02Z</time>
      </trkpt>
      <trkpt lat="38.196306" lon="-1.437365">
        <ele>515.4</ele>
        <time>2015-04-12T07:15:15Z</time>
      </trkpt>
      <trkpt lat="38.196291" lon="-1.437349">
        <ele>515.9</ele>
        <time>2015-04-12T07:15:17Z</time>
      </trkpt>
      <trkpt lat="38.196206" lon="-1.437192">
        <ele>517.8</ele>
        <time>2015-04-12T07:15:31Z</time>
      </trkpt>
      <trkpt lat="38.196149" lon="-1.437070">
        <ele>518.8</ele>
        <time>2015-04-12T07:15:42Z</time>
      </trkpt>
      <trkpt lat="38.196093" lon="-1.436887">
        <ele>520.7</ele>
        <time>2015-04-12T07:15:56Z</time>
      </trkpt>
      <trkpt lat="38.196092" lon="-1.436870">
        <ele>520.7</ele>
        <time>2015-04-12T07:15:57Z</time>
      </trkpt>
      <trkpt lat="38.196034" lon="-1.436701">
        <ele>522.1</ele>
        <time>2015-04-12T07:16:11Z</time>
      </trkpt>
      <trkpt lat="38.195995" lon="-1.436647">
        <ele>522.6</ele>
        <time>2015-04-12T07:16:18Z</time>
      </trkpt>
      <trkpt lat="38.195936" lon="-1.436554">
        <ele>523.1</ele>
        <time>2015-04-12T07:16:27Z</time>
      </trkpt>
      <trkpt lat="38.195848" lon="-1.436435">
        <ele>524.5</ele>
        <time>2015-04-12T07:16:38Z</time>
      </trkpt>
      <trkpt lat="38.195816" lon="-1.436375">
        <ele>525.0</ele>
        <time>2015-04-12T07:16:44Z</time>
      </trkpt>
      <trkpt lat="38.195776" lon="-1.436311">
        <ele>526.0</ele>
        <time>2015-04-12T07:16:48Z</time>
      </trkpt>
      <trkpt lat="38.195705" lon="-1.436204">
        <ele>526.9</ele>
        <time>2015-04-12T07:16:57Z</time>
      </trkpt>
      <trkpt lat="38.195675" lon="-1.436170">
        <ele>527.4</ele>
        <time>2015-04-12T07:17:00Z</time>
      </trkpt>
      <trkpt lat="38.195645" lon="-1.436167">
        <ele>527.4</ele>
        <time>2015-04-12T07:17:04Z</time>
      </trkpt>
      <trkpt lat="38.195615" lon="-1.436248">
        <ele>528.9</ele>
        <time>2015-04-12T07:17:11Z</time>
      </trkpt>
      <trkpt lat="38.195712" lon="-1.436450">
        <ele>530.8</ele>
        <time>2015-04-12T07:17:27Z</time>
      </trkpt>
      <trkpt lat="38.195717" lon="-1.436463">
        <ele>531.3</ele>
        <time>2015-04-12T07:17:28Z</time>
      </trkpt>
      <trkpt lat="38.195734" lon="-1.436591">
        <ele>532.2</ele>
        <time>2015-04-12T07:17:37Z</time>
      </trkpt>
      <trkpt lat="38.195746" lon="-1.436771">
        <ele>534.2</ele>
        <time>2015-04-12T07:17:50Z</time>
      </trkpt>
      <trkpt lat="38.195762" lon="-1.436917">
        <ele>534.2</ele>
        <time>2015-04-12T07:18:01Z</time>
      </trkpt>
      <trkpt lat="38.195767" lon="-1.436991">
        <ele>535.1</ele>
        <time>2015-04-12T07:18:06Z</time>
      </trkpt>
      <trkpt lat="38.195776" lon="-1.437076">
        <ele>536.1</ele>
        <time>2015-04-12T07:18:13Z</time>
      </trkpt>
      <trkpt lat="38.195787" lon="-1.437253">
        <ele>537.5</ele>
        <time>2015-04-12T07:18:26Z</time>
      </trkpt>
      <trkpt lat="38.195751" lon="-1.437496">
        <ele>539.9</ele>
        <time>2015-04-12T07:18:44Z</time>
      </trkpt>
      <trkpt lat="38.195713" lon="-1.437581">
        <ele>541.4</ele>
        <time>2015-04-12T07:18:53Z</time>
      </trkpt>
      <trkpt lat="38.195626" lon="-1.437669">
        <ele>543.3</ele>
        <time>2015-04-12T07:19:06Z</time>
      </trkpt>
      <trkpt lat="38.195564" lon="-1.437727">
        <ele>544.2</ele>
        <time>2015-04-12T07:19:13Z</time>
      </trkpt>
      <trkpt lat="38.195490" lon="-1.437805">
        <ele>544.2</ele>
        <time>2015-04-12T07:19:21Z</time>
      </trkpt>
      <trkpt lat="38.195457" lon="-1.437827">
        <ele>544.7</ele>
        <time>2015-04-12T07:19:24Z</time>
      </trkpt>
      <trkpt lat="38.195302" lon="-1.437899">
        <ele>546.7</ele>
        <time>2015-04-12T07:19:40Z</time>
      </trkpt>
      <trkpt lat="38.195171" lon="-1.437972">
        <ele>549.0</ele>
        <time>2015-04-12T07:19:54Z</time>
      </trkpt>
      <trkpt lat="38.195044" lon="-1.438031">
        <ele>549.5</ele>
        <time>2015-04-12T07:20:09Z</time>
      </trkpt>
      <trkpt lat="38.194989" lon="-1.438062">
        <ele>550.5</ele>
        <time>2015-04-12T07:20:15Z</time>
      </trkpt>
      <trkpt lat="38.194875" lon="-1.438117">
        <ele>552.9</ele>
        <time>2015-04-12T07:20:28Z</time>
      </trkpt>
      <trkpt lat="38.194771" lon="-1.438192">
        <ele>555.8</ele>
        <time>2015-04-12T07:20:40Z</time>
      </trkpt>
      <trkpt lat="38.194649" lon="-1.438307">
        <ele>556.3</ele>
        <time>2015-04-12T07:20:55Z</time>
      </trkpt>
      <trkpt lat="38.194539" lon="-1.438427">
        <ele>557.2</ele>
        <time>2015-04-12T07:21:09Z</time>
      </trkpt>
      <trkpt lat="38.194432" lon="-1.438574">
        <ele>559.1</ele>
        <time>2015-04-12T07:21:24Z</time>
      </trkpt>
      <trkpt lat="38.194397" lon="-1.438605">
        <ele>559.1</ele>
        <time>2015-04-12T07:21:28Z</time>
      </trkpt>
      <trkpt lat="38.194324" lon="-1.438647">
        <ele>559.6</ele>
        <time>2015-04-12T07:21:36Z</time>
      </trkpt>
      <trkpt lat="38.194283" lon="-1.438657">
        <ele>556.3</ele>
        <time>2015-04-12T07:21:41Z</time>
      </trkpt>
      <trkpt lat="38.194274" lon="-1.438657">
        <ele>563.0</ele>
        <time>2015-04-12T07:21:42Z</time>
      </trkpt>
      <trkpt lat="38.194266" lon="-1.438659">
        <ele>561.5</ele>
        <time>2015-04-12T07:21:43Z</time>
      </trkpt>
      <trkpt lat="38.194142" lon="-1.438708">
        <ele>562.0</ele>
        <time>2015-04-12T07:21:56Z</time>
      </trkpt>
      <trkpt lat="38.194062" lon="-1.438748">
        <ele>563.5</ele>
        <time>2015-04-12T07:22:04Z</time>
      </trkpt>
      <trkpt lat="38.194002" lon="-1.438791">
        <ele>563.5</ele>
        <time>2015-04-12T07:22:10Z</time>
      </trkpt>
      <trkpt lat="38.193972" lon="-1.438857">
        <ele>563.5</ele>
        <time>2015-04-12T07:22:15Z</time>
      </trkpt>
      <trkpt lat="38.193982" lon="-1.439000">
        <ele>564.0</ele>
        <time>2015-04-12T07:22:25Z</time>
      </trkpt>
      <trkpt lat="38.194081" lon="-1.439188">
        <ele>564.9</ele>
        <time>2015-04-12T07:22:41Z</time>
      </trkpt>
      <trkpt lat="38.194128" lon="-1.439420">
        <ele>565.9</ele>
        <time>2015-04-12T07:22:58Z</time>
      </trkpt>
      <trkpt lat="38.194131" lon="-1.439476">
        <ele>566.8</ele>
        <time>2015-04-12T07:23:02Z</time>
      </trkpt>
      <trkpt lat="38.194129" lon="-1.439692">
        <ele>568.8</ele>
        <time>2015-04-12T07:23:18Z</time>
      </trkpt>
      <trkpt lat="38.194102" lon="-1.439853">
        <ele>569.7</ele>
        <time>2015-04-12T07:23:32Z</time>
      </trkpt>
      <trkpt lat="38.194063" lon="-1.439995">
        <ele>571.6</ele>
        <time>2015-04-12T07:23:47Z</time>
      </trkpt>
      <trkpt lat="38.194006" lon="-1.440065">
        <ele>572.6</ele>
        <time>2015-04-12T07:24:00Z</time>
      </trkpt>
      <trkpt lat="38.193982" lon="-1.440058">
        <ele>573.6</ele>
        <time>2015-04-12T07:24:11Z</time>
      </trkpt>
      <trkpt lat="38.193964" lon="-1.440056">
        <ele>572.1</ele>
        <time>2015-04-12T07:26:14Z</time>
      </trkpt>
      <trkpt lat="38.193930" lon="-1.440001">
        <ele>572.1</ele>
        <time>2015-04-12T07:26:46Z</time>
      </trkpt>
      <trkpt lat="38.193922" lon="-1.439995">
        <ele>572.1</ele>
        <time>2015-04-12T07:26:47Z</time>
      </trkpt>
      <trkpt lat="38.193829" lon="-1.439775">
        <ele>573.1</ele>
        <time>2015-04-12T07:27:01Z</time>
      </trkpt>
      <trkpt lat="38.193781" lon="-1.439477">
        <ele>573.1</ele>
        <time>2015-04-12T07:27:16Z</time>
      </trkpt>
      <trkpt lat="38.193735" lon="-1.439322">
        <ele>573.1</ele>
        <time>2015-04-12T07:27:25Z</time>
      </trkpt>
      <trkpt lat="38.193676" lon="-1.439068">
        <ele>573.1</ele>
        <time>2015-04-12T07:27:41Z</time>
      </trkpt>
      <trkpt lat="38.193675" lon="-1.439038">
        <ele>573.1</ele>
        <time>2015-04-12T07:27:43Z</time>
      </trkpt>
      <trkpt lat="38.193662" lon="-1.438875">
        <ele>572.6</ele>
        <time>2015-04-12T07:28:16Z</time>
      </trkpt>
      <trkpt lat="38.193665" lon="-1.438776">
        <ele>572.6</ele>
        <time>2015-04-12T07:28:26Z</time>
      </trkpt>
      <trkpt lat="38.193646" lon="-1.438718">
        <ele>573.1</ele>
        <time>2015-04-12T07:28:31Z</time>
      </trkpt>
      <trkpt lat="38.193627" lon="-1.438586">
        <ele>574.0</ele>
        <time>2015-04-12T07:28:44Z</time>
      </trkpt>
      <trkpt lat="38.193576" lon="-1.438493">
        <ele>574.0</ele>
        <time>2015-04-12T07:28:53Z</time>
      </trkpt>
      <trkpt lat="38.193558" lon="-1.438482">
        <ele>573.6</ele>
        <time>2015-04-12T07:28:56Z</time>
      </trkpt>
      <trkpt lat="38.193516" lon="-1.438469">
        <ele>575.5</ele>
        <time>2015-04-12T07:29:00Z</time>
      </trkpt>
      <trkpt lat="38.193498" lon="-1.438471">
        <ele>575.0</ele>
        <time>2015-04-12T07:29:02Z</time>
      </trkpt>
      <trkpt lat="38.193478" lon="-1.438472">
        <ele>575.0</ele>
        <time>2015-04-12T07:29:04Z</time>
      </trkpt>
      <trkpt lat="38.193406" lon="-1.438529">
        <ele>576.0</ele>
        <time>2015-04-12T07:29:13Z</time>
      </trkpt>
      <trkpt lat="38.193375" lon="-1.438587">
        <ele>576.5</ele>
        <time>2015-04-12T07:29:20Z</time>
      </trkpt>
      <trkpt lat="38.193390" lon="-1.438803">
        <ele>577.4</ele>
        <time>2015-04-12T07:29:35Z</time>
      </trkpt>
      <trkpt lat="38.193426" lon="-1.438980">
        <ele>578.8</ele>
        <time>2015-04-12T07:29:48Z</time>
      </trkpt>
      <trkpt lat="38.193421" lon="-1.439011">
        <ele>578.8</ele>
        <time>2015-04-12T07:29:51Z</time>
      </trkpt>
      <trkpt lat="38.193437" lon="-1.439115">
        <ele>579.3</ele>
        <time>2015-04-12T07:29:58Z</time>
      </trkpt>
      <trkpt lat="38.193454" lon="-1.439211">
        <ele>579.3</ele>
        <time>2015-04-12T07:30:05Z</time>
      </trkpt>
      <trkpt lat="38.193457" lon="-1.439259">
        <ele>580.3</ele>
        <time>2015-04-12T07:30:08Z</time>
      </trkpt>
      <trkpt lat="38.193464" lon="-1.439290">
        <ele>580.3</ele>
        <time>2015-04-12T07:30:10Z</time>
      </trkpt>
      <trkpt lat="38.193501" lon="-1.439495">
        <ele>581.2</ele>
        <time>2015-04-12T07:30:25Z</time>
      </trkpt>
      <trkpt lat="38.193529" lon="-1.439617">
        <ele>581.7</ele>
        <time>2015-04-12T07:30:34Z</time>
      </trkpt>
      <trkpt lat="38.193547" lon="-1.439716">
        <ele>582.2</ele>
        <time>2015-04-12T07:30:41Z</time>
      </trkpt>
      <trkpt lat="38.193576" lon="-1.439885">
        <ele>584.1</ele>
        <time>2015-04-12T07:30:57Z</time>
      </trkpt>
      <trkpt lat="38.193600" lon="-1.439975">
        <ele>584.1</ele>
        <time>2015-04-12T07:31:30Z</time>
      </trkpt>
      <trkpt lat="38.193599" lon="-1.439999">
        <ele>584.1</ele>
        <time>2015-04-12T07:31:32Z</time>
      </trkpt>
      <trkpt lat="38.193594" lon="-1.440029">
        <ele>584.1</ele>
        <time>2015-04-12T07:31:34Z</time>
      </trkpt>
      <trkpt lat="38.193595" lon="-1.440061">
        <ele>584.1</ele>
        <time>2015-04-12T07:31:36Z</time>
      </trkpt>
      <trkpt lat="38.193594" lon="-1.440129">
        <ele>585.1</ele>
        <time>2015-04-12T07:31:41Z</time>
      </trkpt>
      <trkpt lat="38.193633" lon="-1.440265">
        <ele>586.5</ele>
        <time>2015-04-12T07:31:52Z</time>
      </trkpt>
      <trkpt lat="38.193634" lon="-1.440436">
        <ele>586.5</ele>
        <time>2015-04-12T07:32:04Z</time>
      </trkpt>
      <trkpt lat="38.193653" lon="-1.440557">
        <ele>587.5</ele>
        <time>2015-04-12T07:32:12Z</time>
      </trkpt>
      <trkpt lat="38.193665" lon="-1.440630">
        <ele>588.0</ele>
        <time>2015-04-12T07:32:18Z</time>
      </trkpt>
      <trkpt lat="38.193675" lon="-1.440847">
        <ele>589.0</ele>
        <time>2015-04-12T07:32:32Z</time>
      </trkpt>
      <trkpt lat="38.193668" lon="-1.440948">
        <ele>589.0</ele>
        <time>2015-04-12T07:32:39Z</time>
      </trkpt>
      <trkpt lat="38.193615" lon="-1.441189">
        <ele>588.5</ele>
        <time>2015-04-12T07:32:55Z</time>
      </trkpt>
      <trkpt lat="38.193552" lon="-1.441468">
        <ele>590.4</ele>
        <time>2015-04-12T07:33:13Z</time>
      </trkpt>
      <trkpt lat="38.193535" lon="-1.441556">
        <ele>591.3</ele>
        <time>2015-04-12T07:33:19Z</time>
      </trkpt>
      <trkpt lat="38.193533" lon="-1.441632">
        <ele>591.8</ele>
        <time>2015-04-12T07:33:32Z</time>
      </trkpt>
      <trkpt lat="38.193506" lon="-1.441649">
        <ele>592.8</ele>
        <time>2015-04-12T07:33:43Z</time>
      </trkpt>
      <trkpt lat="38.193497" lon="-1.441645">
        <ele>592.8</ele>
        <time>2015-04-12T07:34:09Z</time>
      </trkpt>
      <trkpt lat="38.193398" lon="-1.441648">
        <ele>592.8</ele>
        <time>2015-04-12T07:34:22Z</time>
      </trkpt>
      <trkpt lat="38.193412" lon="-1.441684">
        <ele>593.3</ele>
        <time>2015-04-12T07:34:39Z</time>
      </trkpt>
      <trkpt lat="38.193421" lon="-1.441721">
        <ele>593.8</ele>
        <time>2015-04-12T07:35:04Z</time>
      </trkpt>
      <trkpt lat="38.193370" lon="-1.441754">
        <ele>593.8</ele>
        <time>2015-04-12T07:35:17Z</time>
      </trkpt>
      <trkpt lat="38.193362" lon="-1.441783">
        <ele>595.7</ele>
        <time>2015-04-12T07:35:32Z</time>
      </trkpt>
      <trkpt lat="38.193350" lon="-1.441822">
        <ele>596.6</ele>
        <time>2015-04-12T07:35:49Z</time>
      </trkpt>
      <trkpt lat="38.193355" lon="-1.441854">
        <ele>599.5</ele>
        <time>2015-04-12T07:36:02Z</time>
      </trkpt>
      <trkpt lat="38.193359" lon="-1.441886">
        <ele>601.0</ele>
        <time>2015-04-12T07:36:17Z</time>
      </trkpt>
      <trkpt lat="38.193404" lon="-1.441924">
        <ele>602.9</ele>
        <time>2015-04-12T07:36:28Z</time>
      </trkpt>
      <trkpt lat="38.193373" lon="-1.442026">
        <ele>604.8</ele>
        <time>2015-04-12T07:36:53Z</time>
      </trkpt>
      <trkpt lat="38.193382" lon="-1.442083">
        <ele>607.2</ele>
        <time>2015-04-12T07:37:05Z</time>
      </trkpt>
      <trkpt lat="38.193388" lon="-1.442116">
        <ele>609.1</ele>
        <time>2015-04-12T07:37:16Z</time>
      </trkpt>
      <trkpt lat="38.193395" lon="-1.442149">
        <ele>610.6</ele>
        <time>2015-04-12T07:37:29Z</time>
      </trkpt>
      <trkpt lat="38.193399" lon="-1.442171">
        <ele>612.0</ele>
        <time>2015-04-12T07:37:41Z</time>
      </trkpt>
      <trkpt lat="38.193403" lon="-1.442183">
        <ele>612.5</ele>
        <time>2015-04-12T07:37:56Z</time>
      </trkpt>
      <trkpt lat="38.193410" lon="-1.442194">
        <ele>615.4</ele>
        <time>2015-04-12T07:38:15Z</time>
      </trkpt>
      <trkpt lat="38.193418" lon="-1.442205">
        <ele>615.9</ele>
        <time>2015-04-12T07:38:36Z</time>
      </trkpt>
      <trkpt lat="38.193432" lon="-1.442227">
        <ele>619.7</ele>
        <time>2015-04-12T07:38:58Z</time>
      </trkpt>
      <trkpt lat="38.193435" lon="-1.442247">
        <ele>619.7</ele>
        <time>2015-04-12T07:39:13Z</time>
      </trkpt>
      <trkpt lat="38.193436" lon="-1.442267">
        <ele>621.2</ele>
        <time>2015-04-12T07:39:27Z</time>
      </trkpt>
      <trkpt lat="38.193421" lon="-1.442283">
        <ele>622.6</ele>
        <time>2015-04-12T07:39:40Z</time>
      </trkpt>
      <trkpt lat="38.193390" lon="-1.442324">
        <ele>624.0</ele>
        <time>2015-04-12T07:39:50Z</time>
      </trkpt>
      <trkpt lat="38.193378" lon="-1.442342">
        <ele>625.0</ele>
        <time>2015-04-12T07:40:04Z</time>
      </trkpt>
      <trkpt lat="38.193325" lon="-1.442362">
        <ele>626.4</ele>
        <time>2015-04-12T07:40:11Z</time>
      </trkpt>
      <trkpt lat="38.193326" lon="-1.442473">
        <ele>627.9</ele>
        <time>2015-04-12T07:40:23Z</time>
      </trkpt>
      <trkpt lat="38.193329" lon="-1.442515">
        <ele>629.3</ele>
        <time>2015-04-12T07:40:35Z</time>
      </trkpt>
      <trkpt lat="38.193330" lon="-1.442539">
        <ele>629.8</ele>
        <time>2015-04-12T07:40:47Z</time>
      </trkpt>
      <trkpt lat="38.193331" lon="-1.442576">
        <ele>631.2</ele>
        <time>2015-04-12T07:41:06Z</time>
      </trkpt>
      <trkpt lat="38.193308" lon="-1.442633">
        <ele>632.7</ele>
        <time>2015-04-12T07:41:15Z</time>
      </trkpt>
      <trkpt lat="38.193297" lon="-1.442683">
        <ele>635.1</ele>
        <time>2015-04-12T07:41:25Z</time>
      </trkpt>
      <trkpt lat="38.193279" lon="-1.442729">
        <ele>636.0</ele>
        <time>2015-04-12T07:41:32Z</time>
      </trkpt>
      <trkpt lat="38.193275" lon="-1.442748">
        <ele>637.0</ele>
        <time>2015-04-12T07:41:49Z</time>
      </trkpt>
      <trkpt lat="38.193250" lon="-1.442775">
        <ele>638.0</ele>
        <time>2015-04-12T07:41:56Z</time>
      </trkpt>
      <trkpt lat="38.193235" lon="-1.442799">
        <ele>638.0</ele>
        <time>2015-04-12T07:42:14Z</time>
      </trkpt>
      <trkpt lat="38.193217" lon="-1.442895">
        <ele>640.9</ele>
        <time>2015-04-12T07:42:21Z</time>
      </trkpt>
      <trkpt lat="38.193200" lon="-1.442973">
        <ele>642.8</ele>
        <time>2015-04-12T07:42:31Z</time>
      </trkpt>
      <trkpt lat="38.193190" lon="-1.443054">
        <ele>644.7</ele>
        <time>2015-04-12T07:42:43Z</time>
      </trkpt>
      <trkpt lat="38.193195" lon="-1.443069">
        <ele>645.7</ele>
        <time>2015-04-12T07:42:45Z</time>
      </trkpt>
      <trkpt lat="38.193213" lon="-1.443170">
        <ele>648.1</ele>
        <time>2015-04-12T07:43:00Z</time>
      </trkpt>
      <trkpt lat="38.193237" lon="-1.443228">
        <ele>650.5</ele>
        <time>2015-04-12T07:43:11Z</time>
      </trkpt>
      <trkpt lat="38.193235" lon="-1.443274">
        <ele>652.4</ele>
        <time>2015-04-12T07:43:22Z</time>
      </trkpt>
      <trkpt lat="38.193242" lon="-1.443335">
        <ele>653.8</ele>
        <time>2015-04-12T07:43:32Z</time>
      </trkpt>
      <trkpt lat="38.193227" lon="-1.443388">
        <ele>655.3</ele>
        <time>2015-04-12T07:43:41Z</time>
      </trkpt>
      <trkpt lat="38.193209" lon="-1.443466">
        <ele>657.7</ele>
        <time>2015-04-12T07:43:52Z</time>
      </trkpt>
      <trkpt lat="38.193217" lon="-1.443514">
        <ele>658.6</ele>
        <time>2015-04-12T07:44:03Z</time>
      </trkpt>
      <trkpt lat="38.193186" lon="-1.443577">
        <ele>658.6</ele>
        <time>2015-04-12T07:44:15Z</time>
      </trkpt>
      <trkpt lat="38.193176" lon="-1.443634">
        <ele>659.6</ele>
        <time>2015-04-12T07:44:20Z</time>
      </trkpt>
      <trkpt lat="38.193169" lon="-1.443646">
        <ele>660.1</ele>
        <time>2015-04-12T07:44:22Z</time>
      </trkpt>
      <trkpt lat="38.193159" lon="-1.443691">
        <ele>662.0</ele>
        <time>2015-04-12T07:44:33Z</time>
      </trkpt>
      <trkpt lat="38.193159" lon="-1.443693">
        <ele>663.0</ele>
        <time>2015-04-12T07:45:31Z</time>
      </trkpt>
      <trkpt lat="38.193131" lon="-1.443764">
        <ele>665.4</ele>
        <time>2015-04-12T07:45:44Z</time>
      </trkpt>
      <trkpt lat="38.193110" lon="-1.443797">
        <ele>665.8</ele>
        <time>2015-04-12T07:45:47Z</time>
      </trkpt>
      <trkpt lat="38.193119" lon="-1.443880">
        <ele>669.7</ele>
        <time>2015-04-12T07:45:57Z</time>
      </trkpt>
      <trkpt lat="38.193104" lon="-1.443990">
        <ele>673.1</ele>
        <time>2015-04-12T07:46:07Z</time>
      </trkpt>
      <trkpt lat="38.193098" lon="-1.444024">
        <ele>673.5</ele>
        <time>2015-04-12T07:46:11Z</time>
      </trkpt>
      <trkpt lat="38.193130" lon="-1.444106">
        <ele>677.4</ele>
        <time>2015-04-12T07:46:24Z</time>
      </trkpt>
      <trkpt lat="38.193100" lon="-1.444220">
        <ele>675.0</ele>
        <time>2015-04-12T07:47:59Z</time>
      </trkpt>
      <trkpt lat="38.193092" lon="-1.444259">
        <ele>675.9</ele>
        <time>2015-04-12T07:48:14Z</time>
      </trkpt>
      <trkpt lat="38.193068" lon="-1.444317">
        <ele>677.4</ele>
        <time>2015-04-12T07:48:25Z</time>
      </trkpt>
      <trkpt lat="38.193049" lon="-1.444382">
        <ele>679.8</ele>
        <time>2015-04-12T07:48:37Z</time>
      </trkpt>
      <trkpt lat="38.193024" lon="-1.444468">
        <ele>680.8</ele>
        <time>2015-04-12T07:48:49Z</time>
      </trkpt>
      <trkpt lat="38.193022" lon="-1.444549">
        <ele>682.2</ele>
        <time>2015-04-12T07:48:59Z</time>
      </trkpt>
      <trkpt lat="38.193027" lon="-1.444616">
        <ele>682.7</ele>
        <time>2015-04-12T07:49:09Z</time>
      </trkpt>
      <trkpt lat="38.192994" lon="-1.444686">
        <ele>688.9</ele>
        <time>2015-04-12T07:52:14Z</time>
      </trkpt>
      <trkpt lat="38.192988" lon="-1.444694">
        <ele>688.0</ele>
        <time>2015-04-12T07:52:16Z</time>
      </trkpt>
      <trkpt lat="38.192996" lon="-1.444741">
        <ele>688.9</ele>
        <time>2015-04-12T07:52:30Z</time>
      </trkpt>
      <trkpt lat="38.192996" lon="-1.444772">
        <ele>690.4</ele>
        <time>2015-04-12T07:52:36Z</time>
      </trkpt>
      <trkpt lat="38.192997" lon="-1.444785">
        <ele>689.9</ele>
        <time>2015-04-12T07:53:24Z</time>
      </trkpt>
      <trkpt lat="38.192999" lon="-1.444788">
        <ele>691.8</ele>
        <time>2015-04-12T07:53:41Z</time>
      </trkpt>
      <trkpt lat="38.192987" lon="-1.444854">
        <ele>694.7</ele>
        <time>2015-04-12T07:55:22Z</time>
      </trkpt>
      <trkpt lat="38.192970" lon="-1.444954">
        <ele>698.0</ele>
        <time>2015-04-12T07:55:34Z</time>
      </trkpt>
      <trkpt lat="38.192948" lon="-1.445053">
        <ele>700.5</ele>
        <time>2015-04-12T07:55:46Z</time>
      </trkpt>
      <trkpt lat="38.192956" lon="-1.445127">
        <ele>701.9</ele>
        <time>2015-04-12T07:55:57Z</time>
      </trkpt>
      <trkpt lat="38.192965" lon="-1.445181">
        <ele>703.8</ele>
        <time>2015-04-12T07:56:08Z</time>
      </trkpt>
      <trkpt lat="38.193005" lon="-1.445231">
        <ele>706.7</ele>
        <time>2015-04-12T07:56:20Z</time>
      </trkpt>
      <trkpt lat="38.193046" lon="-1.445295">
        <ele>709.1</ele>
        <time>2015-04-12T07:56:33Z</time>
      </trkpt>
      <trkpt lat="38.193077" lon="-1.445333">
        <ele>711.5</ele>
        <time>2015-04-12T07:56:44Z</time>
      </trkpt>
      <trkpt lat="38.193089" lon="-1.445335">
        <ele>711.5</ele>
        <time>2015-04-12T07:56:56Z</time>
      </trkpt>
      <trkpt lat="38.193071" lon="-1.445376">
        <ele>713.4</ele>
        <time>2015-04-12T07:57:30Z</time>
      </trkpt>
      <trkpt lat="38.193066" lon="-1.445384">
        <ele>714.4</ele>
        <time>2015-04-12T07:57:34Z</time>
      </trkpt>
      <trkpt lat="38.193090" lon="-1.445451">
        <ele>716.3</ele>
        <time>2015-04-12T07:57:45Z</time>
      </trkpt>
      <trkpt lat="38.193088" lon="-1.445458">
        <ele>716.3</ele>
        <time>2015-04-12T07:57:46Z</time>
      </trkpt>
      <trkpt lat="38.193110" lon="-1.445496">
        <ele>718.2</ele>
        <time>2015-04-12T07:58:00Z</time>
      </trkpt>
      <trkpt lat="38.193129" lon="-1.445523">
        <ele>719.7</ele>
        <time>2015-04-12T07:58:13Z</time>
      </trkpt>
      <trkpt lat="38.193166" lon="-1.445581">
        <ele>722.6</ele>
        <time>2015-04-12T07:58:50Z</time>
      </trkpt>
      <trkpt lat="38.193163" lon="-1.445611">
        <ele>724.5</ele>
        <time>2015-04-12T07:58:57Z</time>
      </trkpt>
      <trkpt lat="38.193198" lon="-1.445621">
        <ele>725.5</ele>
        <time>2015-04-12T07:59:20Z</time>
      </trkpt>
      <trkpt lat="38.193213" lon="-1.445616">
        <ele>726.9</ele>
        <time>2015-04-12T07:59:24Z</time>
      </trkpt>
      <trkpt lat="38.193249" lon="-1.445658">
        <ele>727.9</ele>
        <time>2015-04-12T07:59:36Z</time>
      </trkpt>
      <trkpt lat="38.193276" lon="-1.445682">
        <ele>729.8</ele>
        <time>2015-04-12T07:59:46Z</time>
      </trkpt>
      <trkpt lat="38.193282" lon="-1.445741">
        <ele>731.7</ele>
        <time>2015-04-12T07:59:58Z</time>
      </trkpt>
      <trkpt lat="38.193314" lon="-1.445768">
        <ele>733.1</ele>
        <time>2015-04-12T08:00:08Z</time>
      </trkpt>
      <trkpt lat="38.193305" lon="-1.445805">
        <ele>735.5</ele>
        <time>2015-04-12T08:00:16Z</time>
      </trkpt>
      <trkpt lat="38.193295" lon="-1.445834">
        <ele>735.5</ele>
        <time>2015-04-12T08:00:27Z</time>
      </trkpt>
      <trkpt lat="38.193296" lon="-1.445930">
        <ele>738.4</ele>
        <time>2015-04-12T08:00:40Z</time>
      </trkpt>
      <trkpt lat="38.193302" lon="-1.446011">
        <ele>741.3</ele>
        <time>2015-04-12T08:00:51Z</time>
      </trkpt>
      <trkpt lat="38.193310" lon="-1.446084">
        <ele>743.7</ele>
        <time>2015-04-12T08:01:04Z</time>
      </trkpt>
      <trkpt lat="38.193330" lon="-1.446123">
        <ele>744.7</ele>
        <time>2015-04-12T08:01:13Z</time>
      </trkpt>
      <trkpt lat="38.193401" lon="-1.446140">
        <ele>747.1</ele>
        <time>2015-04-12T08:01:24Z</time>
      </trkpt>
      <trkpt lat="38.193405" lon="-1.446149">
        <ele>747.1</ele>
        <time>2015-04-12T08:01:25Z</time>
      </trkpt>
      <trkpt lat="38.193430" lon="-1.446227">
        <ele>750.0</ele>
        <time>2015-04-12T08:01:36Z</time>
      </trkpt>
      <trkpt lat="38.193470" lon="-1.446247">
        <ele>750.5</ele>
        <time>2015-04-12T08:01:48Z</time>
      </trkpt>
      <trkpt lat="38.193469" lon="-1.446254">
        <ele>750.0</ele>
        <time>2015-04-12T08:08:10Z</time>
      </trkpt>
      <trkpt lat="38.193485" lon="-1.446297">
        <ele>750.9</ele>
        <time>2015-04-12T08:08:23Z</time>
      </trkpt>
      <trkpt lat="38.193496" lon="-1.446296">
        <ele>751.4</ele>
        <time>2015-04-12T08:08:38Z</time>
      </trkpt>
      <trkpt lat="38.193513" lon="-1.446337">
        <ele>752.4</ele>
        <time>2015-04-12T08:08:49Z</time>
      </trkpt>
      <trkpt lat="38.193517" lon="-1.446361">
        <ele>753.3</ele>
        <time>2015-04-12T08:09:01Z</time>
      </trkpt>
      <trkpt lat="38.193517" lon="-1.446413">
        <ele>755.2</ele>
        <time>2015-04-12T08:09:12Z</time>
      </trkpt>
      <trkpt lat="38.193517" lon="-1.446482">
        <ele>757.2</ele>
        <time>2015-04-12T08:09:23Z</time>
      </trkpt>
      <trkpt lat="38.193493" lon="-1.446513">
        <ele>757.2</ele>
        <time>2015-04-12T08:09:35Z</time>
      </trkpt>
      <trkpt lat="38.193481" lon="-1.446578">
        <ele>759.1</ele>
        <time>2015-04-12T08:09:45Z</time>
      </trkpt>
      <trkpt lat="38.193467" lon="-1.446628">
        <ele>760.5</ele>
        <time>2015-04-12T08:09:54Z</time>
      </trkpt>
      <trkpt lat="38.193464" lon="-1.446676">
        <ele>762.5</ele>
        <time>2015-04-12T08:10:05Z</time>
      </trkpt>
      <trkpt lat="38.193444" lon="-1.446715">
        <ele>764.4</ele>
        <time>2015-04-12T08:10:12Z</time>
      </trkpt>
      <trkpt lat="38.193435" lon="-1.446771">
        <ele>765.8</ele>
        <time>2015-04-12T08:10:22Z</time>
      </trkpt>
      <trkpt lat="38.193431" lon="-1.446821">
        <ele>766.8</ele>
        <time>2015-04-12T08:10:32Z</time>
      </trkpt>
      <trkpt lat="38.193408" lon="-1.446879">
        <ele>768.7</ele>
        <time>2015-04-12T08:10:42Z</time>
      </trkpt>
      <trkpt lat="38.193378" lon="-1.446955">
        <ele>770.2</ele>
        <time>2015-04-12T08:10:54Z</time>
      </trkpt>
      <trkpt lat="38.193384" lon="-1.447016">
        <ele>771.6</ele>
        <time>2015-04-12T08:11:04Z</time>
      </trkpt>
      <trkpt lat="38.193383" lon="-1.447066">
        <ele>770.6</ele>
        <time>2015-04-12T08:11:13Z</time>
      </trkpt>
      <trkpt lat="38.193383" lon="-1.447073">
        <ele>774.0</ele>
        <time>2015-04-12T08:11:15Z</time>
      </trkpt>
      <trkpt lat="38.193381" lon="-1.447078">
        <ele>777.4</ele>
        <time>2015-04-12T08:11:16Z</time>
      </trkpt>
      <trkpt lat="38.193379" lon="-1.447083">
        <ele>774.0</ele>
        <time>2015-04-12T08:11:17Z</time>
      </trkpt>
      <trkpt lat="38.193375" lon="-1.447155">
        <ele>774.0</ele>
        <time>2015-04-12T08:11:29Z</time>
      </trkpt>
      <trkpt lat="38.193382" lon="-1.447210">
        <ele>775.9</ele>
        <time>2015-04-12T08:11:40Z</time>
      </trkpt>
      <trkpt lat="38.193392" lon="-1.447224">
        <ele>775.9</ele>
        <time>2015-04-12T08:11:51Z</time>
      </trkpt>
      <trkpt lat="38.193351" lon="-1.447286">
        <ele>777.8</ele>
        <time>2015-04-12T08:12:05Z</time>
      </trkpt>
      <trkpt lat="38.193302" lon="-1.447385">
        <ele>779.3</ele>
        <time>2015-04-12T08:12:21Z</time>
      </trkpt>
      <trkpt lat="38.193248" lon="-1.447436">
        <ele>781.2</ele>
        <time>2015-04-12T08:12:35Z</time>
      </trkpt>
      <trkpt lat="38.193208" lon="-1.447458">
        <ele>781.7</ele>
        <time>2015-04-12T08:12:46Z</time>
      </trkpt>
      <trkpt lat="38.193176" lon="-1.447466">
        <ele>782.7</ele>
        <time>2015-04-12T08:13:01Z</time>
      </trkpt>
      <trkpt lat="38.193117" lon="-1.447512">
        <ele>782.7</ele>
        <time>2015-04-12T08:13:15Z</time>
      </trkpt>
      <trkpt lat="38.193085" lon="-1.447545">
        <ele>784.1</ele>
        <time>2015-04-12T08:13:30Z</time>
      </trkpt>
      <trkpt lat="38.193059" lon="-1.447599">
        <ele>785.5</ele>
        <time>2015-04-12T08:13:41Z</time>
      </trkpt>
      <trkpt lat="38.193016" lon="-1.447621">
        <ele>787.0</ele>
        <time>2015-04-12T08:13:54Z</time>
      </trkpt>
      <trkpt lat="38.192975" lon="-1.447664">
        <ele>788.9</ele>
        <time>2015-04-12T08:14:06Z</time>
      </trkpt>
      <trkpt lat="38.192966" lon="-1.447713">
        <ele>791.3</ele>
        <time>2015-04-12T08:14:18Z</time>
      </trkpt>
      <trkpt lat="38.192964" lon="-1.447749">
        <ele>794.2</ele>
        <time>2015-04-12T08:14:31Z</time>
      </trkpt>
      <trkpt lat="38.192965" lon="-1.447778">
        <ele>794.7</ele>
        <time>2015-04-12T08:14:43Z</time>
      </trkpt>
      <trkpt lat="38.192953" lon="-1.447792">
        <ele>795.2</ele>
        <time>2015-04-12T08:15:00Z</time>
      </trkpt>
      <trkpt lat="38.192915" lon="-1.447863">
        <ele>797.1</ele>
        <time>2015-04-12T08:15:13Z</time>
      </trkpt>
      <trkpt lat="38.192850" lon="-1.447856">
        <ele>797.5</ele>
        <time>2015-04-12T08:18:43Z</time>
      </trkpt>
      <trkpt lat="38.192810" lon="-1.447864">
        <ele>797.1</ele>
        <time>2015-04-12T08:18:54Z</time>
      </trkpt>
      <trkpt lat="38.192725" lon="-1.447859">
        <ele>798.0</ele>
        <time>2015-04-12T08:19:12Z</time>
      </trkpt>
      <trkpt lat="38.192679" lon="-1.447842">
        <ele>800.0</ele>
        <time>2015-04-12T08:19:26Z</time>
      </trkpt>
      <trkpt lat="38.192639" lon="-1.447883">
        <ele>803.3</ele>
        <time>2015-04-12T08:19:38Z</time>
      </trkpt>
      <trkpt lat="38.192586" lon="-1.447887">
        <ele>804.8</ele>
        <time>2015-04-12T08:19:52Z</time>
      </trkpt>
      <trkpt lat="38.192549" lon="-1.447923">
        <ele>806.7</ele>
        <time>2015-04-12T08:20:05Z</time>
      </trkpt>
      <trkpt lat="38.192493" lon="-1.447919">
        <ele>809.1</ele>
        <time>2015-04-12T08:20:18Z</time>
      </trkpt>
      <trkpt lat="38.192445" lon="-1.447958">
        <ele>811.5</ele>
        <time>2015-04-12T08:20:30Z</time>
      </trkpt>
      <trkpt lat="38.192395" lon="-1.447963">
        <ele>814.8</ele>
        <time>2015-04-12T08:20:42Z</time>
      </trkpt>
      <trkpt lat="38.192330" lon="-1.447978">
        <ele>816.8</ele>
        <time>2015-04-12T08:20:55Z</time>
      </trkpt>
      <trkpt lat="38.192313" lon="-1.448023">
        <ele>819.2</ele>
        <time>2015-04-12T08:21:06Z</time>
      </trkpt>
      <trkpt lat="38.192286" lon="-1.448072">
        <ele>819.7</ele>
        <time>2015-04-12T08:21:17Z</time>
      </trkpt>
      <trkpt lat="38.192222" lon="-1.448093">
        <ele>822.1</ele>
        <time>2015-04-12T08:21:29Z</time>
      </trkpt>
      <trkpt lat="38.192143" lon="-1.448064">
        <ele>823.5</ele>
        <time>2015-04-12T08:21:43Z</time>
      </trkpt>
      <trkpt lat="38.192109" lon="-1.448072">
        <ele>823.5</ele>
        <time>2015-04-12T08:21:57Z</time>
      </trkpt>
      <trkpt lat="38.192044" lon="-1.448042">
        <ele>825.9</ele>
        <time>2015-04-12T08:22:11Z</time>
      </trkpt>
      <trkpt lat="38.191985" lon="-1.448031">
        <ele>827.3</ele>
        <time>2015-04-12T08:22:26Z</time>
      </trkpt>
      <trkpt lat="38.191921" lon="-1.448050">
        <ele>827.3</ele>
        <time>2015-04-12T08:24:44Z</time>
      </trkpt>
      <trkpt lat="38.191919" lon="-1.448008">
        <ele>828.8</ele>
        <time>2015-04-12T08:26:29Z</time>
      </trkpt>
      <trkpt lat="38.191919" lon="-1.447902">
        <ele>829.8</ele>
        <time>2015-04-12T08:26:43Z</time>
      </trkpt>
      <trkpt lat="38.191925" lon="-1.447823">
        <ele>830.2</ele>
        <time>2015-04-12T08:26:59Z</time>
      </trkpt>
      <trkpt lat="38.191916" lon="-1.447800">
        <ele>826.4</ele>
        <time>2015-04-12T08:27:05Z</time>
      </trkpt>
      <trkpt lat="38.191886" lon="-1.447761">
        <ele>831.7</ele>
        <time>2015-04-12T08:27:14Z</time>
      </trkpt>
      <trkpt lat="38.191872" lon="-1.447732">
        <ele>833.1</ele>
        <time>2015-04-12T08:27:17Z</time>
      </trkpt>
      <trkpt lat="38.191879" lon="-1.447677">
        <ele>834.6</ele>
        <time>2015-04-12T08:27:21Z</time>
      </trkpt>
      <trkpt lat="38.191889" lon="-1.447641">
        <ele>836.5</ele>
        <time>2015-04-12T08:27:29Z</time>
      </trkpt>
      <trkpt lat="38.191897" lon="-1.447553">
        <ele>837.9</ele>
        <time>2015-04-12T08:28:04Z</time>
      </trkpt>
      <trkpt lat="38.191903" lon="-1.447507">
        <ele>837.9</ele>
        <time>2015-04-12T08:28:39Z</time>
      </trkpt>
      <trkpt lat="38.191878" lon="-1.447565">
        <ele>837.5</ele>
        <time>2015-04-12T08:29:09Z</time>
      </trkpt>
      <trkpt lat="38.191869" lon="-1.447602">
        <ele>837.0</ele>
        <time>2015-04-12T08:29:38Z</time>
      </trkpt>
      <trkpt lat="38.191875" lon="-1.447660">
        <ele>839.4</ele>
        <time>2015-04-12T08:36:44Z</time>
      </trkpt>
      <trkpt lat="38.191852" lon="-1.447739">
        <ele>836.5</ele>
        <time>2015-04-12T08:39:08Z</time>
      </trkpt>
      <trkpt lat="38.191855" lon="-1.447775">
        <ele>835.0</ele>
        <time>2015-04-12T08:39:15Z</time>
      </trkpt>
      <trkpt lat="38.191904" lon="-1.447855">
        <ele>832.6</ele>
        <time>2015-04-12T08:39:30Z</time>
      </trkpt>
      <trkpt lat="38.191874" lon="-1.447954">
        <ele>831.2</ele>
        <time>2015-04-12T08:39:41Z</time>
      </trkpt>
      <trkpt lat="38.191867" lon="-1.447980">
        <ele>830.2</ele>
        <time>2015-04-12T08:39:46Z</time>
      </trkpt>
      <trkpt lat="38.191868" lon="-1.448027">
        <ele>830.7</ele>
        <time>2015-04-12T08:39:50Z</time>
      </trkpt>
      <trkpt lat="38.191895" lon="-1.448049">
        <ele>829.8</ele>
        <time>2015-04-12T08:39:53Z</time>
      </trkpt>
      <trkpt lat="38.191838" lon="-1.448075">
        <ele>829.8</ele>
        <time>2015-04-12T08:40:14Z</time>
      </trkpt>
      <trkpt lat="38.191807" lon="-1.448134">
        <ele>830.2</ele>
        <time>2015-04-12T08:40:29Z</time>
      </trkpt>
      <trkpt lat="38.191822" lon="-1.448240">
        <ele>831.7</ele>
        <time>2015-04-12T08:40:44Z</time>
      </trkpt>
      <trkpt lat="38.191819" lon="-1.448257">
        <ele>832.2</ele>
        <time>2015-04-12T08:40:46Z</time>
      </trkpt>
      <trkpt lat="38.191836" lon="-1.448326">
        <ele>834.6</ele>
        <time>2015-04-12T08:40:53Z</time>
      </trkpt>
      <trkpt lat="38.191841" lon="-1.448414">
        <ele>836.5</ele>
        <time>2015-04-12T08:41:06Z</time>
      </trkpt>
      <trkpt lat="38.191873" lon="-1.448487">
        <ele>837.9</ele>
        <time>2015-04-12T08:41:14Z</time>
      </trkpt>
      <trkpt lat="38.191901" lon="-1.448593">
        <ele>838.9</ele>
        <time>2015-04-12T08:41:26Z</time>
      </trkpt>
      <trkpt lat="38.191938" lon="-1.448690">
        <ele>841.3</ele>
        <time>2015-04-12T08:41:39Z</time>
      </trkpt>
      <trkpt lat="38.191948" lon="-1.448758">
        <ele>842.2</ele>
        <time>2015-04-12T08:41:53Z</time>
      </trkpt>
      <trkpt lat="38.191953" lon="-1.448868">
        <ele>844.2</ele>
        <time>2015-04-12T08:42:04Z</time>
      </trkpt>
      <trkpt lat="38.191977" lon="-1.448888">
        <ele>844.2</ele>
        <time>2015-04-12T08:42:07Z</time>
      </trkpt>
      <trkpt lat="38.192053" lon="-1.449034">
        <ele>845.1</ele>
        <time>2015-04-12T08:42:20Z</time>
      </trkpt>
      <trkpt lat="38.192118" lon="-1.449105">
        <ele>844.7</ele>
        <time>2015-04-12T08:42:31Z</time>
      </trkpt>
      <trkpt lat="38.192154" lon="-1.449192">
        <ele>845.6</ele>
        <time>2015-04-12T08:42:43Z</time>
      </trkpt>
      <trkpt lat="38.192200" lon="-1.449285">
        <ele>845.6</ele>
        <time>2015-04-12T08:42:57Z</time>
      </trkpt>
      <trkpt lat="38.192237" lon="-1.449335">
        <ele>847.1</ele>
        <time>2015-04-12T08:43:32Z</time>
      </trkpt>
      <trkpt lat="38.192266" lon="-1.449402">
        <ele>848.5</ele>
        <time>2015-04-12T08:43:45Z</time>
      </trkpt>
      <trkpt lat="38.192318" lon="-1.449439">
        <ele>848.5</ele>
        <time>2015-04-12T08:43:54Z</time>
      </trkpt>
      <trkpt lat="38.192320" lon="-1.449469">
        <ele>849.9</ele>
        <time>2015-04-12T08:43:57Z</time>
      </trkpt>
      <trkpt lat="38.192359" lon="-1.449507">
        <ele>850.9</ele>
        <time>2015-04-12T08:44:04Z</time>
      </trkpt>
      <trkpt lat="38.192392" lon="-1.449570">
        <ele>853.3</ele>
        <time>2015-04-12T08:44:18Z</time>
      </trkpt>
      <trkpt lat="38.192421" lon="-1.449610">
        <ele>854.3</ele>
        <time>2015-04-12T08:44:30Z</time>
      </trkpt>
      <trkpt lat="38.192474" lon="-1.449668">
        <ele>856.2</ele>
        <time>2015-04-12T08:44:41Z</time>
      </trkpt>
      <trkpt lat="38.192546" lon="-1.449676">
        <ele>857.6</ele>
        <time>2015-04-12T08:44:54Z</time>
      </trkpt>
      <trkpt lat="38.192589" lon="-1.449718">
        <ele>859.1</ele>
        <time>2015-04-12T08:45:07Z</time>
      </trkpt>
      <trkpt lat="38.192638" lon="-1.449729">
        <ele>861.0</ele>
        <time>2015-04-12T08:45:18Z</time>
      </trkpt>
      <trkpt lat="38.192668" lon="-1.449732">
        <ele>862.4</ele>
        <time>2015-04-12T08:45:26Z</time>
      </trkpt>
      <trkpt lat="38.192701" lon="-1.449725">
        <ele>863.4</ele>
        <time>2015-04-12T08:45:39Z</time>
      </trkpt>
      <trkpt lat="38.192740" lon="-1.449801">
        <ele>866.8</ele>
        <time>2015-04-12T08:45:49Z</time>
      </trkpt>
      <trkpt lat="38.192812" lon="-1.449837">
        <ele>869.7</ele>
        <time>2015-04-12T08:46:02Z</time>
      </trkpt>
      <trkpt lat="38.192862" lon="-1.449873">
        <ele>872.5</ele>
        <time>2015-04-12T08:46:11Z</time>
      </trkpt>
      <trkpt lat="38.192907" lon="-1.449925">
        <ele>875.4</ele>
        <time>2015-04-12T08:46:42Z</time>
      </trkpt>
      <trkpt lat="38.192939" lon="-1.449983">
        <ele>877.3</ele>
        <time>2015-04-12T08:46:54Z</time>
      </trkpt>
      <trkpt lat="38.192996" lon="-1.450019">
        <ele>880.2</ele>
        <time>2015-04-12T08:47:07Z</time>
      </trkpt>
      <trkpt lat="38.193046" lon="-1.450035">
        <ele>881.2</ele>
        <time>2015-04-12T08:47:19Z</time>
      </trkpt>
      <trkpt lat="38.193091" lon="-1.450042">
        <ele>883.1</ele>
        <time>2015-04-12T08:47:31Z</time>
      </trkpt>
      <trkpt lat="38.193118" lon="-1.450068">
        <ele>885.0</ele>
        <time>2015-04-12T08:47:41Z</time>
      </trkpt>
      <trkpt lat="38.193125" lon="-1.450074">
        <ele>886.0</ele>
        <time>2015-04-12T08:47:44Z</time>
      </trkpt>
      <trkpt lat="38.193160" lon="-1.450123">
        <ele>887.9</ele>
        <time>2015-04-12T08:47:56Z</time>
      </trkpt>
      <trkpt lat="38.193202" lon="-1.450159">
        <ele>890.3</ele>
        <time>2015-04-12T08:48:11Z</time>
      </trkpt>
      <trkpt lat="38.193204" lon="-1.450187">
        <ele>891.3</ele>
        <time>2015-04-12T08:48:26Z</time>
      </trkpt>
      <trkpt lat="38.193244" lon="-1.450209">
        <ele>893.2</ele>
        <time>2015-04-12T08:48:41Z</time>
      </trkpt>
      <trkpt lat="38.193241" lon="-1.450226">
        <ele>894.2</ele>
        <time>2015-04-12T08:48:55Z</time>
      </trkpt>
      <trkpt lat="38.193267" lon="-1.450239">
        <ele>895.6</ele>
        <time>2015-04-12T08:49:03Z</time>
      </trkpt>
      <trkpt lat="38.193325" lon="-1.450203">
        <ele>897.5</ele>
        <time>2015-04-12T08:49:16Z</time>
      </trkpt>
      <trkpt lat="38.193359" lon="-1.450232">
        <ele>899.0</ele>
        <time>2015-04-12T08:49:39Z</time>
      </trkpt>
      <trkpt lat="38.193357" lon="-1.450273">
        <ele>899.0</ele>
        <time>2015-04-12T08:49:59Z</time>
      </trkpt>
      <trkpt lat="38.193359" lon="-1.450341">
        <ele>900.4</ele>
        <time>2015-04-12T08:50:12Z</time>
      </trkpt>
      <trkpt lat="38.193373" lon="-1.450342">
        <ele>902.3</ele>
        <time>2015-04-12T08:50:16Z</time>
      </trkpt>
      <trkpt lat="38.193388" lon="-1.450390">
        <ele>902.3</ele>
        <time>2015-04-12T08:50:24Z</time>
      </trkpt>
      <trkpt lat="38.193410" lon="-1.450487">
        <ele>904.3</ele>
        <time>2015-04-12T08:50:37Z</time>
      </trkpt>
      <trkpt lat="38.193449" lon="-1.450493">
        <ele>905.2</ele>
        <time>2015-04-12T08:50:48Z</time>
      </trkpt>
      <trkpt lat="38.193501" lon="-1.450551">
        <ele>907.6</ele>
        <time>2015-04-12T08:51:00Z</time>
      </trkpt>
      <trkpt lat="38.193532" lon="-1.450605">
        <ele>909.5</ele>
        <time>2015-04-12T08:51:12Z</time>
      </trkpt>
      <trkpt lat="38.193546" lon="-1.450642">
        <ele>910.0</ele>
        <time>2015-04-12T08:51:28Z</time>
      </trkpt>
      <trkpt lat="38.193568" lon="-1.450759">
        <ele>911.0</ele>
        <time>2015-04-12T08:51:40Z</time>
      </trkpt>
      <trkpt lat="38.193601" lon="-1.450810">
        <ele>911.5</ele>
        <time>2015-04-12T08:51:50Z</time>
      </trkpt>
      <trkpt lat="38.193621" lon="-1.450851">
        <ele>912.4</ele>
        <time>2015-04-12T08:52:01Z</time>
      </trkpt>
      <trkpt lat="38.193630" lon="-1.450854">
        <ele>912.0</ele>
        <time>2015-04-12T08:52:13Z</time>
      </trkpt>
      <trkpt lat="38.193669" lon="-1.450918">
        <ele>912.0</ele>
        <time>2015-04-12T08:52:27Z</time>
      </trkpt>
      <trkpt lat="38.193685" lon="-1.451000">
        <ele>911.0</ele>
        <time>2015-04-12T08:52:35Z</time>
      </trkpt>
      <trkpt lat="38.193703" lon="-1.451040">
        <ele>911.0</ele>
        <time>2015-04-12T08:53:12Z</time>
      </trkpt>
      <trkpt lat="38.193716" lon="-1.451068">
        <ele>911.5</ele>
        <time>2015-04-12T08:54:41Z</time>
      </trkpt>
      <trkpt lat="38.193753" lon="-1.451167">
        <ele>911.0</ele>
        <time>2015-04-12T08:56:03Z</time>
      </trkpt>
      <trkpt lat="38.193776" lon="-1.451248">
        <ele>912.0</ele>
        <time>2015-04-12T08:56:13Z</time>
      </trkpt>
      <trkpt lat="38.193796" lon="-1.451328">
        <ele>912.9</ele>
        <time>2015-04-12T08:56:26Z</time>
      </trkpt>
      <trkpt lat="38.193791" lon="-1.451337">
        <ele>912.9</ele>
        <time>2015-04-12T08:56:27Z</time>
      </trkpt>
      <trkpt lat="38.193801" lon="-1.451402">
        <ele>914.8</ele>
        <time>2015-04-12T08:56:39Z</time>
      </trkpt>
      <trkpt lat="38.193818" lon="-1.451430">
        <ele>915.3</ele>
        <time>2015-04-12T08:56:51Z</time>
      </trkpt>
      <trkpt lat="38.193836" lon="-1.451431">
        <ele>914.8</ele>
        <time>2015-04-12T08:56:54Z</time>
      </trkpt>
      <trkpt lat="38.193858" lon="-1.451438">
        <ele>915.3</ele>
        <time>2015-04-12T08:56:58Z</time>
      </trkpt>
      <trkpt lat="38.193948" lon="-1.451364">
        <ele>916.8</ele>
        <time>2015-04-12T08:57:10Z</time>
      </trkpt>
      <trkpt lat="38.194002" lon="-1.451381">
        <ele>918.7</ele>
        <time>2015-04-12T08:57:22Z</time>
      </trkpt>
      <trkpt lat="38.194058" lon="-1.451415">
        <ele>921.1</ele>
        <time>2015-04-12T08:57:33Z</time>
      </trkpt>
      <trkpt lat="38.194115" lon="-1.451407">
        <ele>924.0</ele>
        <time>2015-04-12T08:57:45Z</time>
      </trkpt>
      <trkpt lat="38.194127" lon="-1.451437">
        <ele>925.9</ele>
        <time>2015-04-12T08:57:55Z</time>
      </trkpt>
      <trkpt lat="38.194130" lon="-1.451433">
        <ele>925.9</ele>
        <time>2015-04-12T08:58:01Z</time>
      </trkpt>
      <trkpt lat="38.194147" lon="-1.451446">
        <ele>927.3</ele>
        <time>2015-04-12T08:58:12Z</time>
      </trkpt>
      <trkpt lat="38.194147" lon="-1.451470">
        <ele>929.2</ele>
        <time>2015-04-12T08:58:23Z</time>
      </trkpt>
      <trkpt lat="38.194178" lon="-1.451531">
        <ele>929.2</ele>
        <time>2015-04-12T08:58:34Z</time>
      </trkpt>
      <trkpt lat="38.194181" lon="-1.451564">
        <ele>930.2</ele>
        <time>2015-04-12T08:58:45Z</time>
      </trkpt>
      <trkpt lat="38.194207" lon="-1.451583">
        <ele>929.2</ele>
        <time>2015-04-12T08:58:59Z</time>
      </trkpt>
      <trkpt lat="38.194191" lon="-1.451595">
        <ele>929.2</ele>
        <time>2015-04-12T08:59:11Z</time>
      </trkpt>
      <trkpt lat="38.194182" lon="-1.451583">
        <ele>930.2</ele>
        <time>2015-04-12T08:59:30Z</time>
      </trkpt>
      <trkpt lat="38.194171" lon="-1.451571">
        <ele>929.2</ele>
        <time>2015-04-12T09:01:02Z</time>
      </trkpt>
      <trkpt lat="38.194162" lon="-1.451585">
        <ele>929.2</ele>
        <time>2015-04-12T09:03:48Z</time>
      </trkpt>
      <trkpt lat="38.194154" lon="-1.451602">
        <ele>927.8</ele>
        <time>2015-04-12T09:03:58Z</time>
      </trkpt>
      <trkpt lat="38.194136" lon="-1.451611">
        <ele>926.4</ele>
        <time>2015-04-12T09:04:10Z</time>
      </trkpt>
      <trkpt lat="38.194127" lon="-1.451660">
        <ele>924.5</ele>
        <time>2015-04-12T09:04:16Z</time>
      </trkpt>
      <trkpt lat="38.194112" lon="-1.451724">
        <ele>923.0</ele>
        <time>2015-04-12T09:04:26Z</time>
      </trkpt>
      <trkpt lat="38.194062" lon="-1.451678">
        <ele>922.0</ele>
        <time>2015-04-12T09:04:38Z</time>
      </trkpt>
      <trkpt lat="38.194033" lon="-1.451658">
        <ele>921.6</ele>
        <time>2015-04-12T09:04:52Z</time>
      </trkpt>
      <trkpt lat="38.193979" lon="-1.451668">
        <ele>920.6</ele>
        <time>2015-04-12T09:05:07Z</time>
      </trkpt>
      <trkpt lat="38.193942" lon="-1.451729">
        <ele>920.1</ele>
        <time>2015-04-12T09:05:21Z</time>
      </trkpt>
      <trkpt lat="38.193898" lon="-1.451766">
        <ele>919.6</ele>
        <time>2015-04-12T09:05:34Z</time>
      </trkpt>
      <trkpt lat="38.193848" lon="-1.451815">
        <ele>919.6</ele>
        <time>2015-04-12T09:05:46Z</time>
      </trkpt>
      <trkpt lat="38.193820" lon="-1.451898">
        <ele>917.7</ele>
        <time>2015-04-12T09:05:58Z</time>
      </trkpt>
      <trkpt lat="38.193850" lon="-1.451964">
        <ele>916.8</ele>
        <time>2015-04-12T09:06:10Z</time>
      </trkpt>
      <trkpt lat="38.193843" lon="-1.452033">
        <ele>916.3</ele>
        <time>2015-04-12T09:06:22Z</time>
      </trkpt>
      <trkpt lat="38.193822" lon="-1.452150">
        <ele>915.3</ele>
        <time>2015-04-12T09:06:36Z</time>
      </trkpt>
      <trkpt lat="38.193824" lon="-1.452163">
        <ele>915.3</ele>
        <time>2015-04-12T09:06:37Z</time>
      </trkpt>
      <trkpt lat="38.193830" lon="-1.452316">
        <ele>913.9</ele>
        <time>2015-04-12T09:06:51Z</time>
      </trkpt>
      <trkpt lat="38.193845" lon="-1.452368">
        <ele>912.4</ele>
        <time>2015-04-12T09:07:00Z</time>
      </trkpt>
      <trkpt lat="38.193856" lon="-1.452382">
        <ele>913.9</ele>
        <time>2015-04-12T09:07:02Z</time>
      </trkpt>
      <trkpt lat="38.193852" lon="-1.452506">
        <ele>912.4</ele>
        <time>2015-04-12T09:07:14Z</time>
      </trkpt>
      <trkpt lat="38.193865" lon="-1.452630">
        <ele>911.5</ele>
        <time>2015-04-12T09:07:27Z</time>
      </trkpt>
      <trkpt lat="38.193907" lon="-1.452713">
        <ele>911.0</ele>
        <time>2015-04-12T09:07:38Z</time>
      </trkpt>
      <trkpt lat="38.193948" lon="-1.452818">
        <ele>911.5</ele>
        <time>2015-04-12T09:07:48Z</time>
      </trkpt>
      <trkpt lat="38.193947" lon="-1.452885">
        <ele>910.5</ele>
        <time>2015-04-12T09:07:53Z</time>
      </trkpt>
      <trkpt lat="38.193983" lon="-1.452988">
        <ele>911.0</ele>
        <time>2015-04-12T09:08:06Z</time>
      </trkpt>
      <trkpt lat="38.194021" lon="-1.453023">
        <ele>911.0</ele>
        <time>2015-04-12T09:08:20Z</time>
      </trkpt>
      <trkpt lat="38.194058" lon="-1.453053">
        <ele>910.5</ele>
        <time>2015-04-12T09:08:31Z</time>
      </trkpt>
      <trkpt lat="38.194100" lon="-1.453067">
        <ele>910.5</ele>
        <time>2015-04-12T09:08:41Z</time>
      </trkpt>
      <trkpt lat="38.194106" lon="-1.453070">
        <ele>910.5</ele>
        <time>2015-04-12T09:08:53Z</time>
      </trkpt>
      <trkpt lat="38.194108" lon="-1.453128">
        <ele>910.5</ele>
        <time>2015-04-12T09:09:03Z</time>
      </trkpt>
      <trkpt lat="38.194115" lon="-1.453165">
        <ele>910.0</ele>
        <time>2015-04-12T09:09:06Z</time>
      </trkpt>
      <trkpt lat="38.194113" lon="-1.453300">
        <ele>912.0</ele>
        <time>2015-04-12T09:09:20Z</time>
      </trkpt>
      <trkpt lat="38.194119" lon="-1.453374">
        <ele>911.0</ele>
        <time>2015-04-12T09:09:31Z</time>
      </trkpt>
      <trkpt lat="38.194088" lon="-1.453422">
        <ele>911.5</ele>
        <time>2015-04-12T09:09:42Z</time>
      </trkpt>
      <trkpt lat="38.194095" lon="-1.453517">
        <ele>911.5</ele>
        <time>2015-04-12T09:11:30Z</time>
      </trkpt>
      <trkpt lat="38.194131" lon="-1.453558">
        <ele>909.1</ele>
        <time>2015-04-12T09:13:59Z</time>
      </trkpt>
      <trkpt lat="38.194169" lon="-1.453515">
        <ele>909.5</ele>
        <time>2015-04-12T09:14:04Z</time>
      </trkpt>
      <trkpt lat="38.194280" lon="-1.453530">
        <ele>910.0</ele>
        <time>2015-04-12T09:14:15Z</time>
      </trkpt>
      <trkpt lat="38.194325" lon="-1.453591">
        <ele>910.5</ele>
        <time>2015-04-12T09:14:27Z</time>
      </trkpt>
      <trkpt lat="38.194326" lon="-1.453591">
        <ele>909.5</ele>
        <time>2015-04-12T09:14:28Z</time>
      </trkpt>
      <trkpt lat="38.194344" lon="-1.453659">
        <ele>909.1</ele>
        <time>2015-04-12T09:14:49Z</time>
      </trkpt>
      <trkpt lat="38.194381" lon="-1.453740">
        <ele>909.1</ele>
        <time>2015-04-12T09:15:02Z</time>
      </trkpt>
      <trkpt lat="38.194471" lon="-1.453873">
        <ele>912.9</ele>
        <time>2015-04-12T09:15:13Z</time>
      </trkpt>
      <trkpt lat="38.194473" lon="-1.453887">
        <ele>912.9</ele>
        <time>2015-04-12T09:15:14Z</time>
      </trkpt>
      <trkpt lat="38.194499" lon="-1.453932">
        <ele>913.9</ele>
        <time>2015-04-12T09:15:19Z</time>
      </trkpt>
      <trkpt lat="38.194503" lon="-1.453953">
        <ele>914.8</ele>
        <time>2015-04-12T09:15:21Z</time>
      </trkpt>
      <trkpt lat="38.194530" lon="-1.453967">
        <ele>916.8</ele>
        <time>2015-04-12T09:15:24Z</time>
      </trkpt>
      <trkpt lat="38.194540" lon="-1.453994">
        <ele>917.2</ele>
        <time>2015-04-12T09:15:26Z</time>
      </trkpt>
      <trkpt lat="38.194587" lon="-1.454054">
        <ele>918.2</ele>
        <time>2015-04-12T09:15:32Z</time>
      </trkpt>
      <trkpt lat="38.194589" lon="-1.454081">
        <ele>918.7</ele>
        <time>2015-04-12T09:15:34Z</time>
      </trkpt>
      <trkpt lat="38.194680" lon="-1.454178">
        <ele>920.6</ele>
        <time>2015-04-12T09:15:46Z</time>
      </trkpt>
      <trkpt lat="38.194732" lon="-1.454237">
        <ele>923.5</ele>
        <time>2015-04-12T09:15:57Z</time>
      </trkpt>
      <trkpt lat="38.194767" lon="-1.454317">
        <ele>925.9</ele>
        <time>2015-04-12T09:16:09Z</time>
      </trkpt>
      <trkpt lat="38.194806" lon="-1.454362">
        <ele>929.2</ele>
        <time>2015-04-12T09:16:20Z</time>
      </trkpt>
      <trkpt lat="38.194806" lon="-1.454376">
        <ele>930.7</ele>
        <time>2015-04-12T09:16:40Z</time>
      </trkpt>
      <trkpt lat="38.194816" lon="-1.454431">
        <ele>931.2</ele>
        <time>2015-04-12T09:17:20Z</time>
      </trkpt>
      <trkpt lat="38.194816" lon="-1.454433">
        <ele>931.2</ele>
        <time>2015-04-12T09:17:40Z</time>
      </trkpt>
      <trkpt lat="38.194851" lon="-1.454432">
        <ele>932.1</ele>
        <time>2015-04-12T09:17:55Z</time>
      </trkpt>
      <trkpt lat="38.194870" lon="-1.454417">
        <ele>933.6</ele>
        <time>2015-04-12T09:17:59Z</time>
      </trkpt>
      <trkpt lat="38.194904" lon="-1.454441">
        <ele>936.0</ele>
        <time>2015-04-12T09:18:06Z</time>
      </trkpt>
      <trkpt lat="38.194954" lon="-1.454439">
        <ele>937.4</ele>
        <time>2015-04-12T09:18:17Z</time>
      </trkpt>
      <trkpt lat="38.194958" lon="-1.454461">
        <ele>935.5</ele>
        <time>2015-04-12T09:18:27Z</time>
      </trkpt>
      <trkpt lat="38.194978" lon="-1.454445">
        <ele>936.5</ele>
        <time>2015-04-12T09:18:41Z</time>
      </trkpt>
      <trkpt lat="38.195007" lon="-1.454416">
        <ele>935.5</ele>
        <time>2015-04-12T09:20:41Z</time>
      </trkpt>
      <trkpt lat="38.195011" lon="-1.454424">
        <ele>939.8</ele>
        <time>2015-04-12T09:37:39Z</time>
      </trkpt>
      <trkpt lat="38.195014" lon="-1.454466">
        <ele>939.8</ele>
        <time>2015-04-12T09:37:48Z</time>
      </trkpt>
      <trkpt lat="38.195026" lon="-1.454525">
        <ele>938.9</ele>
        <time>2015-04-12T09:37:58Z</time>
      </trkpt>
      <trkpt lat="38.195019" lon="-1.454640">
        <ele>937.9</ele>
        <time>2015-04-12T09:38:11Z</time>
      </trkpt>
      <trkpt lat="38.194984" lon="-1.454672">
        <ele>937.9</ele>
        <time>2015-04-12T09:38:21Z</time>
      </trkpt>
      <trkpt lat="38.194997" lon="-1.454712">
        <ele>936.5</ele>
        <time>2015-04-12T09:38:34Z</time>
      </trkpt>
      <trkpt lat="38.195012" lon="-1.454765">
        <ele>935.0</ele>
        <time>2015-04-12T09:38:45Z</time>
      </trkpt>
      <trkpt lat="38.195029" lon="-1.454871">
        <ele>933.1</ele>
        <time>2015-04-12T09:38:57Z</time>
      </trkpt>
      <trkpt lat="38.195034" lon="-1.454929">
        <ele>931.7</ele>
        <time>2015-04-12T09:39:03Z</time>
      </trkpt>
      <trkpt lat="38.195035" lon="-1.455011">
        <ele>930.7</ele>
        <time>2015-04-12T09:39:11Z</time>
      </trkpt>
      <trkpt lat="38.195014" lon="-1.455063">
        <ele>929.7</ele>
        <time>2015-04-12T09:39:16Z</time>
      </trkpt>
      <trkpt lat="38.194958" lon="-1.455174">
        <ele>929.7</ele>
        <time>2015-04-12T09:39:30Z</time>
      </trkpt>
      <trkpt lat="38.194980" lon="-1.455189">
        <ele>929.2</ele>
        <time>2015-04-12T09:39:33Z</time>
      </trkpt>
      <trkpt lat="38.195020" lon="-1.455348">
        <ele>926.8</ele>
        <time>2015-04-12T09:39:49Z</time>
      </trkpt>
      <trkpt lat="38.195039" lon="-1.455427">
        <ele>927.3</ele>
        <time>2015-04-12T09:40:00Z</time>
      </trkpt>
      <trkpt lat="38.195069" lon="-1.455509">
        <ele>927.3</ele>
        <time>2015-04-12T09:40:14Z</time>
      </trkpt>
      <trkpt lat="38.195095" lon="-1.455511">
        <ele>927.8</ele>
        <time>2015-04-12T09:40:17Z</time>
      </trkpt>
      <trkpt lat="38.195102" lon="-1.455630">
        <ele>928.8</ele>
        <time>2015-04-12T09:40:29Z</time>
      </trkpt>
      <trkpt lat="38.195111" lon="-1.455703">
        <ele>929.2</ele>
        <time>2015-04-12T09:40:39Z</time>
      </trkpt>
      <trkpt lat="38.195121" lon="-1.455729">
        <ele>931.2</ele>
        <time>2015-04-12T09:40:51Z</time>
      </trkpt>
      <trkpt lat="38.195117" lon="-1.455740">
        <ele>930.7</ele>
        <time>2015-04-12T09:41:33Z</time>
      </trkpt>
      <trkpt lat="38.195141" lon="-1.455836">
        <ele>931.2</ele>
        <time>2015-04-12T09:41:42Z</time>
      </trkpt>
      <trkpt lat="38.195178" lon="-1.455874">
        <ele>934.5</ele>
        <time>2015-04-12T09:41:49Z</time>
      </trkpt>
      <trkpt lat="38.195196" lon="-1.455907">
        <ele>935.0</ele>
        <time>2015-04-12T09:41:52Z</time>
      </trkpt>
      <trkpt lat="38.195218" lon="-1.455938">
        <ele>936.0</ele>
        <time>2015-04-12T09:41:55Z</time>
      </trkpt>
      <trkpt lat="38.195229" lon="-1.455974">
        <ele>936.5</ele>
        <time>2015-04-12T09:41:58Z</time>
      </trkpt>
      <trkpt lat="38.195255" lon="-1.455993">
        <ele>936.5</ele>
        <time>2015-04-12T09:42:01Z</time>
      </trkpt>
      <trkpt lat="38.195262" lon="-1.456015">
        <ele>936.9</ele>
        <time>2015-04-12T09:42:03Z</time>
      </trkpt>
      <trkpt lat="38.195285" lon="-1.456041">
        <ele>936.9</ele>
        <time>2015-04-12T09:42:06Z</time>
      </trkpt>
      <trkpt lat="38.195285" lon="-1.456073">
        <ele>936.9</ele>
        <time>2015-04-12T09:42:08Z</time>
      </trkpt>
      <trkpt lat="38.195291" lon="-1.456189">
        <ele>937.9</ele>
        <time>2015-04-12T09:42:21Z</time>
      </trkpt>
      <trkpt lat="38.195276" lon="-1.456195">
        <ele>937.9</ele>
        <time>2015-04-12T09:42:34Z</time>
      </trkpt>
      <trkpt lat="38.195275" lon="-1.456262">
        <ele>936.9</ele>
        <time>2015-04-12T09:42:45Z</time>
      </trkpt>
      <trkpt lat="38.195266" lon="-1.456353">
        <ele>936.0</ele>
        <time>2015-04-12T09:42:55Z</time>
      </trkpt>
      <trkpt lat="38.195258" lon="-1.456436">
        <ele>936.5</ele>
        <time>2015-04-12T09:43:03Z</time>
      </trkpt>
      <trkpt lat="38.195225" lon="-1.456552">
        <ele>937.4</ele>
        <time>2015-04-12T09:43:16Z</time>
      </trkpt>
      <trkpt lat="38.195201" lon="-1.456654">
        <ele>937.9</ele>
        <time>2015-04-12T09:43:29Z</time>
      </trkpt>
      <trkpt lat="38.195210" lon="-1.456751">
        <ele>937.4</ele>
        <time>2015-04-12T09:43:39Z</time>
      </trkpt>
      <trkpt lat="38.195270" lon="-1.456826">
        <ele>936.9</ele>
        <time>2015-04-12T09:43:52Z</time>
      </trkpt>
      <trkpt lat="38.195344" lon="-1.456933">
        <ele>936.5</ele>
        <time>2015-04-12T09:44:06Z</time>
      </trkpt>
      <trkpt lat="38.195386" lon="-1.456989">
        <ele>937.4</ele>
        <time>2015-04-12T09:44:17Z</time>
      </trkpt>
      <trkpt lat="38.195406" lon="-1.456990">
        <ele>937.4</ele>
        <time>2015-04-12T09:44:28Z</time>
      </trkpt>
      <trkpt lat="38.195408" lon="-1.456992">
        <ele>937.9</ele>
        <time>2015-04-12T09:45:32Z</time>
      </trkpt>
      <trkpt lat="38.195439" lon="-1.457095">
        <ele>936.0</ele>
        <time>2015-04-12T09:47:32Z</time>
      </trkpt>
      <trkpt lat="38.195502" lon="-1.457141">
        <ele>934.1</ele>
        <time>2015-04-12T09:47:37Z</time>
      </trkpt>
      <trkpt lat="38.195555" lon="-1.457152">
        <ele>933.1</ele>
        <time>2015-04-12T09:47:41Z</time>
      </trkpt>
      <trkpt lat="38.195589" lon="-1.457121">
        <ele>932.6</ele>
        <time>2015-04-12T09:47:44Z</time>
      </trkpt>
      <trkpt lat="38.195792" lon="-1.456938">
        <ele>932.1</ele>
        <time>2015-04-12T09:47:59Z</time>
      </trkpt>
      <trkpt lat="38.195963" lon="-1.456886">
        <ele>930.7</ele>
        <time>2015-04-12T09:48:12Z</time>
      </trkpt>
      <trkpt lat="38.196092" lon="-1.456812">
        <ele>930.7</ele>
        <time>2015-04-12T09:48:23Z</time>
      </trkpt>
      <trkpt lat="38.196249" lon="-1.456721">
        <ele>929.2</ele>
        <time>2015-04-12T09:48:37Z</time>
      </trkpt>
      <trkpt lat="38.196381" lon="-1.456644">
        <ele>928.3</ele>
        <time>2015-04-12T09:48:51Z</time>
      </trkpt>
      <trkpt lat="38.196520" lon="-1.456536">
        <ele>927.8</ele>
        <time>2015-04-12T09:49:05Z</time>
      </trkpt>
      <trkpt lat="38.196551" lon="-1.456520">
        <ele>926.8</ele>
        <time>2015-04-12T09:49:08Z</time>
      </trkpt>
      <trkpt lat="38.196672" lon="-1.456452">
        <ele>925.4</ele>
        <time>2015-04-12T09:49:20Z</time>
      </trkpt>
      <trkpt lat="38.196685" lon="-1.456433">
        <ele>925.4</ele>
        <time>2015-04-12T09:49:22Z</time>
      </trkpt>
      <trkpt lat="38.196782" lon="-1.456382">
        <ele>924.0</ele>
        <time>2015-04-12T09:49:32Z</time>
      </trkpt>
      <trkpt lat="38.196891" lon="-1.456323">
        <ele>922.5</ele>
        <time>2015-04-12T09:49:43Z</time>
      </trkpt>
      <trkpt lat="38.196951" lon="-1.456254">
        <ele>922.0</ele>
        <time>2015-04-12T09:49:49Z</time>
      </trkpt>
      <trkpt lat="38.197000" lon="-1.456221">
        <ele>922.0</ele>
        <time>2015-04-12T09:49:54Z</time>
      </trkpt>
      <trkpt lat="38.197070" lon="-1.456160">
        <ele>921.6</ele>
        <time>2015-04-12T09:50:01Z</time>
      </trkpt>
      <trkpt lat="38.197139" lon="-1.456104">
        <ele>921.1</ele>
        <time>2015-04-12T09:50:09Z</time>
      </trkpt>
      <trkpt lat="38.197269" lon="-1.455969">
        <ele>921.1</ele>
        <time>2015-04-12T09:50:23Z</time>
      </trkpt>
      <trkpt lat="38.197406" lon="-1.455840">
        <ele>919.6</ele>
        <time>2015-04-12T09:50:38Z</time>
      </trkpt>
      <trkpt lat="38.197464" lon="-1.455781">
        <ele>919.6</ele>
        <time>2015-04-12T09:50:44Z</time>
      </trkpt>
      <trkpt lat="38.197598" lon="-1.455622">
        <ele>918.7</ele>
        <time>2015-04-12T09:51:00Z</time>
      </trkpt>
      <trkpt lat="38.197621" lon="-1.455592">
        <ele>919.2</ele>
        <time>2015-04-12T09:51:03Z</time>
      </trkpt>
      <trkpt lat="38.197749" lon="-1.455439">
        <ele>918.7</ele>
        <time>2015-04-12T09:51:18Z</time>
      </trkpt>
      <trkpt lat="38.197857" lon="-1.455374">
        <ele>917.7</ele>
        <time>2015-04-12T09:51:30Z</time>
      </trkpt>
      <trkpt lat="38.197934" lon="-1.455334">
        <ele>917.2</ele>
        <time>2015-04-12T09:51:38Z</time>
      </trkpt>
      <trkpt lat="38.197972" lon="-1.455313">
        <ele>917.2</ele>
        <time>2015-04-12T09:51:42Z</time>
      </trkpt>
      <trkpt lat="38.198018" lon="-1.455267">
        <ele>917.2</ele>
        <time>2015-04-12T09:51:47Z</time>
      </trkpt>
      <trkpt lat="38.198132" lon="-1.455162">
        <ele>917.7</ele>
        <time>2015-04-12T09:51:59Z</time>
      </trkpt>
      <trkpt lat="38.198169" lon="-1.455110">
        <ele>917.7</ele>
        <time>2015-04-12T09:52:04Z</time>
      </trkpt>
      <trkpt lat="38.198182" lon="-1.455087">
        <ele>917.7</ele>
        <time>2015-04-12T09:52:06Z</time>
      </trkpt>
      <trkpt lat="38.198298" lon="-1.454949">
        <ele>919.6</ele>
        <time>2015-04-12T09:52:20Z</time>
      </trkpt>
      <trkpt lat="38.198372" lon="-1.454879">
        <ele>920.6</ele>
        <time>2015-04-12T09:52:29Z</time>
      </trkpt>
      <trkpt lat="38.198389" lon="-1.454864">
        <ele>921.6</ele>
        <time>2015-04-12T09:52:31Z</time>
      </trkpt>
      <trkpt lat="38.198408" lon="-1.454850">
        <ele>921.6</ele>
        <time>2015-04-12T09:52:33Z</time>
      </trkpt>
      <trkpt lat="38.198429" lon="-1.454817">
        <ele>922.5</ele>
        <time>2015-04-12T09:52:37Z</time>
      </trkpt>
      <trkpt lat="38.198498" lon="-1.454729">
        <ele>923.5</ele>
        <time>2015-04-12T09:52:49Z</time>
      </trkpt>
      <trkpt lat="38.198526" lon="-1.454666">
        <ele>924.5</ele>
        <time>2015-04-12T09:52:59Z</time>
      </trkpt>
      <trkpt lat="38.198529" lon="-1.454558">
        <ele>925.9</ele>
        <time>2015-04-12T09:53:11Z</time>
      </trkpt>
      <trkpt lat="38.198562" lon="-1.454485">
        <ele>927.3</ele>
        <time>2015-04-12T09:53:21Z</time>
      </trkpt>
      <trkpt lat="38.198563" lon="-1.454466">
        <ele>927.3</ele>
        <time>2015-04-12T09:53:23Z</time>
      </trkpt>
      <trkpt lat="38.198555" lon="-1.454398">
        <ele>927.8</ele>
        <time>2015-04-12T09:53:29Z</time>
      </trkpt>
      <trkpt lat="38.198582" lon="-1.454275">
        <ele>928.3</ele>
        <time>2015-04-12T09:53:42Z</time>
      </trkpt>
      <trkpt lat="38.198593" lon="-1.454257">
        <ele>928.8</ele>
        <time>2015-04-12T09:53:45Z</time>
      </trkpt>
      <trkpt lat="38.198618" lon="-1.454190">
        <ele>928.8</ele>
        <time>2015-04-12T09:53:58Z</time>
      </trkpt>
      <trkpt lat="38.198633" lon="-1.454110">
        <ele>929.2</ele>
        <time>2015-04-12T09:54:22Z</time>
      </trkpt>
      <trkpt lat="38.198619" lon="-1.454139">
        <ele>929.7</ele>
        <time>2015-04-12T09:54:26Z</time>
      </trkpt>
      <trkpt lat="38.198614" lon="-1.454190">
        <ele>929.7</ele>
        <time>2015-04-12T09:59:01Z</time>
      </trkpt>
      <trkpt lat="38.198607" lon="-1.454201">
        <ele>930.2</ele>
        <time>2015-04-12T09:59:22Z</time>
      </trkpt>
      <trkpt lat="38.198582" lon="-1.454253">
        <ele>929.7</ele>
        <time>2015-04-12T09:59:26Z</time>
      </trkpt>
      <trkpt lat="38.198528" lon="-1.454449">
        <ele>929.2</ele>
        <time>2015-04-12T09:59:41Z</time>
      </trkpt>
      <trkpt lat="38.198535" lon="-1.454489">
        <ele>929.2</ele>
        <time>2015-04-12T09:59:45Z</time>
      </trkpt>
      <trkpt lat="38.198530" lon="-1.454512">
        <ele>928.8</ele>
        <time>2015-04-12T09:59:48Z</time>
      </trkpt>
      <trkpt lat="38.198519" lon="-1.454536">
        <ele>928.3</ele>
        <time>2015-04-12T09:59:51Z</time>
      </trkpt>
      <trkpt lat="38.198500" lon="-1.454619">
        <ele>926.4</ele>
        <time>2015-04-12T09:59:59Z</time>
      </trkpt>
      <trkpt lat="38.198511" lon="-1.454681">
        <ele>925.9</ele>
        <time>2015-04-12T10:00:04Z</time>
      </trkpt>
      <trkpt lat="38.198471" lon="-1.454735">
        <ele>924.5</ele>
        <time>2015-04-12T10:00:11Z</time>
      </trkpt>
      <trkpt lat="38.198428" lon="-1.454797">
        <ele>923.5</ele>
        <time>2015-04-12T10:00:19Z</time>
      </trkpt>
      <trkpt lat="38.198381" lon="-1.454857">
        <ele>922.5</ele>
        <time>2015-04-12T10:00:25Z</time>
      </trkpt>
      <trkpt lat="38.198291" lon="-1.454975">
        <ele>920.1</ele>
        <time>2015-04-12T10:00:36Z</time>
      </trkpt>
      <trkpt lat="38.198169" lon="-1.455112">
        <ele>918.2</ele>
        <time>2015-04-12T10:00:50Z</time>
      </trkpt>
      <trkpt lat="38.198006" lon="-1.455263">
        <ele>917.2</ele>
        <time>2015-04-12T10:01:08Z</time>
      </trkpt>
      <trkpt lat="38.197909" lon="-1.455338">
        <ele>917.7</ele>
        <time>2015-04-12T10:01:18Z</time>
      </trkpt>
      <trkpt lat="38.197854" lon="-1.455368">
        <ele>917.7</ele>
        <time>2015-04-12T10:01:24Z</time>
      </trkpt>
      <trkpt lat="38.197834" lon="-1.455371">
        <ele>918.2</ele>
        <time>2015-04-12T10:01:26Z</time>
      </trkpt>
      <trkpt lat="38.197695" lon="-1.455475">
        <ele>918.7</ele>
        <time>2015-04-12T10:01:41Z</time>
      </trkpt>
      <trkpt lat="38.197647" lon="-1.455534">
        <ele>919.2</ele>
        <time>2015-04-12T10:01:47Z</time>
      </trkpt>
      <trkpt lat="38.197566" lon="-1.455648">
        <ele>918.7</ele>
        <time>2015-04-12T10:01:58Z</time>
      </trkpt>
      <trkpt lat="38.197548" lon="-1.455665">
        <ele>919.2</ele>
        <time>2015-04-12T10:02:00Z</time>
      </trkpt>
      <trkpt lat="38.197441" lon="-1.455791">
        <ele>919.6</ele>
        <time>2015-04-12T10:02:13Z</time>
      </trkpt>
      <trkpt lat="38.197357" lon="-1.455848">
        <ele>920.1</ele>
        <time>2015-04-12T10:02:22Z</time>
      </trkpt>
      <trkpt lat="38.197342" lon="-1.455866">
        <ele>920.6</ele>
        <time>2015-04-12T10:02:24Z</time>
      </trkpt>
      <trkpt lat="38.197313" lon="-1.455890">
        <ele>920.6</ele>
        <time>2015-04-12T10:02:27Z</time>
      </trkpt>
      <trkpt lat="38.197273" lon="-1.455942">
        <ele>921.1</ele>
        <time>2015-04-12T10:02:32Z</time>
      </trkpt>
      <trkpt lat="38.197178" lon="-1.456035">
        <ele>921.6</ele>
        <time>2015-04-12T10:02:45Z</time>
      </trkpt>
      <trkpt lat="38.197064" lon="-1.456134">
        <ele>922.0</ele>
        <time>2015-04-12T10:03:00Z</time>
      </trkpt>
      <trkpt lat="38.196941" lon="-1.456246">
        <ele>922.5</ele>
        <time>2015-04-12T10:03:15Z</time>
      </trkpt>
      <trkpt lat="38.196909" lon="-1.456270">
        <ele>922.5</ele>
        <time>2015-04-12T10:03:19Z</time>
      </trkpt>
      <trkpt lat="38.196892" lon="-1.456290">
        <ele>922.5</ele>
        <time>2015-04-12T10:03:21Z</time>
      </trkpt>
      <trkpt lat="38.196763" lon="-1.456371">
        <ele>924.0</ele>
        <time>2015-04-12T10:03:36Z</time>
      </trkpt>
      <trkpt lat="38.196652" lon="-1.456448">
        <ele>926.4</ele>
        <time>2015-04-12T10:03:50Z</time>
      </trkpt>
      <trkpt lat="38.196598" lon="-1.456482">
        <ele>926.8</ele>
        <time>2015-04-12T10:03:58Z</time>
      </trkpt>
      <trkpt lat="38.196579" lon="-1.456492">
        <ele>926.8</ele>
        <time>2015-04-12T10:04:00Z</time>
      </trkpt>
      <trkpt lat="38.196559" lon="-1.456500">
        <ele>927.3</ele>
        <time>2015-04-12T10:04:02Z</time>
      </trkpt>
      <trkpt lat="38.196482" lon="-1.456546">
        <ele>927.8</ele>
        <time>2015-04-12T10:04:10Z</time>
      </trkpt>
      <trkpt lat="38.196442" lon="-1.456590">
        <ele>927.8</ele>
        <time>2015-04-12T10:04:15Z</time>
      </trkpt>
      <trkpt lat="38.196350" lon="-1.456657">
        <ele>928.3</ele>
        <time>2015-04-12T10:04:25Z</time>
      </trkpt>
      <trkpt lat="38.196310" lon="-1.456674">
        <ele>928.8</ele>
        <time>2015-04-12T10:04:30Z</time>
      </trkpt>
      <trkpt lat="38.196220" lon="-1.456724">
        <ele>929.7</ele>
        <time>2015-04-12T10:04:40Z</time>
      </trkpt>
      <trkpt lat="38.196144" lon="-1.456768">
        <ele>930.7</ele>
        <time>2015-04-12T10:04:49Z</time>
      </trkpt>
      <trkpt lat="38.196030" lon="-1.456826">
        <ele>931.2</ele>
        <time>2015-04-12T10:05:01Z</time>
      </trkpt>
      <trkpt lat="38.195954" lon="-1.456883">
        <ele>931.2</ele>
        <time>2015-04-12T10:05:09Z</time>
      </trkpt>
      <trkpt lat="38.195926" lon="-1.456889">
        <ele>931.7</ele>
        <time>2015-04-12T10:05:12Z</time>
      </trkpt>
      <trkpt lat="38.195882" lon="-1.456902">
        <ele>931.7</ele>
        <time>2015-04-12T10:05:17Z</time>
      </trkpt>
      <trkpt lat="38.195855" lon="-1.456902">
        <ele>932.6</ele>
        <time>2015-04-12T10:05:20Z</time>
      </trkpt>
      <trkpt lat="38.195817" lon="-1.456914">
        <ele>932.6</ele>
        <time>2015-04-12T10:05:24Z</time>
      </trkpt>
      <trkpt lat="38.195702" lon="-1.457006">
        <ele>933.1</ele>
        <time>2015-04-12T10:05:37Z</time>
      </trkpt>
      <trkpt lat="38.195554" lon="-1.457158">
        <ele>933.6</ele>
        <time>2015-04-12T10:05:55Z</time>
      </trkpt>
      <trkpt lat="38.195518" lon="-1.457390">
        <ele>931.7</ele>
        <time>2015-04-12T10:06:11Z</time>
      </trkpt>
      <trkpt lat="38.195507" lon="-1.457497">
        <ele>931.7</ele>
        <time>2015-04-12T10:06:18Z</time>
      </trkpt>
      <trkpt lat="38.195529" lon="-1.457667">
        <ele>931.2</ele>
        <time>2015-04-12T10:06:29Z</time>
      </trkpt>
      <trkpt lat="38.195532" lon="-1.457694">
        <ele>931.2</ele>
        <time>2015-04-12T10:06:31Z</time>
      </trkpt>
      <trkpt lat="38.195541" lon="-1.457751">
        <ele>931.7</ele>
        <time>2015-04-12T10:06:36Z</time>
      </trkpt>
      <trkpt lat="38.195578" lon="-1.457805">
        <ele>932.1</ele>
        <time>2015-04-12T10:06:49Z</time>
      </trkpt>
      <trkpt lat="38.195570" lon="-1.457828">
        <ele>932.6</ele>
        <time>2015-04-12T10:06:59Z</time>
      </trkpt>
      <trkpt lat="38.195571" lon="-1.457899">
        <ele>932.6</ele>
        <time>2015-04-12T10:07:10Z</time>
      </trkpt>
      <trkpt lat="38.195582" lon="-1.457930">
        <ele>933.1</ele>
        <time>2015-04-12T10:07:14Z</time>
      </trkpt>
      <trkpt lat="38.195588" lon="-1.458009">
        <ele>933.1</ele>
        <time>2015-04-12T10:07:21Z</time>
      </trkpt>
      <trkpt lat="38.195485" lon="-1.458097">
        <ele>933.6</ele>
        <time>2015-04-12T10:07:28Z</time>
      </trkpt>
      <trkpt lat="38.195426" lon="-1.458171">
        <ele>935.0</ele>
        <time>2015-04-12T10:07:37Z</time>
      </trkpt>
      <trkpt lat="38.195573" lon="-1.458022">
        <ele>933.1</ele>
        <time>2015-04-12T10:07:50Z</time>
      </trkpt>
      <trkpt lat="38.195605" lon="-1.458115">
        <ele>931.7</ele>
        <time>2015-04-12T10:07:55Z</time>
      </trkpt>
      <trkpt lat="38.195630" lon="-1.458344">
        <ele>929.7</ele>
        <time>2015-04-12T10:08:08Z</time>
      </trkpt>
      <trkpt lat="38.195690" lon="-1.458655">
        <ele>927.3</ele>
        <time>2015-04-12T10:08:25Z</time>
      </trkpt>
      <trkpt lat="38.195750" lon="-1.458934">
        <ele>926.4</ele>
        <time>2015-04-12T10:08:40Z</time>
      </trkpt>
      <trkpt lat="38.195798" lon="-1.459187">
        <ele>924.9</ele>
        <time>2015-04-12T10:08:56Z</time>
      </trkpt>
      <trkpt lat="38.195838" lon="-1.459435">
        <ele>924.5</ele>
        <time>2015-04-12T10:09:10Z</time>
      </trkpt>
      <trkpt lat="38.195863" lon="-1.459575">
        <ele>925.4</ele>
        <time>2015-04-12T10:09:19Z</time>
      </trkpt>
      <trkpt lat="38.195798" lon="-1.459673">
        <ele>925.9</ele>
        <time>2015-04-12T10:09:28Z</time>
      </trkpt>
      <trkpt lat="38.195760" lon="-1.459729">
        <ele>926.4</ele>
        <time>2015-04-12T10:09:35Z</time>
      </trkpt>
      <trkpt lat="38.195768" lon="-1.459914">
        <ele>926.8</ele>
        <time>2015-04-12T10:09:48Z</time>
      </trkpt>
      <trkpt lat="38.195812" lon="-1.460067">
        <ele>926.8</ele>
        <time>2015-04-12T10:10:03Z</time>
      </trkpt>
      <trkpt lat="38.195859" lon="-1.460114">
        <ele>928.3</ele>
        <time>2015-04-12T10:10:11Z</time>
      </trkpt>
      <trkpt lat="38.195897" lon="-1.460165">
        <ele>929.7</ele>
        <time>2015-04-12T10:10:19Z</time>
      </trkpt>
      <trkpt lat="38.195922" lon="-1.460274">
        <ele>930.7</ele>
        <time>2015-04-12T10:10:32Z</time>
      </trkpt>
      <trkpt lat="38.195916" lon="-1.460404">
        <ele>932.1</ele>
        <time>2015-04-12T10:10:46Z</time>
      </trkpt>
      <trkpt lat="38.195909" lon="-1.460510">
        <ele>933.6</ele>
        <time>2015-04-12T10:10:59Z</time>
      </trkpt>
      <trkpt lat="38.195907" lon="-1.460610">
        <ele>934.1</ele>
        <time>2015-04-12T10:11:10Z</time>
      </trkpt>
      <trkpt lat="38.195882" lon="-1.460647">
        <ele>935.0</ele>
        <time>2015-04-12T10:11:23Z</time>
      </trkpt>
      <trkpt lat="38.195874" lon="-1.460670">
        <ele>934.5</ele>
        <time>2015-04-12T10:11:33Z</time>
      </trkpt>
      <trkpt lat="38.195875" lon="-1.460724">
        <ele>935.0</ele>
        <time>2015-04-12T10:12:17Z</time>
      </trkpt>
      <trkpt lat="38.195879" lon="-1.460734">
        <ele>935.0</ele>
        <time>2015-04-12T10:13:45Z</time>
      </trkpt>
      <trkpt lat="38.195931" lon="-1.460863">
        <ele>932.1</ele>
        <time>2015-04-12T10:13:58Z</time>
      </trkpt>
      <trkpt lat="38.195936" lon="-1.460980">
        <ele>930.7</ele>
        <time>2015-04-12T10:14:11Z</time>
      </trkpt>
      <trkpt lat="38.195951" lon="-1.461055">
        <ele>928.3</ele>
        <time>2015-04-12T10:14:23Z</time>
      </trkpt>
      <trkpt lat="38.195915" lon="-1.461148">
        <ele>926.4</ele>
        <time>2015-04-12T10:14:36Z</time>
      </trkpt>
      <trkpt lat="38.195891" lon="-1.461231">
        <ele>924.5</ele>
        <time>2015-04-12T10:14:47Z</time>
      </trkpt>
      <trkpt lat="38.195884" lon="-1.461254">
        <ele>924.5</ele>
        <time>2015-04-12T10:14:49Z</time>
      </trkpt>
      <trkpt lat="38.195887" lon="-1.461276">
        <ele>923.5</ele>
        <time>2015-04-12T10:14:51Z</time>
      </trkpt>
      <trkpt lat="38.195843" lon="-1.461367">
        <ele>921.1</ele>
        <time>2015-04-12T10:15:01Z</time>
      </trkpt>
      <trkpt lat="38.195821" lon="-1.461472">
        <ele>918.7</ele>
        <time>2015-04-12T10:15:14Z</time>
      </trkpt>
      <trkpt lat="38.195807" lon="-1.461488">
        <ele>918.2</ele>
        <time>2015-04-12T10:15:16Z</time>
      </trkpt>
      <trkpt lat="38.195712" lon="-1.461554">
        <ele>915.8</ele>
        <time>2015-04-12T10:15:25Z</time>
      </trkpt>
      <trkpt lat="38.195631" lon="-1.461678">
        <ele>914.3</ele>
        <time>2015-04-12T10:15:39Z</time>
      </trkpt>
      <trkpt lat="38.195611" lon="-1.461723">
        <ele>913.9</ele>
        <time>2015-04-12T10:15:44Z</time>
      </trkpt>
      <trkpt lat="38.195607" lon="-1.461889">
        <ele>912.0</ele>
        <time>2015-04-12T10:15:55Z</time>
      </trkpt>
      <trkpt lat="38.195623" lon="-1.461979">
        <ele>911.5</ele>
        <time>2015-04-12T10:16:01Z</time>
      </trkpt>
      <trkpt lat="38.195575" lon="-1.462002">
        <ele>909.5</ele>
        <time>2015-04-12T10:16:10Z</time>
      </trkpt>
      <trkpt lat="38.195482" lon="-1.461951">
        <ele>907.1</ele>
        <time>2015-04-12T10:16:19Z</time>
      </trkpt>
      <trkpt lat="38.195427" lon="-1.462120">
        <ele>903.8</ele>
        <time>2015-04-12T10:16:33Z</time>
      </trkpt>
      <trkpt lat="38.195420" lon="-1.462139">
        <ele>903.8</ele>
        <time>2015-04-12T10:16:35Z</time>
      </trkpt>
      <trkpt lat="38.195364" lon="-1.462380">
        <ele>900.4</ele>
        <time>2015-04-12T10:16:51Z</time>
      </trkpt>
      <trkpt lat="38.195314" lon="-1.462648">
        <ele>898.5</ele>
        <time>2015-04-12T10:17:09Z</time>
      </trkpt>
      <trkpt lat="38.195266" lon="-1.462801">
        <ele>898.0</ele>
        <time>2015-04-12T10:17:20Z</time>
      </trkpt>
      <trkpt lat="38.195271" lon="-1.463013">
        <ele>894.2</ele>
        <time>2015-04-12T10:17:36Z</time>
      </trkpt>
      <trkpt lat="38.195270" lon="-1.463150">
        <ele>891.8</ele>
        <time>2015-04-12T10:17:49Z</time>
      </trkpt>
      <trkpt lat="38.195284" lon="-1.463239">
        <ele>888.4</ele>
        <time>2015-04-12T10:17:59Z</time>
      </trkpt>
      <trkpt lat="38.195271" lon="-1.463366">
        <ele>885.0</ele>
        <time>2015-04-12T10:18:12Z</time>
      </trkpt>
      <trkpt lat="38.195246" lon="-1.463505">
        <ele>881.7</ele>
        <time>2015-04-12T10:18:25Z</time>
      </trkpt>
      <trkpt lat="38.195206" lon="-1.463637">
        <ele>878.3</ele>
        <time>2015-04-12T10:18:36Z</time>
      </trkpt>
      <trkpt lat="38.195196" lon="-1.463787">
        <ele>875.9</ele>
        <time>2015-04-12T10:18:46Z</time>
      </trkpt>
      <trkpt lat="38.195182" lon="-1.463957">
        <ele>872.5</ele>
        <time>2015-04-12T10:18:59Z</time>
      </trkpt>
      <trkpt lat="38.195173" lon="-1.464103">
        <ele>871.1</ele>
        <time>2015-04-12T10:19:09Z</time>
      </trkpt>
      <trkpt lat="38.195278" lon="-1.464198">
        <ele>867.2</ele>
        <time>2015-04-12T10:19:23Z</time>
      </trkpt>
      <trkpt lat="38.195322" lon="-1.464192">
        <ele>866.3</ele>
        <time>2015-04-12T10:19:28Z</time>
      </trkpt>
      <trkpt lat="38.195400" lon="-1.464256">
        <ele>863.4</ele>
        <time>2015-04-12T10:19:42Z</time>
      </trkpt>
      <trkpt lat="38.195361" lon="-1.464422">
        <ele>860.0</ele>
        <time>2015-04-12T10:19:58Z</time>
      </trkpt>
      <trkpt lat="38.195342" lon="-1.464451">
        <ele>860.5</ele>
        <time>2015-04-12T10:20:01Z</time>
      </trkpt>
      <trkpt lat="38.195303" lon="-1.464604">
        <ele>857.6</ele>
        <time>2015-04-12T10:20:13Z</time>
      </trkpt>
      <trkpt lat="38.195257" lon="-1.464692">
        <ele>856.2</ele>
        <time>2015-04-12T10:20:20Z</time>
      </trkpt>
      <trkpt lat="38.195189" lon="-1.464849">
        <ele>852.8</ele>
        <time>2015-04-12T10:20:34Z</time>
      </trkpt>
      <trkpt lat="38.195118" lon="-1.464975">
        <ele>849.5</ele>
        <time>2015-04-12T10:20:47Z</time>
      </trkpt>
      <trkpt lat="38.195017" lon="-1.465128">
        <ele>847.5</ele>
        <time>2015-04-12T10:21:00Z</time>
      </trkpt>
      <trkpt lat="38.194968" lon="-1.465325">
        <ele>844.2</ele>
        <time>2015-04-12T10:21:14Z</time>
      </trkpt>
      <trkpt lat="38.194933" lon="-1.465498">
        <ele>841.3</ele>
        <time>2015-04-12T10:21:26Z</time>
      </trkpt>
      <trkpt lat="38.194877" lon="-1.465758">
        <ele>839.4</ele>
        <time>2015-04-12T10:21:43Z</time>
      </trkpt>
      <trkpt lat="38.194775" lon="-1.465972">
        <ele>839.4</ele>
        <time>2015-04-12T10:22:00Z</time>
      </trkpt>
      <trkpt lat="38.194757" lon="-1.465990">
        <ele>839.4</ele>
        <time>2015-04-12T10:22:02Z</time>
      </trkpt>
      <trkpt lat="38.194662" lon="-1.466219">
        <ele>837.0</ele>
        <time>2015-04-12T10:22:18Z</time>
      </trkpt>
      <trkpt lat="38.194570" lon="-1.466480">
        <ele>834.1</ele>
        <time>2015-04-12T10:22:35Z</time>
      </trkpt>
      <trkpt lat="38.194494" lon="-1.466672">
        <ele>833.1</ele>
        <time>2015-04-12T10:22:50Z</time>
      </trkpt>
      <trkpt lat="38.194484" lon="-1.466688">
        <ele>832.6</ele>
        <time>2015-04-12T10:23:03Z</time>
      </trkpt>
      <trkpt lat="38.194478" lon="-1.466689">
        <ele>833.1</ele>
        <time>2015-04-12T10:23:48Z</time>
      </trkpt>
      <trkpt lat="38.194466" lon="-1.466697">
        <ele>833.6</ele>
        <time>2015-04-12T10:24:03Z</time>
      </trkpt>
      <trkpt lat="38.194477" lon="-1.466751">
        <ele>833.6</ele>
        <time>2015-04-12T10:27:39Z</time>
      </trkpt>
      <trkpt lat="38.194472" lon="-1.466753">
        <ele>837.0</ele>
        <time>2015-04-12T10:27:40Z</time>
      </trkpt>
      <trkpt lat="38.194437" lon="-1.466785">
        <ele>835.0</ele>
        <time>2015-04-12T10:27:50Z</time>
      </trkpt>
      <trkpt lat="38.194437" lon="-1.466793">
        <ele>835.0</ele>
        <time>2015-04-12T10:27:54Z</time>
      </trkpt>
      <trkpt lat="38.194474" lon="-1.466891">
        <ele>837.0</ele>
        <time>2015-04-12T10:28:06Z</time>
      </trkpt>
      <trkpt lat="38.194499" lon="-1.466916">
        <ele>837.0</ele>
        <time>2015-04-12T10:28:12Z</time>
      </trkpt>
      <trkpt lat="38.194485" lon="-1.467018">
        <ele>838.4</ele>
        <time>2015-04-12T10:28:23Z</time>
      </trkpt>
      <trkpt lat="38.194457" lon="-1.467149">
        <ele>840.8</ele>
        <time>2015-04-12T10:28:37Z</time>
      </trkpt>
      <trkpt lat="38.194441" lon="-1.467231">
        <ele>843.7</ele>
        <time>2015-04-12T10:28:49Z</time>
      </trkpt>
      <trkpt lat="38.194398" lon="-1.467324">
        <ele>845.6</ele>
        <time>2015-04-12T10:29:00Z</time>
      </trkpt>
      <trkpt lat="38.194354" lon="-1.467385">
        <ele>847.5</ele>
        <time>2015-04-12T10:29:12Z</time>
      </trkpt>
      <trkpt lat="38.194330" lon="-1.467458">
        <ele>849.9</ele>
        <time>2015-04-12T10:29:23Z</time>
      </trkpt>
      <trkpt lat="38.194282" lon="-1.467521">
        <ele>851.4</ele>
        <time>2015-04-12T10:29:37Z</time>
      </trkpt>
      <trkpt lat="38.194267" lon="-1.467529">
        <ele>852.3</ele>
        <time>2015-04-12T10:29:40Z</time>
      </trkpt>
      <trkpt lat="38.194234" lon="-1.467566">
        <ele>853.8</ele>
        <time>2015-04-12T10:29:53Z</time>
      </trkpt>
      <trkpt lat="38.194219" lon="-1.467644">
        <ele>855.7</ele>
        <time>2015-04-12T10:30:07Z</time>
      </trkpt>
      <trkpt lat="38.194203" lon="-1.467712">
        <ele>857.6</ele>
        <time>2015-04-12T10:30:19Z</time>
      </trkpt>
      <trkpt lat="38.194153" lon="-1.467783">
        <ele>860.0</ele>
        <time>2015-04-12T10:30:31Z</time>
      </trkpt>
      <trkpt lat="38.194115" lon="-1.467846">
        <ele>862.9</ele>
        <time>2015-04-12T10:30:44Z</time>
      </trkpt>
      <trkpt lat="38.194113" lon="-1.467898">
        <ele>863.4</ele>
        <time>2015-04-12T10:30:55Z</time>
      </trkpt>
      <trkpt lat="38.194067" lon="-1.467965">
        <ele>864.8</ele>
        <time>2015-04-12T10:31:07Z</time>
      </trkpt>
      <trkpt lat="38.194078" lon="-1.468030">
        <ele>866.8</ele>
        <time>2015-04-12T10:31:17Z</time>
      </trkpt>
      <trkpt lat="38.194049" lon="-1.468106">
        <ele>868.2</ele>
        <time>2015-04-12T10:31:28Z</time>
      </trkpt>
      <trkpt lat="38.194012" lon="-1.468189">
        <ele>870.1</ele>
        <time>2015-04-12T10:31:39Z</time>
      </trkpt>
      <trkpt lat="38.193991" lon="-1.468272">
        <ele>872.5</ele>
        <time>2015-04-12T10:31:51Z</time>
      </trkpt>
      <trkpt lat="38.193963" lon="-1.468361">
        <ele>874.0</ele>
        <time>2015-04-12T10:32:02Z</time>
      </trkpt>
      <trkpt lat="38.193992" lon="-1.468474">
        <ele>876.4</ele>
        <time>2015-04-12T10:32:14Z</time>
      </trkpt>
      <trkpt lat="38.194005" lon="-1.468568">
        <ele>877.3</ele>
        <time>2015-04-12T10:32:28Z</time>
      </trkpt>
      <trkpt lat="38.193975" lon="-1.468666">
        <ele>879.7</ele>
        <time>2015-04-12T10:32:41Z</time>
      </trkpt>
      <trkpt lat="38.193944" lon="-1.468753">
        <ele>880.7</ele>
        <time>2015-04-12T10:32:53Z</time>
      </trkpt>
      <trkpt lat="38.193941" lon="-1.468832">
        <ele>883.6</ele>
        <time>2015-04-12T10:33:07Z</time>
      </trkpt>
      <trkpt lat="38.193967" lon="-1.468907">
        <ele>885.5</ele>
        <time>2015-04-12T10:33:20Z</time>
      </trkpt>
      <trkpt lat="38.193980" lon="-1.468933">
        <ele>886.0</ele>
        <time>2015-04-12T10:33:24Z</time>
      </trkpt>
      <trkpt lat="38.193994" lon="-1.468993">
        <ele>888.4</ele>
        <time>2015-04-12T10:33:34Z</time>
      </trkpt>
      <trkpt lat="38.193968" lon="-1.469055">
        <ele>889.4</ele>
        <time>2015-04-12T10:33:44Z</time>
      </trkpt>
      <trkpt lat="38.193962" lon="-1.469117">
        <ele>890.8</ele>
        <time>2015-04-12T10:33:56Z</time>
      </trkpt>
      <trkpt lat="38.193955" lon="-1.469156">
        <ele>892.2</ele>
        <time>2015-04-12T10:34:09Z</time>
      </trkpt>
      <trkpt lat="38.193934" lon="-1.469209">
        <ele>893.2</ele>
        <time>2015-04-12T10:34:18Z</time>
      </trkpt>
      <trkpt lat="38.193943" lon="-1.469282">
        <ele>894.6</ele>
        <time>2015-04-12T10:34:30Z</time>
      </trkpt>
      <trkpt lat="38.193940" lon="-1.469336">
        <ele>896.1</ele>
        <time>2015-04-12T10:34:40Z</time>
      </trkpt>
      <trkpt lat="38.193918" lon="-1.469458">
        <ele>898.0</ele>
        <time>2015-04-12T10:34:54Z</time>
      </trkpt>
      <trkpt lat="38.193950" lon="-1.469526">
        <ele>900.4</ele>
        <time>2015-04-12T10:35:06Z</time>
      </trkpt>
      <trkpt lat="38.193985" lon="-1.469586">
        <ele>901.4</ele>
        <time>2015-04-12T10:35:20Z</time>
      </trkpt>
      <trkpt lat="38.194007" lon="-1.469604">
        <ele>902.3</ele>
        <time>2015-04-12T10:35:30Z</time>
      </trkpt>
      <trkpt lat="38.194041" lon="-1.469656">
        <ele>903.8</ele>
        <time>2015-04-12T10:35:42Z</time>
      </trkpt>
      <trkpt lat="38.194074" lon="-1.469704">
        <ele>905.7</ele>
        <time>2015-04-12T10:35:53Z</time>
      </trkpt>
      <trkpt lat="38.194126" lon="-1.469773">
        <ele>907.1</ele>
        <time>2015-04-12T10:36:07Z</time>
      </trkpt>
      <trkpt lat="38.194163" lon="-1.469812">
        <ele>909.1</ele>
        <time>2015-04-12T10:36:17Z</time>
      </trkpt>
      <trkpt lat="38.194215" lon="-1.469878">
        <ele>910.5</ele>
        <time>2015-04-12T10:36:28Z</time>
      </trkpt>
      <trkpt lat="38.194286" lon="-1.469891">
        <ele>912.4</ele>
        <time>2015-04-12T10:36:38Z</time>
      </trkpt>
      <trkpt lat="38.194346" lon="-1.469933">
        <ele>913.4</ele>
        <time>2015-04-12T10:36:50Z</time>
      </trkpt>
      <trkpt lat="38.194400" lon="-1.469960">
        <ele>914.8</ele>
        <time>2015-04-12T10:37:03Z</time>
      </trkpt>
      <trkpt lat="38.194422" lon="-1.469985">
        <ele>916.8</ele>
        <time>2015-04-12T10:37:20Z</time>
      </trkpt>
      <trkpt lat="38.194479" lon="-1.470031">
        <ele>918.7</ele>
        <time>2015-04-12T10:37:32Z</time>
      </trkpt>
      <trkpt lat="38.194520" lon="-1.470054">
        <ele>920.6</ele>
        <time>2015-04-12T10:37:43Z</time>
      </trkpt>
      <trkpt lat="38.194526" lon="-1.470100">
        <ele>922.5</ele>
        <time>2015-04-12T10:37:55Z</time>
      </trkpt>
      <trkpt lat="38.194544" lon="-1.470140">
        <ele>924.0</ele>
        <time>2015-04-12T10:38:05Z</time>
      </trkpt>
      <trkpt lat="38.194582" lon="-1.470150">
        <ele>924.9</ele>
        <time>2015-04-12T10:38:14Z</time>
      </trkpt>
      <trkpt lat="38.194609" lon="-1.470174">
        <ele>926.8</ele>
        <time>2015-04-12T10:38:26Z</time>
      </trkpt>
      <trkpt lat="38.194616" lon="-1.470202">
        <ele>928.3</ele>
        <time>2015-04-12T10:38:39Z</time>
      </trkpt>
      <trkpt lat="38.194647" lon="-1.470205">
        <ele>929.2</ele>
        <time>2015-04-12T10:38:51Z</time>
      </trkpt>
      <trkpt lat="38.194687" lon="-1.470221">
        <ele>930.7</ele>
        <time>2015-04-12T10:39:04Z</time>
      </trkpt>
      <trkpt lat="38.194716" lon="-1.470225">
        <ele>931.7</ele>
        <time>2015-04-12T10:39:20Z</time>
      </trkpt>
      <trkpt lat="38.194743" lon="-1.470250">
        <ele>932.6</ele>
        <time>2015-04-12T10:39:36Z</time>
      </trkpt>
      <trkpt lat="38.194725" lon="-1.470262">
        <ele>932.6</ele>
        <time>2015-04-12T10:39:38Z</time>
      </trkpt>
      <trkpt lat="38.194704" lon="-1.470302">
        <ele>934.5</ele>
        <time>2015-04-12T10:39:46Z</time>
      </trkpt>
      <trkpt lat="38.194734" lon="-1.470347">
        <ele>936.9</ele>
        <time>2015-04-12T10:39:57Z</time>
      </trkpt>
      <trkpt lat="38.194726" lon="-1.470389">
        <ele>938.4</ele>
        <time>2015-04-12T10:40:08Z</time>
      </trkpt>
      <trkpt lat="38.194772" lon="-1.470433">
        <ele>940.8</ele>
        <time>2015-04-12T10:40:19Z</time>
      </trkpt>
      <trkpt lat="38.194791" lon="-1.470490">
        <ele>943.2</ele>
        <time>2015-04-12T10:40:33Z</time>
      </trkpt>
      <trkpt lat="38.194804" lon="-1.470563">
        <ele>945.6</ele>
        <time>2015-04-12T10:40:46Z</time>
      </trkpt>
      <trkpt lat="38.194802" lon="-1.470645">
        <ele>947.5</ele>
        <time>2015-04-12T10:40:57Z</time>
      </trkpt>
      <trkpt lat="38.194750" lon="-1.470680">
        <ele>948.5</ele>
        <time>2015-04-12T10:41:37Z</time>
      </trkpt>
      <trkpt lat="38.194749" lon="-1.470710">
        <ele>949.0</ele>
        <time>2015-04-12T10:41:41Z</time>
      </trkpt>
      <trkpt lat="38.194746" lon="-1.470851">
        <ele>948.0</ele>
        <time>2015-04-12T10:41:50Z</time>
      </trkpt>
      <trkpt lat="38.194709" lon="-1.470886">
        <ele>948.5</ele>
        <time>2015-04-12T10:42:02Z</time>
      </trkpt>
      <trkpt lat="38.194688" lon="-1.470911">
        <ele>949.0</ele>
        <time>2015-04-12T10:42:22Z</time>
      </trkpt>
      <trkpt lat="38.194687" lon="-1.470942">
        <ele>948.0</ele>
        <time>2015-04-12T10:44:40Z</time>
      </trkpt>
      <trkpt lat="38.194681" lon="-1.470947">
        <ele>948.0</ele>
        <time>2015-04-12T10:44:53Z</time>
      </trkpt>
      <trkpt lat="38.194679" lon="-1.470985">
        <ele>947.5</ele>
        <time>2015-04-12T10:45:10Z</time>
      </trkpt>
      <trkpt lat="38.194677" lon="-1.470990">
        <ele>948.0</ele>
        <time>2015-04-12T10:45:28Z</time>
      </trkpt>
      <trkpt lat="38.194658" lon="-1.471058">
        <ele>947.0</ele>
        <time>2015-04-12T10:46:08Z</time>
      </trkpt>
      <trkpt lat="38.194647" lon="-1.471158">
        <ele>944.6</ele>
        <time>2015-04-12T10:46:21Z</time>
      </trkpt>
      <trkpt lat="38.194645" lon="-1.471217">
        <ele>944.2</ele>
        <time>2015-04-12T10:46:30Z</time>
      </trkpt>
      <trkpt lat="38.194673" lon="-1.471373">
        <ele>941.8</ele>
        <time>2015-04-12T10:46:44Z</time>
      </trkpt>
      <trkpt lat="38.194645" lon="-1.471411">
        <ele>940.8</ele>
        <time>2015-04-12T10:46:54Z</time>
      </trkpt>
      <trkpt lat="38.194633" lon="-1.471424">
        <ele>940.8</ele>
        <time>2015-04-12T10:46:56Z</time>
      </trkpt>
      <trkpt lat="38.194613" lon="-1.471460">
        <ele>939.8</ele>
        <time>2015-04-12T10:47:00Z</time>
      </trkpt>
      <trkpt lat="38.194525" lon="-1.471539">
        <ele>938.9</ele>
        <time>2015-04-12T10:47:15Z</time>
      </trkpt>
      <trkpt lat="38.194518" lon="-1.471651">
        <ele>937.9</ele>
        <time>2015-04-12T10:47:28Z</time>
      </trkpt>
      <trkpt lat="38.194469" lon="-1.471676">
        <ele>938.9</ele>
        <time>2015-04-12T10:47:38Z</time>
      </trkpt>
      <trkpt lat="38.194415" lon="-1.471762">
        <ele>938.4</ele>
        <time>2015-04-12T10:47:50Z</time>
      </trkpt>
      <trkpt lat="38.194410" lon="-1.471813">
        <ele>937.4</ele>
        <time>2015-04-12T10:48:02Z</time>
      </trkpt>
      <trkpt lat="38.194346" lon="-1.471879">
        <ele>936.5</ele>
        <time>2015-04-12T10:48:14Z</time>
      </trkpt>
      <trkpt lat="38.194304" lon="-1.471964">
        <ele>934.5</ele>
        <time>2015-04-12T10:48:29Z</time>
      </trkpt>
      <trkpt lat="38.194306" lon="-1.471977">
        <ele>934.1</ele>
        <time>2015-04-12T10:48:35Z</time>
      </trkpt>
      <trkpt lat="38.194264" lon="-1.471997">
        <ele>934.1</ele>
        <time>2015-04-12T10:48:39Z</time>
      </trkpt>
      <trkpt lat="38.194220" lon="-1.472043">
        <ele>933.6</ele>
        <time>2015-04-12T10:48:46Z</time>
      </trkpt>
      <trkpt lat="38.194151" lon="-1.472133">
        <ele>931.7</ele>
        <time>2015-04-12T10:49:12Z</time>
      </trkpt>
      <trkpt lat="38.194164" lon="-1.472179">
        <ele>930.2</ele>
        <time>2015-04-12T10:49:23Z</time>
      </trkpt>
      <trkpt lat="38.194134" lon="-1.472206">
        <ele>929.7</ele>
        <time>2015-04-12T10:49:38Z</time>
      </trkpt>
      <trkpt lat="38.194133" lon="-1.472274">
        <ele>927.8</ele>
        <time>2015-04-12T10:49:51Z</time>
      </trkpt>
      <trkpt lat="38.194202" lon="-1.472296">
        <ele>926.4</ele>
        <time>2015-04-12T10:50:03Z</time>
      </trkpt>
      <trkpt lat="38.194252" lon="-1.472356">
        <ele>924.5</ele>
        <time>2015-04-12T10:50:17Z</time>
      </trkpt>
      <trkpt lat="38.194265" lon="-1.472406">
        <ele>923.5</ele>
        <time>2015-04-12T10:50:27Z</time>
      </trkpt>
      <trkpt lat="38.194243" lon="-1.472533">
        <ele>920.6</ele>
        <time>2015-04-12T10:50:40Z</time>
      </trkpt>
      <trkpt lat="38.194227" lon="-1.472642">
        <ele>918.7</ele>
        <time>2015-04-12T10:50:53Z</time>
      </trkpt>
      <trkpt lat="38.194226" lon="-1.472709">
        <ele>916.3</ele>
        <time>2015-04-12T10:51:03Z</time>
      </trkpt>
      <trkpt lat="38.194222" lon="-1.472770">
        <ele>914.8</ele>
        <time>2015-04-12T10:51:14Z</time>
      </trkpt>
      <trkpt lat="38.194222" lon="-1.472771">
        <ele>914.3</ele>
        <time>2015-04-12T10:51:15Z</time>
      </trkpt>
      <trkpt lat="38.194212" lon="-1.472845">
        <ele>913.4</ele>
        <time>2015-04-12T10:51:23Z</time>
      </trkpt>
      <trkpt lat="38.194120" lon="-1.472951">
        <ele>912.9</ele>
        <time>2015-04-12T10:51:35Z</time>
      </trkpt>
      <trkpt lat="38.194088" lon="-1.472957">
        <ele>912.9</ele>
        <time>2015-04-12T10:51:39Z</time>
      </trkpt>
      <trkpt lat="38.194004" lon="-1.473015">
        <ele>912.9</ele>
        <time>2015-04-12T10:51:53Z</time>
      </trkpt>
      <trkpt lat="38.194002" lon="-1.473095">
        <ele>911.5</ele>
        <time>2015-04-12T10:52:04Z</time>
      </trkpt>
      <trkpt lat="38.193988" lon="-1.473159">
        <ele>912.4</ele>
        <time>2015-04-12T10:52:16Z</time>
      </trkpt>
      <trkpt lat="38.193936" lon="-1.473196">
        <ele>911.0</ele>
        <time>2015-04-12T10:52:29Z</time>
      </trkpt>
      <trkpt lat="38.193906" lon="-1.473259">
        <ele>911.5</ele>
        <time>2015-04-12T10:52:41Z</time>
      </trkpt>
      <trkpt lat="38.193824" lon="-1.473322">
        <ele>912.0</ele>
        <time>2015-04-12T10:52:53Z</time>
      </trkpt>
      <trkpt lat="38.193806" lon="-1.473359">
        <ele>913.4</ele>
        <time>2015-04-12T10:53:04Z</time>
      </trkpt>
      <trkpt lat="38.193787" lon="-1.473363">
        <ele>913.9</ele>
        <time>2015-04-12T10:53:16Z</time>
      </trkpt>
      <trkpt lat="38.193763" lon="-1.473408">
        <ele>917.2</ele>
        <time>2015-04-12T10:53:41Z</time>
      </trkpt>
      <trkpt lat="38.193745" lon="-1.473505">
        <ele>917.7</ele>
        <time>2015-04-12T10:53:52Z</time>
      </trkpt>
      <trkpt lat="38.193720" lon="-1.473548">
        <ele>918.2</ele>
        <time>2015-04-12T10:54:04Z</time>
      </trkpt>
      <trkpt lat="38.193715" lon="-1.473562">
        <ele>916.8</ele>
        <time>2015-04-12T10:54:48Z</time>
      </trkpt>
      <trkpt lat="38.193678" lon="-1.473601">
        <ele>916.3</ele>
        <time>2015-04-12T10:55:51Z</time>
      </trkpt>
      <trkpt lat="38.193680" lon="-1.473613">
        <ele>917.2</ele>
        <time>2015-04-12T10:56:11Z</time>
      </trkpt>
      <trkpt lat="38.193688" lon="-1.473611">
        <ele>916.8</ele>
        <time>2015-04-12T10:56:52Z</time>
      </trkpt>
      <trkpt lat="38.193722" lon="-1.473593">
        <ele>916.8</ele>
        <time>2015-04-12T10:57:09Z</time>
      </trkpt>
      <trkpt lat="38.193738" lon="-1.473587">
        <ele>917.2</ele>
        <time>2015-04-12T10:57:32Z</time>
      </trkpt>
      <trkpt lat="38.193760" lon="-1.473568">
        <ele>916.3</ele>
        <time>2015-04-12T10:58:00Z</time>
      </trkpt>
      <trkpt lat="38.193796" lon="-1.473489">
        <ele>916.8</ele>
        <time>2015-04-12T10:58:13Z</time>
      </trkpt>
      <trkpt lat="38.193860" lon="-1.473416">
        <ele>914.8</ele>
        <time>2015-04-12T10:58:26Z</time>
      </trkpt>
      <trkpt lat="38.193895" lon="-1.473331">
        <ele>913.9</ele>
        <time>2015-04-12T10:58:41Z</time>
      </trkpt>
      <trkpt lat="38.193931" lon="-1.473247">
        <ele>913.4</ele>
        <time>2015-04-12T10:58:55Z</time>
      </trkpt>
      <trkpt lat="38.193952" lon="-1.473191">
        <ele>912.9</ele>
        <time>2015-04-12T10:59:08Z</time>
      </trkpt>
      <trkpt lat="38.194003" lon="-1.473131">
        <ele>913.9</ele>
        <time>2015-04-12T10:59:18Z</time>
      </trkpt>
      <trkpt lat="38.194023" lon="-1.473015">
        <ele>912.9</ele>
        <time>2015-04-12T10:59:30Z</time>
      </trkpt>
      <trkpt lat="38.194041" lon="-1.472998">
        <ele>914.3</ele>
        <time>2015-04-12T10:59:33Z</time>
      </trkpt>
      <trkpt lat="38.194072" lon="-1.472913">
        <ele>914.8</ele>
        <time>2015-04-12T10:59:58Z</time>
      </trkpt>
      <trkpt lat="38.194098" lon="-1.472920">
        <ele>914.8</ele>
        <time>2015-04-12T11:00:01Z</time>
      </trkpt>
      <trkpt lat="38.194119" lon="-1.472899">
        <ele>914.8</ele>
        <time>2015-04-12T11:00:04Z</time>
      </trkpt>
      <trkpt lat="38.194181" lon="-1.472785">
        <ele>916.3</ele>
        <time>2015-04-12T11:00:17Z</time>
      </trkpt>
      <trkpt lat="38.194176" lon="-1.472694">
        <ele>917.7</ele>
        <time>2015-04-12T11:00:25Z</time>
      </trkpt>
      <trkpt lat="38.194171" lon="-1.472590">
        <ele>921.1</ele>
        <time>2015-04-12T11:00:33Z</time>
      </trkpt>
      <trkpt lat="38.194174" lon="-1.472579">
        <ele>921.1</ele>
        <time>2015-04-12T11:00:34Z</time>
      </trkpt>
      <trkpt lat="38.194185" lon="-1.472468">
        <ele>924.5</ele>
        <time>2015-04-12T11:00:45Z</time>
      </trkpt>
      <trkpt lat="38.194159" lon="-1.472375">
        <ele>927.8</ele>
        <time>2015-04-12T11:00:57Z</time>
      </trkpt>
      <trkpt lat="38.194160" lon="-1.472362">
        <ele>927.8</ele>
        <time>2015-04-12T11:01:10Z</time>
      </trkpt>
      <trkpt lat="38.194141" lon="-1.472288">
        <ele>929.2</ele>
        <time>2015-04-12T11:01:23Z</time>
      </trkpt>
      <trkpt lat="38.194139" lon="-1.472216">
        <ele>931.7</ele>
        <time>2015-04-12T11:01:34Z</time>
      </trkpt>
      <trkpt lat="38.194151" lon="-1.472142">
        <ele>934.1</ele>
        <time>2015-04-12T11:01:46Z</time>
      </trkpt>
      <trkpt lat="38.194170" lon="-1.472081">
        <ele>935.0</ele>
        <time>2015-04-12T11:01:56Z</time>
      </trkpt>
      <trkpt lat="38.194250" lon="-1.471997">
        <ele>936.5</ele>
        <time>2015-04-12T11:02:09Z</time>
      </trkpt>
      <trkpt lat="38.194278" lon="-1.471953">
        <ele>937.4</ele>
        <time>2015-04-12T11:02:20Z</time>
      </trkpt>
      <trkpt lat="38.194361" lon="-1.471872">
        <ele>938.4</ele>
        <time>2015-04-12T11:02:32Z</time>
      </trkpt>
      <trkpt lat="38.194367" lon="-1.471856">
        <ele>939.3</ele>
        <time>2015-04-12T11:02:34Z</time>
      </trkpt>
      <trkpt lat="38.194410" lon="-1.471827">
        <ele>939.3</ele>
        <time>2015-04-12T11:02:45Z</time>
      </trkpt>
      <trkpt lat="38.194417" lon="-1.471822">
        <ele>938.9</ele>
        <time>2015-04-12T11:02:46Z</time>
      </trkpt>
      <trkpt lat="38.194461" lon="-1.471794">
        <ele>939.3</ele>
        <time>2015-04-12T11:02:56Z</time>
      </trkpt>
      <trkpt lat="38.194514" lon="-1.471723">
        <ele>940.3</ele>
        <time>2015-04-12T11:03:09Z</time>
      </trkpt>
      <trkpt lat="38.194519" lon="-1.471686">
        <ele>941.3</ele>
        <time>2015-04-12T11:03:16Z</time>
      </trkpt>
      <trkpt lat="38.194517" lon="-1.471562">
        <ele>941.3</ele>
        <time>2015-04-12T11:03:29Z</time>
      </trkpt>
      <trkpt lat="38.194538" lon="-1.471543">
        <ele>940.8</ele>
        <time>2015-04-12T11:03:32Z</time>
      </trkpt>
      <trkpt lat="38.194591" lon="-1.471503">
        <ele>942.2</ele>
        <time>2015-04-12T11:03:39Z</time>
      </trkpt>
      <trkpt lat="38.194620" lon="-1.471436">
        <ele>942.7</ele>
        <time>2015-04-12T11:03:50Z</time>
      </trkpt>
      <trkpt lat="38.194644" lon="-1.471406">
        <ele>943.2</ele>
        <time>2015-04-12T11:04:03Z</time>
      </trkpt>
      <trkpt lat="38.194677" lon="-1.471341">
        <ele>943.7</ele>
        <time>2015-04-12T11:04:12Z</time>
      </trkpt>
      <trkpt lat="38.194717" lon="-1.471280">
        <ele>944.6</ele>
        <time>2015-04-12T11:04:24Z</time>
      </trkpt>
      <trkpt lat="38.194740" lon="-1.471239">
        <ele>945.1</ele>
        <time>2015-04-12T11:04:34Z</time>
      </trkpt>
      <trkpt lat="38.194749" lon="-1.471117">
        <ele>947.0</ele>
        <time>2015-04-12T11:04:46Z</time>
      </trkpt>
      <trkpt lat="38.194749" lon="-1.471106">
        <ele>947.5</ele>
        <time>2015-04-12T11:04:47Z</time>
      </trkpt>
      <trkpt lat="38.194735" lon="-1.471071">
        <ele>948.0</ele>
        <time>2015-04-12T11:04:50Z</time>
      </trkpt>
      <trkpt lat="38.194729" lon="-1.471026">
        <ele>949.4</ele>
        <time>2015-04-12T11:04:53Z</time>
      </trkpt>
      <trkpt lat="38.194748" lon="-1.470904">
        <ele>950.9</ele>
        <time>2015-04-12T11:05:06Z</time>
      </trkpt>
      <trkpt lat="38.194746" lon="-1.470839">
        <ele>951.8</ele>
        <time>2015-04-12T11:05:17Z</time>
      </trkpt>
      <trkpt lat="38.194745" lon="-1.470817">
        <ele>951.8</ele>
        <time>2015-04-12T11:05:27Z</time>
      </trkpt>
      <trkpt lat="38.194787" lon="-1.470737">
        <ele>951.4</ele>
        <time>2015-04-12T11:05:37Z</time>
      </trkpt>
      <trkpt lat="38.194819" lon="-1.470620">
        <ele>949.9</ele>
        <time>2015-04-12T11:05:51Z</time>
      </trkpt>
      <trkpt lat="38.194856" lon="-1.470555">
        <ele>947.5</ele>
        <time>2015-04-12T11:06:05Z</time>
      </trkpt>
      <trkpt lat="38.194857" lon="-1.470504">
        <ele>945.6</ele>
        <time>2015-04-12T11:06:17Z</time>
      </trkpt>
      <trkpt lat="38.194856" lon="-1.470469">
        <ele>944.2</ele>
        <time>2015-04-12T11:06:28Z</time>
      </trkpt>
      <trkpt lat="38.194850" lon="-1.470446">
        <ele>943.7</ele>
        <time>2015-04-12T11:06:38Z</time>
      </trkpt>
      <trkpt lat="38.194832" lon="-1.470411">
        <ele>941.8</ele>
        <time>2015-04-12T11:06:51Z</time>
      </trkpt>
      <trkpt lat="38.194834" lon="-1.470396">
        <ele>940.3</ele>
        <time>2015-04-12T11:07:04Z</time>
      </trkpt>
      <trkpt lat="38.194836" lon="-1.470387">
        <ele>940.8</ele>
        <time>2015-04-12T11:07:07Z</time>
      </trkpt>
      <trkpt lat="38.194797" lon="-1.470350">
        <ele>938.9</ele>
        <time>2015-04-12T11:07:17Z</time>
      </trkpt>
      <trkpt lat="38.194776" lon="-1.470334">
        <ele>938.4</ele>
        <time>2015-04-12T11:07:21Z</time>
      </trkpt>
      <trkpt lat="38.194730" lon="-1.470312">
        <ele>937.4</ele>
        <time>2015-04-12T11:07:32Z</time>
      </trkpt>
      <trkpt lat="38.194741" lon="-1.470279">
        <ele>935.5</ele>
        <time>2015-04-12T11:07:45Z</time>
      </trkpt>
      <trkpt lat="38.194744" lon="-1.470243">
        <ele>934.5</ele>
        <time>2015-04-12T11:07:56Z</time>
      </trkpt>
      <trkpt lat="38.194706" lon="-1.470219">
        <ele>934.1</ele>
        <time>2015-04-12T11:08:08Z</time>
      </trkpt>
      <trkpt lat="38.194690" lon="-1.470223">
        <ele>933.6</ele>
        <time>2015-04-12T11:08:18Z</time>
      </trkpt>
      <trkpt lat="38.194679" lon="-1.470221">
        <ele>933.6</ele>
        <time>2015-04-12T11:08:21Z</time>
      </trkpt>
      <trkpt lat="38.194641" lon="-1.470227">
        <ele>932.6</ele>
        <time>2015-04-12T11:08:26Z</time>
      </trkpt>
      <trkpt lat="38.194602" lon="-1.470180">
        <ele>929.7</ele>
        <time>2015-04-12T11:08:37Z</time>
      </trkpt>
      <trkpt lat="38.194583" lon="-1.470149">
        <ele>926.8</ele>
        <time>2015-04-12T11:08:47Z</time>
      </trkpt>
      <trkpt lat="38.194583" lon="-1.470147">
        <ele>928.8</ele>
        <time>2015-04-12T11:08:49Z</time>
      </trkpt>
      <trkpt lat="38.194552" lon="-1.470131">
        <ele>925.9</ele>
        <time>2015-04-12T11:09:00Z</time>
      </trkpt>
      <trkpt lat="38.194530" lon="-1.470086">
        <ele>924.9</ele>
        <time>2015-04-12T11:09:08Z</time>
      </trkpt>
      <trkpt lat="38.194528" lon="-1.470059">
        <ele>924.5</ele>
        <time>2015-04-12T11:09:13Z</time>
      </trkpt>
      <trkpt lat="38.194478" lon="-1.470038">
        <ele>922.0</ele>
        <time>2015-04-12T11:09:26Z</time>
      </trkpt>
      <trkpt lat="38.194449" lon="-1.470019">
        <ele>920.6</ele>
        <time>2015-04-12T11:09:31Z</time>
      </trkpt>
      <trkpt lat="38.194439" lon="-1.470001">
        <ele>920.1</ele>
        <time>2015-04-12T11:09:34Z</time>
      </trkpt>
      <trkpt lat="38.194421" lon="-1.470002">
        <ele>919.6</ele>
        <time>2015-04-12T11:09:37Z</time>
      </trkpt>
      <trkpt lat="38.194407" lon="-1.469983">
        <ele>919.2</ele>
        <time>2015-04-12T11:09:39Z</time>
      </trkpt>
      <trkpt lat="38.194373" lon="-1.469971">
        <ele>918.2</ele>
        <time>2015-04-12T11:09:42Z</time>
      </trkpt>
      <trkpt lat="38.194307" lon="-1.469939">
        <ele>916.3</ele>
        <time>2015-04-12T11:09:54Z</time>
      </trkpt>
      <trkpt lat="38.194258" lon="-1.469904">
        <ele>914.8</ele>
        <time>2015-04-12T11:10:00Z</time>
      </trkpt>
      <trkpt lat="38.194198" lon="-1.469896">
        <ele>913.9</ele>
        <time>2015-04-12T11:10:06Z</time>
      </trkpt>
      <trkpt lat="38.194168" lon="-1.469855">
        <ele>912.4</ele>
        <time>2015-04-12T11:10:10Z</time>
      </trkpt>
      <trkpt lat="38.194105" lon="-1.469784">
        <ele>910.0</ele>
        <time>2015-04-12T11:10:22Z</time>
      </trkpt>
      <trkpt lat="38.194072" lon="-1.469707">
        <ele>907.6</ele>
        <time>2015-04-12T11:10:31Z</time>
      </trkpt>
      <trkpt lat="38.194037" lon="-1.469644">
        <ele>906.7</ele>
        <time>2015-04-12T11:10:42Z</time>
      </trkpt>
      <trkpt lat="38.193972" lon="-1.469592">
        <ele>905.2</ele>
        <time>2015-04-12T11:10:53Z</time>
      </trkpt>
      <trkpt lat="38.193923" lon="-1.469476">
        <ele>902.3</ele>
        <time>2015-04-12T11:11:05Z</time>
      </trkpt>
      <trkpt lat="38.193927" lon="-1.469419">
        <ele>900.9</ele>
        <time>2015-04-12T11:11:10Z</time>
      </trkpt>
      <trkpt lat="38.193923" lon="-1.469277">
        <ele>897.5</ele>
        <time>2015-04-12T11:11:25Z</time>
      </trkpt>
      <trkpt lat="38.193931" lon="-1.469263">
        <ele>898.0</ele>
        <time>2015-04-12T11:11:27Z</time>
      </trkpt>
      <trkpt lat="38.193951" lon="-1.469170">
        <ele>895.1</ele>
        <time>2015-04-12T11:11:38Z</time>
      </trkpt>
      <trkpt lat="38.193967" lon="-1.469105">
        <ele>893.2</ele>
        <time>2015-04-12T11:11:49Z</time>
      </trkpt>
      <trkpt lat="38.193971" lon="-1.469008">
        <ele>891.3</ele>
        <time>2015-04-12T11:12:00Z</time>
      </trkpt>
      <trkpt lat="38.193979" lon="-1.469003">
        <ele>891.3</ele>
        <time>2015-04-12T11:12:01Z</time>
      </trkpt>
      <trkpt lat="38.194000" lon="-1.468975">
        <ele>890.3</ele>
        <time>2015-04-12T11:12:06Z</time>
      </trkpt>
      <trkpt lat="38.194014" lon="-1.468886">
        <ele>888.4</ele>
        <time>2015-04-12T11:12:14Z</time>
      </trkpt>
      <trkpt lat="38.193985" lon="-1.468786">
        <ele>886.0</ele>
        <time>2015-04-12T11:12:25Z</time>
      </trkpt>
      <trkpt lat="38.193966" lon="-1.468725">
        <ele>884.1</ele>
        <time>2015-04-12T11:12:31Z</time>
      </trkpt>
      <trkpt lat="38.193999" lon="-1.468656">
        <ele>882.2</ele>
        <time>2015-04-12T11:12:37Z</time>
      </trkpt>
      <trkpt lat="38.194004" lon="-1.468590">
        <ele>880.7</ele>
        <time>2015-04-12T11:12:48Z</time>
      </trkpt>
      <trkpt lat="38.194036" lon="-1.468538">
        <ele>879.3</ele>
        <time>2015-04-12T11:13:01Z</time>
      </trkpt>
      <trkpt lat="38.194006" lon="-1.468460">
        <ele>877.3</ele>
        <time>2015-04-12T11:13:12Z</time>
      </trkpt>
      <trkpt lat="38.193985" lon="-1.468368">
        <ele>876.4</ele>
        <time>2015-04-12T11:13:22Z</time>
      </trkpt>
      <trkpt lat="38.194009" lon="-1.468269">
        <ele>874.0</ele>
        <time>2015-04-12T11:13:32Z</time>
      </trkpt>
      <trkpt lat="38.194032" lon="-1.468171">
        <ele>872.5</ele>
        <time>2015-04-12T11:13:43Z</time>
      </trkpt>
      <trkpt lat="38.194058" lon="-1.468118">
        <ele>871.1</ele>
        <time>2015-04-12T11:13:53Z</time>
      </trkpt>
      <trkpt lat="38.194086" lon="-1.468012">
        <ele>868.7</ele>
        <time>2015-04-12T11:14:07Z</time>
      </trkpt>
      <trkpt lat="38.194081" lon="-1.467995">
        <ele>868.2</ele>
        <time>2015-04-12T11:14:10Z</time>
      </trkpt>
      <trkpt lat="38.194075" lon="-1.467930">
        <ele>867.2</ele>
        <time>2015-04-12T11:14:17Z</time>
      </trkpt>
      <trkpt lat="38.194097" lon="-1.467852">
        <ele>865.3</ele>
        <time>2015-04-12T11:14:29Z</time>
      </trkpt>
      <trkpt lat="38.194144" lon="-1.467790">
        <ele>862.4</ele>
        <time>2015-04-12T11:14:40Z</time>
      </trkpt>
      <trkpt lat="38.194153" lon="-1.467775">
        <ele>862.0</ele>
        <time>2015-04-12T11:14:42Z</time>
      </trkpt>
      <trkpt lat="38.194200" lon="-1.467693">
        <ele>860.0</ele>
        <time>2015-04-12T11:14:55Z</time>
      </trkpt>
      <trkpt lat="38.194221" lon="-1.467648">
        <ele>858.1</ele>
        <time>2015-04-12T11:15:01Z</time>
      </trkpt>
      <trkpt lat="38.194228" lon="-1.467545">
        <ele>854.8</ele>
        <time>2015-04-12T11:15:26Z</time>
      </trkpt>
      <trkpt lat="38.194256" lon="-1.467494">
        <ele>853.8</ele>
        <time>2015-04-12T11:15:35Z</time>
      </trkpt>
      <trkpt lat="38.194315" lon="-1.467469">
        <ele>852.3</ele>
        <time>2015-04-12T11:15:42Z</time>
      </trkpt>
      <trkpt lat="38.194328" lon="-1.467448">
        <ele>851.4</ele>
        <time>2015-04-12T11:15:46Z</time>
      </trkpt>
      <trkpt lat="38.194374" lon="-1.467389">
        <ele>850.4</ele>
        <time>2015-04-12T11:15:58Z</time>
      </trkpt>
      <trkpt lat="38.194391" lon="-1.467378">
        <ele>849.9</ele>
        <time>2015-04-12T11:16:01Z</time>
      </trkpt>
      <trkpt lat="38.194408" lon="-1.467353">
        <ele>849.0</ele>
        <time>2015-04-12T11:16:04Z</time>
      </trkpt>
      <trkpt lat="38.194443" lon="-1.467274">
        <ele>846.1</ele>
        <time>2015-04-12T11:16:10Z</time>
      </trkpt>
      <trkpt lat="38.194432" lon="-1.467207">
        <ele>844.2</ele>
        <time>2015-04-12T11:16:20Z</time>
      </trkpt>
      <trkpt lat="38.194422" lon="-1.467152">
        <ele>843.2</ele>
        <time>2015-04-12T11:16:26Z</time>
      </trkpt>
      <trkpt lat="38.194397" lon="-1.467116">
        <ele>842.7</ele>
        <time>2015-04-12T11:16:29Z</time>
      </trkpt>
      <trkpt lat="38.194391" lon="-1.467024">
        <ele>840.3</ele>
        <time>2015-04-12T11:16:35Z</time>
      </trkpt>
      <trkpt lat="38.194423" lon="-1.466917">
        <ele>838.4</ele>
        <time>2015-04-12T11:16:42Z</time>
      </trkpt>
      <trkpt lat="38.194413" lon="-1.466788">
        <ele>837.0</ele>
        <time>2015-04-12T11:16:49Z</time>
      </trkpt>
      <trkpt lat="38.194423" lon="-1.466757">
        <ele>837.0</ele>
        <time>2015-04-12T11:16:51Z</time>
      </trkpt>
      <trkpt lat="38.194498" lon="-1.466731">
        <ele>837.0</ele>
        <time>2015-04-12T11:16:56Z</time>
      </trkpt>
      <trkpt lat="38.194456" lon="-1.466631">
        <ele>836.5</ele>
        <time>2015-04-12T11:18:26Z</time>
      </trkpt>
      <trkpt lat="38.194677" lon="-1.466558">
        <ele>836.5</ele>
        <time>2015-04-12T11:18:43Z</time>
      </trkpt>
      <trkpt lat="38.194833" lon="-1.466433">
        <ele>836.5</ele>
        <time>2015-04-12T11:18:57Z</time>
      </trkpt>
      <trkpt lat="38.194863" lon="-1.466407">
        <ele>835.5</ele>
        <time>2015-04-12T11:19:00Z</time>
      </trkpt>
      <trkpt lat="38.194887" lon="-1.466398">
        <ele>836.5</ele>
        <time>2015-04-12T11:19:02Z</time>
      </trkpt>
      <trkpt lat="38.194987" lon="-1.466269">
        <ele>835.5</ele>
        <time>2015-04-12T11:19:13Z</time>
      </trkpt>
      <trkpt lat="38.195091" lon="-1.466144">
        <ele>835.0</ele>
        <time>2015-04-12T11:19:24Z</time>
      </trkpt>
      <trkpt lat="38.195193" lon="-1.465968">
        <ele>834.6</ele>
        <time>2015-04-12T11:19:37Z</time>
      </trkpt>
      <trkpt lat="38.195326" lon="-1.465743">
        <ele>835.0</ele>
        <time>2015-04-12T11:19:53Z</time>
      </trkpt>
      <trkpt lat="38.195385" lon="-1.465672">
        <ele>834.1</ele>
        <time>2015-04-12T11:20:00Z</time>
      </trkpt>
      <trkpt lat="38.195431" lon="-1.465640">
        <ele>834.1</ele>
        <time>2015-04-12T11:20:04Z</time>
      </trkpt>
      <trkpt lat="38.195649" lon="-1.465579">
        <ele>831.7</ele>
        <time>2015-04-12T11:20:22Z</time>
      </trkpt>
      <trkpt lat="38.195913" lon="-1.465440">
        <ele>829.8</ele>
        <time>2015-04-12T11:20:40Z</time>
      </trkpt>
      <trkpt lat="38.196045" lon="-1.465196">
        <ele>829.3</ele>
        <time>2015-04-12T11:20:56Z</time>
      </trkpt>
      <trkpt lat="38.196132" lon="-1.465071">
        <ele>827.8</ele>
        <time>2015-04-12T11:21:06Z</time>
      </trkpt>
      <trkpt lat="38.196267" lon="-1.465031">
        <ele>826.9</ele>
        <time>2015-04-12T11:21:18Z</time>
      </trkpt>
      <trkpt lat="38.196389" lon="-1.465124">
        <ele>825.4</ele>
        <time>2015-04-12T11:21:29Z</time>
      </trkpt>
      <trkpt lat="38.196488" lon="-1.465141">
        <ele>825.0</ele>
        <time>2015-04-12T11:21:36Z</time>
      </trkpt>
      <trkpt lat="38.196789" lon="-1.465055">
        <ele>823.0</ele>
        <time>2015-04-12T11:21:55Z</time>
      </trkpt>
      <trkpt lat="38.196898" lon="-1.464983">
        <ele>822.1</ele>
        <time>2015-04-12T11:22:12Z</time>
      </trkpt>
      <trkpt lat="38.196910" lon="-1.464977">
        <ele>822.1</ele>
        <time>2015-04-12T11:22:30Z</time>
      </trkpt>
      <trkpt lat="38.196942" lon="-1.464953">
        <ele>823.0</ele>
        <time>2015-04-12T11:22:50Z</time>
      </trkpt>
      <trkpt lat="38.197086" lon="-1.464802">
        <ele>821.6</ele>
        <time>2015-04-12T11:23:04Z</time>
      </trkpt>
      <trkpt lat="38.197257" lon="-1.464677">
        <ele>820.6</ele>
        <time>2015-04-12T11:23:18Z</time>
      </trkpt>
      <trkpt lat="38.197291" lon="-1.464640">
        <ele>820.1</ele>
        <time>2015-04-12T11:23:31Z</time>
      </trkpt>
      <trkpt lat="38.197310" lon="-1.464635">
        <ele>820.6</ele>
        <time>2015-04-12T11:23:49Z</time>
      </trkpt>
      <trkpt lat="38.197391" lon="-1.464601">
        <ele>820.1</ele>
        <time>2015-04-12T11:23:57Z</time>
      </trkpt>
      <trkpt lat="38.197548" lon="-1.464390">
        <ele>818.2</ele>
        <time>2015-04-12T11:24:13Z</time>
      </trkpt>
      <trkpt lat="38.197531" lon="-1.464240">
        <ele>817.3</ele>
        <time>2015-04-12T11:24:21Z</time>
      </trkpt>
      <trkpt lat="38.197526" lon="-1.464217">
        <ele>816.8</ele>
        <time>2015-04-12T11:24:30Z</time>
      </trkpt>
      <trkpt lat="38.197561" lon="-1.463967">
        <ele>816.3</ele>
        <time>2015-04-12T11:24:45Z</time>
      </trkpt>
      <trkpt lat="38.197598" lon="-1.463904">
        <ele>815.8</ele>
        <time>2015-04-12T11:24:49Z</time>
      </trkpt>
      <trkpt lat="38.197644" lon="-1.463853">
        <ele>815.3</ele>
        <time>2015-04-12T11:24:53Z</time>
      </trkpt>
      <trkpt lat="38.197866" lon="-1.463731">
        <ele>813.4</ele>
        <time>2015-04-12T11:25:11Z</time>
      </trkpt>
      <trkpt lat="38.198070" lon="-1.463604">
        <ele>811.0</ele>
        <time>2015-04-12T11:25:25Z</time>
      </trkpt>
      <trkpt lat="38.198279" lon="-1.463380">
        <ele>808.1</ele>
        <time>2015-04-12T11:25:44Z</time>
      </trkpt>
      <trkpt lat="38.198318" lon="-1.463586">
        <ele>806.7</ele>
        <time>2015-04-12T11:25:59Z</time>
      </trkpt>
      <trkpt lat="38.198137" lon="-1.463756">
        <ele>803.8</ele>
        <time>2015-04-12T11:26:16Z</time>
      </trkpt>
      <trkpt lat="38.197941" lon="-1.463906">
        <ele>801.9</ele>
        <time>2015-04-12T11:26:32Z</time>
      </trkpt>
      <trkpt lat="38.197872" lon="-1.464012">
        <ele>801.4</ele>
        <time>2015-04-12T11:26:39Z</time>
      </trkpt>
      <trkpt lat="38.197856" lon="-1.464083">
        <ele>800.9</ele>
        <time>2015-04-12T11:26:43Z</time>
      </trkpt>
      <trkpt lat="38.197885" lon="-1.464231">
        <ele>799.5</ele>
        <time>2015-04-12T11:26:51Z</time>
      </trkpt>
      <trkpt lat="38.197970" lon="-1.464529">
        <ele>796.1</ele>
        <time>2015-04-12T11:27:08Z</time>
      </trkpt>
      <trkpt lat="38.197952" lon="-1.464644">
        <ele>793.7</ele>
        <time>2015-04-12T11:27:15Z</time>
      </trkpt>
      <trkpt lat="38.197930" lon="-1.464735">
        <ele>793.2</ele>
        <time>2015-04-12T11:27:21Z</time>
      </trkpt>
      <trkpt lat="38.197758" lon="-1.464941">
        <ele>790.3</ele>
        <time>2015-04-12T11:27:38Z</time>
      </trkpt>
      <trkpt lat="38.197589" lon="-1.465175">
        <ele>787.5</ele>
        <time>2015-04-12T11:27:55Z</time>
      </trkpt>
      <trkpt lat="38.197422" lon="-1.465418">
        <ele>785.0</ele>
        <time>2015-04-12T11:28:13Z</time>
      </trkpt>
      <trkpt lat="38.197363" lon="-1.465570">
        <ele>784.1</ele>
        <time>2015-04-12T11:28:22Z</time>
      </trkpt>
      <trkpt lat="38.197156" lon="-1.465789">
        <ele>781.2</ele>
        <time>2015-04-12T11:28:41Z</time>
      </trkpt>
      <trkpt lat="38.197003" lon="-1.465909">
        <ele>779.8</ele>
        <time>2015-04-12T11:28:53Z</time>
      </trkpt>
      <trkpt lat="38.196980" lon="-1.465965">
        <ele>779.3</ele>
        <time>2015-04-12T11:28:56Z</time>
      </trkpt>
      <trkpt lat="38.197008" lon="-1.466125">
        <ele>778.3</ele>
        <time>2015-04-12T11:29:04Z</time>
      </trkpt>
      <trkpt lat="38.197212" lon="-1.466137">
        <ele>776.4</ele>
        <time>2015-04-12T11:29:19Z</time>
      </trkpt>
      <trkpt lat="38.197367" lon="-1.465977">
        <ele>774.0</ele>
        <time>2015-04-12T11:29:33Z</time>
      </trkpt>
      <trkpt lat="38.197516" lon="-1.465795">
        <ele>772.6</ele>
        <time>2015-04-12T11:29:47Z</time>
      </trkpt>
      <trkpt lat="38.197520" lon="-1.465776">
        <ele>772.6</ele>
        <time>2015-04-12T11:29:49Z</time>
      </trkpt>
      <trkpt lat="38.197609" lon="-1.465707">
        <ele>772.1</ele>
        <time>2015-04-12T11:29:56Z</time>
      </trkpt>
      <trkpt lat="38.197736" lon="-1.465623">
        <ele>770.6</ele>
        <time>2015-04-12T11:30:06Z</time>
      </trkpt>
      <trkpt lat="38.197944" lon="-1.465504">
        <ele>768.7</ele>
        <time>2015-04-12T11:30:22Z</time>
      </trkpt>
      <trkpt lat="38.198126" lon="-1.465435">
        <ele>766.8</ele>
        <time>2015-04-12T11:30:36Z</time>
      </trkpt>
      <trkpt lat="38.198348" lon="-1.465476">
        <ele>764.4</ele>
        <time>2015-04-12T11:30:53Z</time>
      </trkpt>
      <trkpt lat="38.198572" lon="-1.465425">
        <ele>762.5</ele>
        <time>2015-04-12T11:31:09Z</time>
      </trkpt>
      <trkpt lat="38.198743" lon="-1.465384">
        <ele>761.0</ele>
        <time>2015-04-12T11:31:21Z</time>
      </trkpt>
      <trkpt lat="38.198804" lon="-1.465266">
        <ele>759.6</ele>
        <time>2015-04-12T11:31:28Z</time>
      </trkpt>
      <trkpt lat="38.198787" lon="-1.464949">
        <ele>757.2</ele>
        <time>2015-04-12T11:31:46Z</time>
      </trkpt>
      <trkpt lat="38.198731" lon="-1.464798">
        <ele>754.8</ele>
        <time>2015-04-12T11:31:56Z</time>
      </trkpt>
      <trkpt lat="38.198761" lon="-1.464740">
        <ele>754.3</ele>
        <time>2015-04-12T11:32:00Z</time>
      </trkpt>
      <trkpt lat="38.198804" lon="-1.464707">
        <ele>753.8</ele>
        <time>2015-04-12T11:32:04Z</time>
      </trkpt>
      <trkpt lat="38.198997" lon="-1.464589">
        <ele>751.9</ele>
        <time>2015-04-12T11:32:20Z</time>
      </trkpt>
      <trkpt lat="38.199027" lon="-1.464578">
        <ele>750.9</ele>
        <time>2015-04-12T11:32:22Z</time>
      </trkpt>
      <trkpt lat="38.199249" lon="-1.464491">
        <ele>748.5</ele>
        <time>2015-04-12T11:32:40Z</time>
      </trkpt>
      <trkpt lat="38.199310" lon="-1.464443">
        <ele>748.0</ele>
        <time>2015-04-12T11:32:46Z</time>
      </trkpt>
      <trkpt lat="38.199480" lon="-1.464304">
        <ele>745.6</ele>
        <time>2015-04-12T11:33:02Z</time>
      </trkpt>
      <trkpt lat="38.199677" lon="-1.464325">
        <ele>743.2</ele>
        <time>2015-04-12T11:33:17Z</time>
      </trkpt>
      <trkpt lat="38.199900" lon="-1.464329">
        <ele>741.8</ele>
        <time>2015-04-12T11:33:33Z</time>
      </trkpt>
      <trkpt lat="38.200145" lon="-1.464235">
        <ele>739.9</ele>
        <time>2015-04-12T11:33:50Z</time>
      </trkpt>
      <trkpt lat="38.200328" lon="-1.464030">
        <ele>738.0</ele>
        <time>2015-04-12T11:34:06Z</time>
      </trkpt>
      <trkpt lat="38.200408" lon="-1.463858">
        <ele>736.5</ele>
        <time>2015-04-12T11:34:17Z</time>
      </trkpt>
      <trkpt lat="38.200570" lon="-1.463744">
        <ele>735.1</ele>
        <time>2015-04-12T11:34:33Z</time>
      </trkpt>
      <trkpt lat="38.200782" lon="-1.463552">
        <ele>732.7</ele>
        <time>2015-04-12T11:34:51Z</time>
      </trkpt>
      <trkpt lat="38.200970" lon="-1.463342">
        <ele>729.8</ele>
        <time>2015-04-12T11:35:09Z</time>
      </trkpt>
      <trkpt lat="38.201157" lon="-1.463208">
        <ele>727.9</ele>
        <time>2015-04-12T11:35:25Z</time>
      </trkpt>
      <trkpt lat="38.201375" lon="-1.463047">
        <ele>725.5</ele>
        <time>2015-04-12T11:35:43Z</time>
      </trkpt>
      <trkpt lat="38.201380" lon="-1.462987">
        <ele>725.0</ele>
        <time>2015-04-12T11:35:52Z</time>
      </trkpt>
      <trkpt lat="38.201346" lon="-1.462680">
        <ele>722.6</ele>
        <time>2015-04-12T11:36:08Z</time>
      </trkpt>
      <trkpt lat="38.201330" lon="-1.462379">
        <ele>720.2</ele>
        <time>2015-04-12T11:36:23Z</time>
      </trkpt>
      <trkpt lat="38.201410" lon="-1.462137">
        <ele>717.3</ele>
        <time>2015-04-12T11:36:38Z</time>
      </trkpt>
      <trkpt lat="38.201579" lon="-1.461903">
        <ele>715.8</ele>
        <time>2015-04-12T11:36:55Z</time>
      </trkpt>
      <trkpt lat="38.201494" lon="-1.461635">
        <ele>715.4</ele>
        <time>2015-04-12T11:37:11Z</time>
      </trkpt>
      <trkpt lat="38.201390" lon="-1.461303">
        <ele>713.4</ele>
        <time>2015-04-12T11:37:30Z</time>
      </trkpt>
      <trkpt lat="38.201392" lon="-1.461270">
        <ele>713.0</ele>
        <time>2015-04-12T11:37:32Z</time>
      </trkpt>
      <trkpt lat="38.201569" lon="-1.461201">
        <ele>710.5</ele>
        <time>2015-04-12T11:37:48Z</time>
      </trkpt>
      <trkpt lat="38.201655" lon="-1.461163">
        <ele>709.6</ele>
        <time>2015-04-12T11:37:55Z</time>
      </trkpt>
      <trkpt lat="38.201727" lon="-1.461124">
        <ele>708.6</ele>
        <time>2015-04-12T11:38:00Z</time>
      </trkpt>
      <trkpt lat="38.201925" lon="-1.460958">
        <ele>706.2</ele>
        <time>2015-04-12T11:38:16Z</time>
      </trkpt>
      <trkpt lat="38.202105" lon="-1.460811">
        <ele>704.3</ele>
        <time>2015-04-12T11:38:32Z</time>
      </trkpt>
      <trkpt lat="38.202182" lon="-1.460745">
        <ele>703.3</ele>
        <time>2015-04-12T11:38:38Z</time>
      </trkpt>
      <trkpt lat="38.202267" lon="-1.460704">
        <ele>702.4</ele>
        <time>2015-04-12T11:38:44Z</time>
      </trkpt>
      <trkpt lat="38.202459" lon="-1.460479">
        <ele>700.0</ele>
        <time>2015-04-12T11:39:02Z</time>
      </trkpt>
      <trkpt lat="38.202498" lon="-1.460400">
        <ele>700.0</ele>
        <time>2015-04-12T11:39:07Z</time>
      </trkpt>
      <trkpt lat="38.202562" lon="-1.460278">
        <ele>699.5</ele>
        <time>2015-04-12T11:39:15Z</time>
      </trkpt>
      <trkpt lat="38.202712" lon="-1.460086">
        <ele>697.1</ele>
        <time>2015-04-12T11:39:32Z</time>
      </trkpt>
      <trkpt lat="38.202895" lon="-1.459971">
        <ele>694.7</ele>
        <time>2015-04-12T11:39:48Z</time>
      </trkpt>
      <trkpt lat="38.203086" lon="-1.459918">
        <ele>691.8</ele>
        <time>2015-04-12T11:40:03Z</time>
      </trkpt>
      <trkpt lat="38.203289" lon="-1.459890">
        <ele>689.9</ele>
        <time>2015-04-12T11:40:18Z</time>
      </trkpt>
      <trkpt lat="38.203534" lon="-1.459835">
        <ele>687.0</ele>
        <time>2015-04-12T11:40:35Z</time>
      </trkpt>
      <trkpt lat="38.203746" lon="-1.459803">
        <ele>684.6</ele>
        <time>2015-04-12T11:40:50Z</time>
      </trkpt>
      <trkpt lat="38.203951" lon="-1.459752">
        <ele>683.2</ele>
        <time>2015-04-12T11:41:06Z</time>
      </trkpt>
      <trkpt lat="38.204003" lon="-1.459702">
        <ele>682.7</ele>
        <time>2015-04-12T11:41:10Z</time>
      </trkpt>
      <trkpt lat="38.204251" lon="-1.459454">
        <ele>681.2</ele>
        <time>2015-04-12T11:41:29Z</time>
      </trkpt>
      <trkpt lat="38.204395" lon="-1.459158">
        <ele>679.8</ele>
        <time>2015-04-12T11:41:48Z</time>
      </trkpt>
      <trkpt lat="38.204517" lon="-1.458819">
        <ele>678.3</ele>
        <time>2015-04-12T11:42:07Z</time>
      </trkpt>
      <trkpt lat="38.204614" lon="-1.458515">
        <ele>676.9</ele>
        <time>2015-04-12T11:42:24Z</time>
      </trkpt>
      <trkpt lat="38.204641" lon="-1.458227">
        <ele>674.5</ele>
        <time>2015-04-12T11:42:40Z</time>
      </trkpt>
      <trkpt lat="38.204630" lon="-1.457902">
        <ele>672.6</ele>
        <time>2015-04-12T11:42:58Z</time>
      </trkpt>
      <trkpt lat="38.204652" lon="-1.457618">
        <ele>671.1</ele>
        <time>2015-04-12T11:43:15Z</time>
      </trkpt>
      <trkpt lat="38.204671" lon="-1.457513">
        <ele>670.7</ele>
        <time>2015-04-12T11:43:22Z</time>
      </trkpt>
      <trkpt lat="38.204710" lon="-1.457352">
        <ele>670.2</ele>
        <time>2015-04-12T11:43:30Z</time>
      </trkpt>
      <trkpt lat="38.204526" lon="-1.457192">
        <ele>669.2</ele>
        <time>2015-04-12T11:43:45Z</time>
      </trkpt>
      <trkpt lat="38.204466" lon="-1.457155">
        <ele>668.7</ele>
        <time>2015-04-12T11:43:50Z</time>
      </trkpt>
      <trkpt lat="38.204354" lon="-1.456839">
        <ele>668.2</ele>
        <time>2015-04-12T11:44:09Z</time>
      </trkpt>
      <trkpt lat="38.204273" lon="-1.456524">
        <ele>666.3</ele>
        <time>2015-04-12T11:44:27Z</time>
      </trkpt>
      <trkpt lat="38.204185" lon="-1.456287">
        <ele>665.8</ele>
        <time>2015-04-12T11:44:41Z</time>
      </trkpt>
      <trkpt lat="38.204150" lon="-1.456072">
        <ele>663.5</ele>
        <time>2015-04-12T11:44:56Z</time>
      </trkpt>
      <trkpt lat="38.203978" lon="-1.455853">
        <ele>661.5</ele>
        <time>2015-04-12T11:45:15Z</time>
      </trkpt>
      <trkpt lat="38.203778" lon="-1.455748">
        <ele>660.6</ele>
        <time>2015-04-12T11:45:30Z</time>
      </trkpt>
      <trkpt lat="38.203594" lon="-1.455659">
        <ele>660.6</ele>
        <time>2015-04-12T11:45:45Z</time>
      </trkpt>
      <trkpt lat="38.203475" lon="-1.455434">
        <ele>660.1</ele>
        <time>2015-04-12T11:46:01Z</time>
      </trkpt>
      <trkpt lat="38.203499" lon="-1.455305">
        <ele>659.6</ele>
        <time>2015-04-12T11:46:09Z</time>
      </trkpt>
      <trkpt lat="38.203636" lon="-1.455112">
        <ele>657.7</ele>
        <time>2015-04-12T11:46:25Z</time>
      </trkpt>
      <trkpt lat="38.203732" lon="-1.455004">
        <ele>656.7</ele>
        <time>2015-04-12T11:46:35Z</time>
      </trkpt>
      <trkpt lat="38.203826" lon="-1.454754">
        <ele>654.3</ele>
        <time>2015-04-12T11:46:51Z</time>
      </trkpt>
      <trkpt lat="38.203824" lon="-1.454466">
        <ele>652.9</ele>
        <time>2015-04-12T11:47:08Z</time>
      </trkpt>
      <trkpt lat="38.203972" lon="-1.454243">
        <ele>651.0</ele>
        <time>2015-04-12T11:47:25Z</time>
      </trkpt>
      <trkpt lat="38.204103" lon="-1.454053">
        <ele>649.5</ele>
        <time>2015-04-12T11:47:39Z</time>
      </trkpt>
      <trkpt lat="38.204265" lon="-1.453941">
        <ele>647.6</ele>
        <time>2015-04-12T11:47:54Z</time>
      </trkpt>
      <trkpt lat="38.204297" lon="-1.453919">
        <ele>646.6</ele>
        <time>2015-04-12T11:47:57Z</time>
      </trkpt>
      <trkpt lat="38.204415" lon="-1.453621">
        <ele>644.7</ele>
        <time>2015-04-12T11:48:16Z</time>
      </trkpt>
      <trkpt lat="38.204578" lon="-1.453448">
        <ele>642.3</ele>
        <time>2015-04-12T11:48:32Z</time>
      </trkpt>
      <trkpt lat="38.204697" lon="-1.453391">
        <ele>641.3</ele>
        <time>2015-04-12T11:48:41Z</time>
      </trkpt>
      <trkpt lat="38.204744" lon="-1.453367">
        <ele>640.9</ele>
        <time>2015-04-12T11:48:45Z</time>
      </trkpt>
      <trkpt lat="38.204998" lon="-1.453177">
        <ele>639.4</ele>
        <time>2015-04-12T11:49:06Z</time>
      </trkpt>
      <trkpt lat="38.205165" lon="-1.452987">
        <ele>637.5</ele>
        <time>2015-04-12T11:49:22Z</time>
      </trkpt>
      <trkpt lat="38.205162" lon="-1.452814">
        <ele>635.6</ele>
        <time>2015-04-12T11:49:33Z</time>
      </trkpt>
      <trkpt lat="38.205147" lon="-1.452727">
        <ele>635.1</ele>
        <time>2015-04-12T11:49:39Z</time>
      </trkpt>
      <trkpt lat="38.205162" lon="-1.452423">
        <ele>632.2</ele>
        <time>2015-04-12T11:49:58Z</time>
      </trkpt>
      <trkpt lat="38.205280" lon="-1.452207">
        <ele>630.8</ele>
        <time>2015-04-12T11:50:14Z</time>
      </trkpt>
      <trkpt lat="38.205289" lon="-1.452196">
        <ele>630.3</ele>
        <time>2015-04-12T11:50:15Z</time>
      </trkpt>
      <trkpt lat="38.205424" lon="-1.451929">
        <ele>629.3</ele>
        <time>2015-04-12T11:50:33Z</time>
      </trkpt>
      <trkpt lat="38.205442" lon="-1.451902">
        <ele>628.8</ele>
        <time>2015-04-12T11:50:35Z</time>
      </trkpt>
      <trkpt lat="38.205512" lon="-1.451791">
        <ele>627.9</ele>
        <time>2015-04-12T11:50:43Z</time>
      </trkpt>
      <trkpt lat="38.205715" lon="-1.451554">
        <ele>625.0</ele>
        <time>2015-04-12T11:51:03Z</time>
      </trkpt>
      <trkpt lat="38.205911" lon="-1.451411">
        <ele>624.5</ele>
        <time>2015-04-12T11:51:20Z</time>
      </trkpt>
      <trkpt lat="38.206070" lon="-1.451282">
        <ele>621.6</ele>
        <time>2015-04-12T11:51:34Z</time>
      </trkpt>
      <trkpt lat="38.206232" lon="-1.451099">
        <ele>619.7</ele>
        <time>2015-04-12T11:51:50Z</time>
      </trkpt>
      <trkpt lat="38.206210" lon="-1.450815">
        <ele>617.8</ele>
        <time>2015-04-12T11:52:07Z</time>
      </trkpt>
      <trkpt lat="38.206127" lon="-1.450530">
        <ele>615.9</ele>
        <time>2015-04-12T11:52:25Z</time>
      </trkpt>
      <trkpt lat="38.206053" lon="-1.450228">
        <ele>613.9</ele>
        <time>2015-04-12T11:52:43Z</time>
      </trkpt>
      <trkpt lat="38.206039" lon="-1.449924">
        <ele>613.5</ele>
        <time>2015-04-12T11:53:01Z</time>
      </trkpt>
      <trkpt lat="38.206065" lon="-1.449623">
        <ele>612.5</ele>
        <time>2015-04-12T11:53:18Z</time>
      </trkpt>
      <trkpt lat="38.206200" lon="-1.449484">
        <ele>610.6</ele>
        <time>2015-04-12T11:53:34Z</time>
      </trkpt>
      <trkpt lat="38.206361" lon="-1.449656">
        <ele>607.7</ele>
        <time>2015-04-12T11:53:50Z</time>
      </trkpt>
      <trkpt lat="38.206477" lon="-1.449899">
        <ele>605.3</ele>
        <time>2015-04-12T11:54:06Z</time>
      </trkpt>
      <trkpt lat="38.206578" lon="-1.450188">
        <ele>603.4</ele>
        <time>2015-04-12T11:54:24Z</time>
      </trkpt>
      <trkpt lat="38.206763" lon="-1.450358">
        <ele>601.0</ele>
        <time>2015-04-12T11:54:40Z</time>
      </trkpt>
      <trkpt lat="38.206948" lon="-1.450372">
        <ele>597.6</ele>
        <time>2015-04-12T11:54:53Z</time>
      </trkpt>
      <trkpt lat="38.207184" lon="-1.450419">
        <ele>596.2</ele>
        <time>2015-04-12T11:55:10Z</time>
      </trkpt>
      <trkpt lat="38.207246" lon="-1.450495">
        <ele>596.2</ele>
        <time>2015-04-12T11:55:24Z</time>
      </trkpt>
      <trkpt lat="38.207310" lon="-1.450504">
        <ele>595.7</ele>
        <time>2015-04-12T11:55:32Z</time>
      </trkpt>
      <trkpt lat="38.207341" lon="-1.450493">
        <ele>594.7</ele>
        <time>2015-04-12T11:55:35Z</time>
      </trkpt>
      <trkpt lat="38.207374" lon="-1.450404">
        <ele>592.8</ele>
        <time>2015-04-12T11:55:49Z</time>
      </trkpt>
      <trkpt lat="38.207280" lon="-1.450163">
        <ele>591.3</ele>
        <time>2015-04-12T11:56:05Z</time>
      </trkpt>
      <trkpt lat="38.207120" lon="-1.450061">
        <ele>590.9</ele>
        <time>2015-04-12T11:56:19Z</time>
      </trkpt>
      <trkpt lat="38.206985" lon="-1.450018">
        <ele>589.4</ele>
        <time>2015-04-12T11:56:34Z</time>
      </trkpt>
      <trkpt lat="38.206838" lon="-1.449943">
        <ele>588.5</ele>
        <time>2015-04-12T11:56:47Z</time>
      </trkpt>
      <trkpt lat="38.206759" lon="-1.449724">
        <ele>586.5</ele>
        <time>2015-04-12T11:57:01Z</time>
      </trkpt>
      <trkpt lat="38.206791" lon="-1.449393">
        <ele>585.6</ele>
        <time>2015-04-12T11:57:21Z</time>
      </trkpt>
      <trkpt lat="38.206842" lon="-1.449143">
        <ele>583.7</ele>
        <time>2015-04-12T11:57:36Z</time>
      </trkpt>
      <trkpt lat="38.206800" lon="-1.448854">
        <ele>581.7</ele>
        <time>2015-04-12T11:57:52Z</time>
      </trkpt>
      <trkpt lat="38.206735" lon="-1.448562">
        <ele>579.8</ele>
        <time>2015-04-12T11:58:09Z</time>
      </trkpt>
      <trkpt lat="38.206623" lon="-1.448322">
        <ele>576.5</ele>
        <time>2015-04-12T11:58:25Z</time>
      </trkpt>
      <trkpt lat="38.206537" lon="-1.448081">
        <ele>574.5</ele>
        <time>2015-04-12T11:58:41Z</time>
      </trkpt>
      <trkpt lat="38.206553" lon="-1.447931">
        <ele>573.1</ele>
        <time>2015-04-12T11:58:51Z</time>
      </trkpt>
      <trkpt lat="38.206588" lon="-1.447892">
        <ele>572.6</ele>
        <time>2015-04-12T11:58:55Z</time>
      </trkpt>
      <trkpt lat="38.206732" lon="-1.447993">
        <ele>570.2</ele>
        <time>2015-04-12T11:59:10Z</time>
      </trkpt>
      <trkpt lat="38.206851" lon="-1.448145">
        <ele>566.8</ele>
        <time>2015-04-12T11:59:23Z</time>
      </trkpt>
      <trkpt lat="38.207003" lon="-1.448312">
        <ele>564.9</ele>
        <time>2015-04-12T11:59:38Z</time>
      </trkpt>
      <trkpt lat="38.207168" lon="-1.448459">
        <ele>563.5</ele>
        <time>2015-04-12T11:59:53Z</time>
      </trkpt>
      <trkpt lat="38.207238" lon="-1.448686">
        <ele>562.0</ele>
        <time>2015-04-12T12:00:08Z</time>
      </trkpt>
      <trkpt lat="38.207257" lon="-1.449000">
        <ele>560.6</ele>
        <time>2015-04-12T12:00:26Z</time>
      </trkpt>
      <trkpt lat="38.207253" lon="-1.449186">
        <ele>559.6</ele>
        <time>2015-04-12T12:00:37Z</time>
      </trkpt>
      <trkpt lat="38.207263" lon="-1.449231">
        <ele>560.1</ele>
        <time>2015-04-12T12:00:40Z</time>
      </trkpt>
      <trkpt lat="38.207463" lon="-1.449371">
        <ele>559.1</ele>
        <time>2015-04-12T12:00:58Z</time>
      </trkpt>
      <trkpt lat="38.207639" lon="-1.449440">
        <ele>557.2</ele>
        <time>2015-04-12T12:01:10Z</time>
      </trkpt>
      <trkpt lat="38.207798" lon="-1.449622">
        <ele>556.3</ele>
        <time>2015-04-12T12:01:26Z</time>
      </trkpt>
      <trkpt lat="38.207923" lon="-1.449838">
        <ele>554.8</ele>
        <time>2015-04-12T12:01:41Z</time>
      </trkpt>
      <trkpt lat="38.207990" lon="-1.450010">
        <ele>553.9</ele>
        <time>2015-04-12T12:01:53Z</time>
      </trkpt>
      <trkpt lat="38.208078" lon="-1.450231">
        <ele>552.4</ele>
        <time>2015-04-12T12:02:08Z</time>
      </trkpt>
      <trkpt lat="38.208125" lon="-1.450346">
        <ele>551.5</ele>
        <time>2015-04-12T12:02:16Z</time>
      </trkpt>
      <trkpt lat="38.208156" lon="-1.450423">
        <ele>551.0</ele>
        <time>2015-04-12T12:02:21Z</time>
      </trkpt>
      <trkpt lat="38.208199" lon="-1.450496">
        <ele>550.5</ele>
        <time>2015-04-12T12:02:28Z</time>
      </trkpt>
      <trkpt lat="38.208305" lon="-1.450734">
        <ele>548.6</ele>
        <time>2015-04-12T12:02:44Z</time>
      </trkpt>
      <trkpt lat="38.208475" lon="-1.450819">
        <ele>546.7</ele>
        <time>2015-04-12T12:02:59Z</time>
      </trkpt>
      <trkpt lat="38.208574" lon="-1.450720">
        <ele>544.7</ele>
        <time>2015-04-12T12:03:08Z</time>
      </trkpt>
      <trkpt lat="38.208597" lon="-1.450664">
        <ele>544.2</ele>
        <time>2015-04-12T12:03:12Z</time>
      </trkpt>
      <trkpt lat="38.208676" lon="-1.450414">
        <ele>542.8</ele>
        <time>2015-04-12T12:03:28Z</time>
      </trkpt>
      <trkpt lat="38.208640" lon="-1.450162">
        <ele>539.9</ele>
        <time>2015-04-12T12:03:43Z</time>
      </trkpt>
      <trkpt lat="38.208526" lon="-1.449888">
        <ele>538.0</ele>
        <time>2015-04-12T12:04:01Z</time>
      </trkpt>
      <trkpt lat="38.208407" lon="-1.449641">
        <ele>537.5</ele>
        <time>2015-04-12T12:04:17Z</time>
      </trkpt>
      <trkpt lat="38.208278" lon="-1.449417">
        <ele>538.0</ele>
        <time>2015-04-12T12:04:33Z</time>
      </trkpt>
      <trkpt lat="38.208190" lon="-1.449245">
        <ele>538.5</ele>
        <time>2015-04-12T12:04:45Z</time>
      </trkpt>
      <trkpt lat="38.208092" lon="-1.449009">
        <ele>537.5</ele>
        <time>2015-04-12T12:05:01Z</time>
      </trkpt>
      <trkpt lat="38.208058" lon="-1.448807">
        <ele>534.6</ele>
        <time>2015-04-12T12:05:14Z</time>
      </trkpt>
      <trkpt lat="38.208039" lon="-1.448566">
        <ele>533.7</ele>
        <time>2015-04-12T12:05:29Z</time>
      </trkpt>
      <trkpt lat="38.208037" lon="-1.448267">
        <ele>531.8</ele>
        <time>2015-04-12T12:05:46Z</time>
      </trkpt>
      <trkpt lat="38.208042" lon="-1.448113">
        <ele>530.3</ele>
        <time>2015-04-12T12:05:55Z</time>
      </trkpt>
      <trkpt lat="38.208039" lon="-1.447998">
        <ele>529.8</ele>
        <time>2015-04-12T12:06:02Z</time>
      </trkpt>
      <trkpt lat="38.208069" lon="-1.447710">
        <ele>527.4</ele>
        <time>2015-04-12T12:06:19Z</time>
      </trkpt>
      <trkpt lat="38.208069" lon="-1.447526">
        <ele>526.0</ele>
        <time>2015-04-12T12:06:30Z</time>
      </trkpt>
      <trkpt lat="38.208047" lon="-1.447245">
        <ele>524.1</ele>
        <time>2015-04-12T12:06:45Z</time>
      </trkpt>
      <trkpt lat="38.208080" lon="-1.447006">
        <ele>522.6</ele>
        <time>2015-04-12T12:06:59Z</time>
      </trkpt>
      <trkpt lat="38.208102" lon="-1.446733">
        <ele>521.7</ele>
        <time>2015-04-12T12:07:15Z</time>
      </trkpt>
      <trkpt lat="38.207959" lon="-1.446552">
        <ele>521.7</ele>
        <time>2015-04-12T12:07:30Z</time>
      </trkpt>
      <trkpt lat="38.207917" lon="-1.446520">
        <ele>521.7</ele>
        <time>2015-04-12T12:07:34Z</time>
      </trkpt>
      <trkpt lat="38.207718" lon="-1.446370">
        <ele>521.2</ele>
        <time>2015-04-12T12:07:52Z</time>
      </trkpt>
      <trkpt lat="38.207622" lon="-1.446179">
        <ele>519.2</ele>
        <time>2015-04-12T12:08:06Z</time>
      </trkpt>
      <trkpt lat="38.207530" lon="-1.445906">
        <ele>517.3</ele>
        <time>2015-04-12T12:08:22Z</time>
      </trkpt>
      <trkpt lat="38.207598" lon="-1.445764">
        <ele>514.4</ele>
        <time>2015-04-12T12:08:34Z</time>
      </trkpt>
      <trkpt lat="38.207757" lon="-1.445829">
        <ele>511.6</ele>
        <time>2015-04-12T12:08:48Z</time>
      </trkpt>
      <trkpt lat="38.207925" lon="-1.445976">
        <ele>510.1</ele>
        <time>2015-04-12T12:09:04Z</time>
      </trkpt>
      <trkpt lat="38.208139" lon="-1.446117">
        <ele>507.7</ele>
        <time>2015-04-12T12:09:22Z</time>
      </trkpt>
      <trkpt lat="38.208335" lon="-1.446098">
        <ele>505.8</ele>
        <time>2015-04-12T12:09:37Z</time>
      </trkpt>
      <trkpt lat="38.208374" lon="-1.446069">
        <ele>504.8</ele>
        <time>2015-04-12T12:09:40Z</time>
      </trkpt>
      <trkpt lat="38.208449" lon="-1.445977">
        <ele>504.4</ele>
        <time>2015-04-12T12:09:47Z</time>
      </trkpt>
      <trkpt lat="38.208427" lon="-1.445741">
        <ele>501.0</ele>
        <time>2015-04-12T12:10:02Z</time>
      </trkpt>
      <trkpt lat="38.208424" lon="-1.445702">
        <ele>500.5</ele>
        <time>2015-04-12T12:10:05Z</time>
      </trkpt>
      <trkpt lat="38.208365" lon="-1.445469">
        <ele>497.6</ele>
        <time>2015-04-12T12:10:20Z</time>
      </trkpt>
      <trkpt lat="38.208351" lon="-1.445436">
        <ele>496.7</ele>
        <time>2015-04-12T12:10:22Z</time>
      </trkpt>
      <trkpt lat="38.208301" lon="-1.445361">
        <ele>495.7</ele>
        <time>2015-04-12T12:10:28Z</time>
      </trkpt>
      <trkpt lat="38.208192" lon="-1.445258">
        <ele>495.2</ele>
        <time>2015-04-12T12:10:38Z</time>
      </trkpt>
      <trkpt lat="38.208145" lon="-1.445223">
        <ele>495.7</ele>
        <time>2015-04-12T12:10:42Z</time>
      </trkpt>
      <trkpt lat="38.207935" lon="-1.445069">
        <ele>494.3</ele>
        <time>2015-04-12T12:10:59Z</time>
      </trkpt>
      <trkpt lat="38.207772" lon="-1.445031">
        <ele>491.9</ele>
        <time>2015-04-12T12:11:12Z</time>
      </trkpt>
      <trkpt lat="38.207729" lon="-1.445014">
        <ele>490.9</ele>
        <time>2015-04-12T12:11:16Z</time>
      </trkpt>
      <trkpt lat="38.207571" lon="-1.444966">
        <ele>489.0</ele>
        <time>2015-04-12T12:11:28Z</time>
      </trkpt>
      <trkpt lat="38.207342" lon="-1.444895">
        <ele>485.1</ele>
        <time>2015-04-12T12:11:46Z</time>
      </trkpt>
      <trkpt lat="38.207160" lon="-1.444832">
        <ele>482.7</ele>
        <time>2015-04-12T12:12:00Z</time>
      </trkpt>
      <trkpt lat="38.207014" lon="-1.444733">
        <ele>481.3</ele>
        <time>2015-04-12T12:12:12Z</time>
      </trkpt>
      <trkpt lat="38.206850" lon="-1.444606">
        <ele>478.4</ele>
        <time>2015-04-12T12:12:27Z</time>
      </trkpt>
      <trkpt lat="38.206829" lon="-1.444550">
        <ele>477.9</ele>
        <time>2015-04-12T12:12:31Z</time>
      </trkpt>
      <trkpt lat="38.206852" lon="-1.444331">
        <ele>475.5</ele>
        <time>2015-04-12T12:12:46Z</time>
      </trkpt>
      <trkpt lat="38.206882" lon="-1.444141">
        <ele>472.6</ele>
        <time>2015-04-12T12:12:58Z</time>
      </trkpt>
      <trkpt lat="38.206868" lon="-1.443958">
        <ele>469.7</ele>
        <time>2015-04-12T12:13:09Z</time>
      </trkpt>
      <trkpt lat="38.206840" lon="-1.443790">
        <ele>467.8</ele>
        <time>2015-04-12T12:13:19Z</time>
      </trkpt>
      <trkpt lat="38.206844" lon="-1.443741">
        <ele>466.9</ele>
        <time>2015-04-12T12:13:22Z</time>
      </trkpt>
      <trkpt lat="38.206818" lon="-1.443667">
        <ele>465.4</ele>
        <time>2015-04-12T12:13:26Z</time>
      </trkpt>
      <trkpt lat="38.206779" lon="-1.443462">
        <ele>463.0</ele>
        <time>2015-04-12T12:13:39Z</time>
      </trkpt>
      <trkpt lat="38.206750" lon="-1.443317">
        <ele>461.1</ele>
        <time>2015-04-12T12:13:48Z</time>
      </trkpt>
      <trkpt lat="38.206688" lon="-1.443012">
        <ele>459.6</ele>
        <time>2015-04-12T12:14:05Z</time>
      </trkpt>
      <trkpt lat="38.206675" lon="-1.442956">
        <ele>459.6</ele>
        <time>2015-04-12T12:14:08Z</time>
      </trkpt>
      <trkpt lat="38.206605" lon="-1.442677">
        <ele>456.8</ele>
        <time>2015-04-12T12:14:25Z</time>
      </trkpt>
      <trkpt lat="38.206522" lon="-1.442412">
        <ele>453.9</ele>
        <time>2015-04-12T12:14:41Z</time>
      </trkpt>
      <trkpt lat="38.206449" lon="-1.442143">
        <ele>451.0</ele>
        <time>2015-04-12T12:14:58Z</time>
      </trkpt>
      <trkpt lat="38.206381" lon="-1.441881">
        <ele>449.1</ele>
        <time>2015-04-12T12:15:14Z</time>
      </trkpt>
      <trkpt lat="38.206361" lon="-1.441676">
        <ele>448.6</ele>
        <time>2015-04-12T12:15:26Z</time>
      </trkpt>
      <trkpt lat="38.206420" lon="-1.441660">
        <ele>448.1</ele>
        <time>2015-04-12T12:15:30Z</time>
      </trkpt>
      <trkpt lat="38.206595" lon="-1.441815">
        <ele>445.2</ele>
        <time>2015-04-12T12:15:45Z</time>
      </trkpt>
      <trkpt lat="38.206654" lon="-1.441887">
        <ele>444.8</ele>
        <time>2015-04-12T12:15:51Z</time>
      </trkpt>
      <trkpt lat="38.206768" lon="-1.441994">
        <ele>443.3</ele>
        <time>2015-04-12T12:16:02Z</time>
      </trkpt>
      <trkpt lat="38.206921" lon="-1.442066">
        <ele>441.9</ele>
        <time>2015-04-12T12:16:16Z</time>
      </trkpt>
      <trkpt lat="38.207134" lon="-1.442162">
        <ele>440.4</ele>
        <time>2015-04-12T12:16:32Z</time>
      </trkpt>
      <trkpt lat="38.207283" lon="-1.442208">
        <ele>439.0</ele>
        <time>2015-04-12T12:16:43Z</time>
      </trkpt>
      <trkpt lat="38.207350" lon="-1.442222">
        <ele>438.0</ele>
        <time>2015-04-12T12:16:48Z</time>
      </trkpt>
      <trkpt lat="38.207546" lon="-1.442278">
        <ele>436.1</ele>
        <time>2015-04-12T12:17:03Z</time>
      </trkpt>
      <trkpt lat="38.207784" lon="-1.442327">
        <ele>433.2</ele>
        <time>2015-04-12T12:17:21Z</time>
      </trkpt>
      <trkpt lat="38.207977" lon="-1.442364">
        <ele>431.3</ele>
        <time>2015-04-12T12:17:35Z</time>
      </trkpt>
      <trkpt lat="38.208206" lon="-1.442411">
        <ele>427.9</ele>
        <time>2015-04-12T12:17:52Z</time>
      </trkpt>
      <trkpt lat="38.208460" lon="-1.442472">
        <ele>425.5</ele>
        <time>2015-04-12T12:18:10Z</time>
      </trkpt>
      <trkpt lat="38.208676" lon="-1.442500">
        <ele>423.1</ele>
        <time>2015-04-12T12:18:26Z</time>
      </trkpt>
      <trkpt lat="38.208873" lon="-1.442498">
        <ele>419.8</ele>
        <time>2015-04-12T12:18:42Z</time>
      </trkpt>
      <trkpt lat="38.209087" lon="-1.442435">
        <ele>416.9</ele>
        <time>2015-04-12T12:18:59Z</time>
      </trkpt>
      <trkpt lat="38.209179" lon="-1.442271">
        <ele>415.0</ele>
        <time>2015-04-12T12:19:14Z</time>
      </trkpt>
      <trkpt lat="38.209179" lon="-1.442271">
        <ele>415.9</ele>
        <time>2015-04-12T12:19:15Z</time>
      </trkpt>
    </trkseg>
  </trk>
</gpx>
